<?xml version="1.0" encoding="UTF-8" standalone="no" ?>
<gpx xmlns="http://www.topografix.com/GPX/1/1" xmlns:xsi="http://www.w3.org/2001/XMLSchema-instance" xsi:schemaLocation="http://www.topografix.com/GPX/1/1 http://www.topografix.com/GPX/1/1/gpx.xsd" version="1.1" creator="VisuGPX - https://www.visugpx.com">
  <metadata>
    <name>La classique de Mont d\'Or - 14/06/2015</name>
    <desc><![CDATA[La fameuse classique du Mont de Roro]]></desc>
  </metadata>
  <trk>
    <name><![CDATA[ACTIVE LOG083724]]></name>
    <trkseg>
      <trkpt lat="45.76945" lon="4.82535">
        <ele>155.558</ele>
        <time>2015-06-14T06:37:22Z</time>
      </trkpt>
      <trkpt lat="45.76953" lon="4.82528">
        <ele>159.944</ele>
        <time>2015-06-14T06:40:13Z</time>
      </trkpt>
      <trkpt lat="45.76953" lon="4.82528">
        <ele>159.256</ele>
        <time>2015-06-14T06:40:48Z</time>
      </trkpt>
      <trkpt lat="45.76954" lon="4.82528">
        <ele>159.545</ele>
        <time>2015-06-14T06:40:58Z</time>
      </trkpt>
      <trkpt lat="45.76954" lon="4.82521">
        <ele>160.801</ele>
        <time>2015-06-14T06:41:01Z</time>
      </trkpt>
      <trkpt lat="45.76962" lon="4.8245">
        <ele>168.7</ele>
        <time>2015-06-14T06:41:15Z</time>
      </trkpt>
      <trkpt lat="45.76958" lon="4.82435">
        <ele>182.683</ele>
        <time>2015-06-14T06:41:20Z</time>
      </trkpt>
      <trkpt lat="45.76943" lon="4.82427">
        <ele>188.055</ele>
        <time>2015-06-14T06:41:25Z</time>
      </trkpt>
      <trkpt lat="45.7694" lon="4.82404">
        <ele>193.219</ele>
        <time>2015-06-14T06:41:30Z</time>
      </trkpt>
      <trkpt lat="45.76899" lon="4.82391">
        <ele>188.125</ele>
        <time>2015-06-14T06:41:40Z</time>
      </trkpt>
      <trkpt lat="45.7689" lon="4.82388">
        <ele>188.007</ele>
        <time>2015-06-14T06:41:42Z</time>
      </trkpt>
      <trkpt lat="45.76878" lon="4.82402">
        <ele>187.399</ele>
        <time>2015-06-14T06:41:49Z</time>
      </trkpt>
      <trkpt lat="45.76887" lon="4.82407">
        <ele>185.981</ele>
        <time>2015-06-14T06:41:51Z</time>
      </trkpt>
      <trkpt lat="45.76898" lon="4.82415">
        <ele>185.176</ele>
        <time>2015-06-14T06:41:53Z</time>
      </trkpt>
      <trkpt lat="45.76911" lon="4.82423">
        <ele>184.051</ele>
        <time>2015-06-14T06:41:56Z</time>
      </trkpt>
      <trkpt lat="45.76913" lon="4.82452">
        <ele>182.53</ele>
        <time>2015-06-14T06:42:01Z</time>
      </trkpt>
      <trkpt lat="45.76912" lon="4.82452">
        <ele>181.54</ele>
        <time>2015-06-14T06:42:05Z</time>
      </trkpt>
      <trkpt lat="45.76908" lon="4.8244">
        <ele>181.1</ele>
        <time>2015-06-14T06:42:08Z</time>
      </trkpt>
      <trkpt lat="45.76899" lon="4.82451">
        <ele>181.568</ele>
        <time>2015-06-14T06:42:13Z</time>
      </trkpt>
      <trkpt lat="45.76895" lon="4.82466">
        <ele>181.373</ele>
        <time>2015-06-14T06:42:16Z</time>
      </trkpt>
      <trkpt lat="45.76889" lon="4.82464">
        <ele>180.421</ele>
        <time>2015-06-14T06:42:20Z</time>
      </trkpt>
      <trkpt lat="45.76853" lon="4.82466">
        <ele>178.487</ele>
        <time>2015-06-14T06:42:26Z</time>
      </trkpt>
      <trkpt lat="45.7684" lon="4.82469">
        <ele>177.756</ele>
        <time>2015-06-14T06:42:30Z</time>
      </trkpt>
      <trkpt lat="45.76833" lon="4.82461">
        <ele>176.95</ele>
        <time>2015-06-14T06:42:34Z</time>
      </trkpt>
      <trkpt lat="45.76829" lon="4.82376">
        <ele>180.231</ele>
        <time>2015-06-14T06:42:48Z</time>
      </trkpt>
      <trkpt lat="45.76827" lon="4.82357">
        <ele>180.921</ele>
        <time>2015-06-14T06:42:51Z</time>
      </trkpt>
      <trkpt lat="45.76815" lon="4.82207">
        <ele>181.121</ele>
        <time>2015-06-14T06:43:13Z</time>
      </trkpt>
      <trkpt lat="45.76789" lon="4.82094">
        <ele>180.769</ele>
        <time>2015-06-14T06:43:29Z</time>
      </trkpt>
      <trkpt lat="45.76782" lon="4.82074">
        <ele>181.032</ele>
        <time>2015-06-14T06:43:32Z</time>
      </trkpt>
      <trkpt lat="45.7678" lon="4.82038">
        <ele>178.919</ele>
        <time>2015-06-14T06:43:39Z</time>
      </trkpt>
      <trkpt lat="45.76772" lon="4.82034">
        <ele>179.549</ele>
        <time>2015-06-14T06:43:43Z</time>
      </trkpt>
      <trkpt lat="45.76705" lon="4.82062">
        <ele>174.562</ele>
        <time>2015-06-14T06:44:02Z</time>
      </trkpt>
      <trkpt lat="45.76692" lon="4.82068">
        <ele>173.443</ele>
        <time>2015-06-14T06:44:05Z</time>
      </trkpt>
      <trkpt lat="45.76676" lon="4.82023">
        <ele>173.448</ele>
        <time>2015-06-14T06:44:15Z</time>
      </trkpt>
      <trkpt lat="45.76672" lon="4.82011">
        <ele>173.37</ele>
        <time>2015-06-14T06:44:17Z</time>
      </trkpt>
      <trkpt lat="45.7665" lon="4.81893">
        <ele>173.404</ele>
        <time>2015-06-14T06:44:34Z</time>
      </trkpt>
      <trkpt lat="45.76653" lon="4.81785">
        <ele>173.375</ele>
        <time>2015-06-14T06:44:47Z</time>
      </trkpt>
      <trkpt lat="45.76656" lon="4.81762">
        <ele>173.747</ele>
        <time>2015-06-14T06:44:50Z</time>
      </trkpt>
      <trkpt lat="45.76687" lon="4.81594">
        <ele>174.651</ele>
        <time>2015-06-14T06:45:09Z</time>
      </trkpt>
      <trkpt lat="45.76735" lon="4.81461">
        <ele>174.008</ele>
        <time>2015-06-14T06:45:25Z</time>
      </trkpt>
      <trkpt lat="45.76807" lon="4.81316">
        <ele>171.98</ele>
        <time>2015-06-14T06:45:43Z</time>
      </trkpt>
      <trkpt lat="45.7687" lon="4.81276">
        <ele>171.868</ele>
        <time>2015-06-14T06:45:53Z</time>
      </trkpt>
      <trkpt lat="45.76905" lon="4.81277">
        <ele>172.066</ele>
        <time>2015-06-14T06:45:58Z</time>
      </trkpt>
      <trkpt lat="45.76985" lon="4.81264">
        <ele>173.713</ele>
        <time>2015-06-14T06:46:11Z</time>
      </trkpt>
      <trkpt lat="45.77026" lon="4.81234">
        <ele>172.743</ele>
        <time>2015-06-14T06:46:18Z</time>
      </trkpt>
      <trkpt lat="45.77101" lon="4.81195">
        <ele>171.049</ele>
        <time>2015-06-14T06:46:29Z</time>
      </trkpt>
      <trkpt lat="45.77134" lon="4.8118">
        <ele>170.775</ele>
        <time>2015-06-14T06:46:34Z</time>
      </trkpt>
      <trkpt lat="45.77195" lon="4.8115">
        <ele>169.096</ele>
        <time>2015-06-14T06:46:44Z</time>
      </trkpt>
      <trkpt lat="45.77226" lon="4.81115">
        <ele>170.012</ele>
        <time>2015-06-14T06:46:50Z</time>
      </trkpt>
      <trkpt lat="45.77312" lon="4.81015">
        <ele>171.9</ele>
        <time>2015-06-14T06:47:07Z</time>
      </trkpt>
      <trkpt lat="45.77402" lon="4.80929">
        <ele>170.856</ele>
        <time>2015-06-14T06:47:24Z</time>
      </trkpt>
      <trkpt lat="45.77406" lon="4.80925">
        <ele>170.714</ele>
        <time>2015-06-14T06:47:25Z</time>
      </trkpt>
      <trkpt lat="45.77475" lon="4.80867">
        <ele>171.859</ele>
        <time>2015-06-14T06:47:38Z</time>
      </trkpt>
      <trkpt lat="45.77479" lon="4.80864">
        <ele>171.952</ele>
        <time>2015-06-14T06:47:39Z</time>
      </trkpt>
      <trkpt lat="45.77495" lon="4.80862">
        <ele>171.825</ele>
        <time>2015-06-14T06:47:43Z</time>
      </trkpt>
      <trkpt lat="45.77516" lon="4.80844">
        <ele>170.338</ele>
        <time>2015-06-14T06:47:48Z</time>
      </trkpt>
      <trkpt lat="45.77644" lon="4.80793">
        <ele>168.572</ele>
        <time>2015-06-14T06:48:10Z</time>
      </trkpt>
      <trkpt lat="45.77685" lon="4.80776">
        <ele>167.12</ele>
        <time>2015-06-14T06:48:17Z</time>
      </trkpt>
      <trkpt lat="45.77709" lon="4.8078">
        <ele>167.614</ele>
        <time>2015-06-14T06:48:21Z</time>
      </trkpt>
      <trkpt lat="45.77726" lon="4.80783">
        <ele>166.704</ele>
        <time>2015-06-14T06:48:24Z</time>
      </trkpt>
      <trkpt lat="45.77781" lon="4.80798">
        <ele>166.361</ele>
        <time>2015-06-14T06:48:34Z</time>
      </trkpt>
      <trkpt lat="45.77813" lon="4.80803">
        <ele>166.268</ele>
        <time>2015-06-14T06:48:40Z</time>
      </trkpt>
      <trkpt lat="45.77822" lon="4.80805">
        <ele>166.326</ele>
        <time>2015-06-14T06:48:42Z</time>
      </trkpt>
      <trkpt lat="45.77845" lon="4.80802">
        <ele>166.767</ele>
        <time>2015-06-14T06:48:47Z</time>
      </trkpt>
      <trkpt lat="45.77867" lon="4.80808">
        <ele>167.472</ele>
        <time>2015-06-14T06:48:51Z</time>
      </trkpt>
      <trkpt lat="45.77936" lon="4.80848">
        <ele>167.069</ele>
        <time>2015-06-14T06:49:04Z</time>
      </trkpt>
      <trkpt lat="45.78" lon="4.80881">
        <ele>165.566</ele>
        <time>2015-06-14T06:49:16Z</time>
      </trkpt>
      <trkpt lat="45.78038" lon="4.80901">
        <ele>167.544</ele>
        <time>2015-06-14T06:49:23Z</time>
      </trkpt>
      <trkpt lat="45.78061" lon="4.80884">
        <ele>168.245</ele>
        <time>2015-06-14T06:49:28Z</time>
      </trkpt>
      <trkpt lat="45.78136" lon="4.80726">
        <ele>169.749</ele>
        <time>2015-06-14T06:49:48Z</time>
      </trkpt>
      <trkpt lat="45.78147" lon="4.80703">
        <ele>170.053</ele>
        <time>2015-06-14T06:49:51Z</time>
      </trkpt>
      <trkpt lat="45.78155" lon="4.80681">
        <ele>170.065</ele>
        <time>2015-06-14T06:49:54Z</time>
      </trkpt>
      <trkpt lat="45.78175" lon="4.80678">
        <ele>170.535</ele>
        <time>2015-06-14T06:49:58Z</time>
      </trkpt>
      <trkpt lat="45.78266" lon="4.80741">
        <ele>173.03</ele>
        <time>2015-06-14T06:50:14Z</time>
      </trkpt>
      <trkpt lat="45.78408" lon="4.80821">
        <ele>174.693</ele>
        <time>2015-06-14T06:50:37Z</time>
      </trkpt>
      <trkpt lat="45.78439" lon="4.80838">
        <ele>174.405</ele>
        <time>2015-06-14T06:50:42Z</time>
      </trkpt>
      <trkpt lat="45.78479" lon="4.80835">
        <ele>173.026</ele>
        <time>2015-06-14T06:50:48Z</time>
      </trkpt>
      <trkpt lat="45.78523" lon="4.80807">
        <ele>172.25</ele>
        <time>2015-06-14T06:50:55Z</time>
      </trkpt>
      <trkpt lat="45.78537" lon="4.80797">
        <ele>172.179</ele>
        <time>2015-06-14T06:50:57Z</time>
      </trkpt>
      <trkpt lat="45.78559" lon="4.8079">
        <ele>172.381</ele>
        <time>2015-06-14T06:51:00Z</time>
      </trkpt>
      <trkpt lat="45.78634" lon="4.80814">
        <ele>175.519</ele>
        <time>2015-06-14T06:51:13Z</time>
      </trkpt>
      <trkpt lat="45.78729" lon="4.80852">
        <ele>181.35</ele>
        <time>2015-06-14T06:51:32Z</time>
      </trkpt>
      <trkpt lat="45.78788" lon="4.80879">
        <ele>186.757</ele>
        <time>2015-06-14T06:51:45Z</time>
      </trkpt>
      <trkpt lat="45.78816" lon="4.80862">
        <ele>186.501</ele>
        <time>2015-06-14T06:51:52Z</time>
      </trkpt>
      <trkpt lat="45.78841" lon="4.80821">
        <ele>188.261</ele>
        <time>2015-06-14T06:52:00Z</time>
      </trkpt>
      <trkpt lat="45.78859" lon="4.80798">
        <ele>189.378</ele>
        <time>2015-06-14T06:52:05Z</time>
      </trkpt>
      <trkpt lat="45.78886" lon="4.80777">
        <ele>190.379</ele>
        <time>2015-06-14T06:52:12Z</time>
      </trkpt>
      <trkpt lat="45.7889" lon="4.80733">
        <ele>188.956</ele>
        <time>2015-06-14T06:52:19Z</time>
      </trkpt>
      <trkpt lat="45.78902" lon="4.80702">
        <ele>188.383</ele>
        <time>2015-06-14T06:52:24Z</time>
      </trkpt>
      <trkpt lat="45.78911" lon="4.80695">
        <ele>188.269</ele>
        <time>2015-06-14T06:52:26Z</time>
      </trkpt>
      <trkpt lat="45.78949" lon="4.80637">
        <ele>185.9</ele>
        <time>2015-06-14T06:52:38Z</time>
      </trkpt>
      <trkpt lat="45.78961" lon="4.80607">
        <ele>186.498</ele>
        <time>2015-06-14T06:52:43Z</time>
      </trkpt>
      <trkpt lat="45.78968" lon="4.80587">
        <ele>186.998</ele>
        <time>2015-06-14T06:52:46Z</time>
      </trkpt>
      <trkpt lat="45.78977" lon="4.80555">
        <ele>186.402</ele>
        <time>2015-06-14T06:52:51Z</time>
      </trkpt>
      <trkpt lat="45.78997" lon="4.80522">
        <ele>185.924</ele>
        <time>2015-06-14T06:52:57Z</time>
      </trkpt>
      <trkpt lat="45.79016" lon="4.80482">
        <ele>189.187</ele>
        <time>2015-06-14T06:53:06Z</time>
      </trkpt>
      <trkpt lat="45.79022" lon="4.80471">
        <ele>190.792</ele>
        <time>2015-06-14T06:53:09Z</time>
      </trkpt>
      <trkpt lat="45.79041" lon="4.80446">
        <ele>192.707</ele>
        <time>2015-06-14T06:53:14Z</time>
      </trkpt>
      <trkpt lat="45.79095" lon="4.80394">
        <ele>193.778</ele>
        <time>2015-06-14T06:53:27Z</time>
      </trkpt>
      <trkpt lat="45.79136" lon="4.80317">
        <ele>196.561</ele>
        <time>2015-06-14T06:53:41Z</time>
      </trkpt>
      <trkpt lat="45.79154" lon="4.80296">
        <ele>198.451</ele>
        <time>2015-06-14T06:53:47Z</time>
      </trkpt>
      <trkpt lat="45.79196" lon="4.80281">
        <ele>203.254</ele>
        <time>2015-06-14T06:54:02Z</time>
      </trkpt>
      <trkpt lat="45.7924" lon="4.8025">
        <ele>208.979</ele>
        <time>2015-06-14T06:54:23Z</time>
      </trkpt>
      <trkpt lat="45.79248" lon="4.80199">
        <ele>210.953</ele>
        <time>2015-06-14T06:54:39Z</time>
      </trkpt>
      <trkpt lat="45.79248" lon="4.80151">
        <ele>213.968</ele>
        <time>2015-06-14T06:54:54Z</time>
      </trkpt>
      <trkpt lat="45.79249" lon="4.80131">
        <ele>216.389</ele>
        <time>2015-06-14T06:55:00Z</time>
      </trkpt>
      <trkpt lat="45.79248" lon="4.80119">
        <ele>217.643</ele>
        <time>2015-06-14T06:55:04Z</time>
      </trkpt>
      <trkpt lat="45.79249" lon="4.80053">
        <ele>223.401</ele>
        <time>2015-06-14T06:55:22Z</time>
      </trkpt>
      <trkpt lat="45.79263" lon="4.80013">
        <ele>223.626</ele>
        <time>2015-06-14T06:55:32Z</time>
      </trkpt>
      <trkpt lat="45.79289" lon="4.79993">
        <ele>226.02</ele>
        <time>2015-06-14T06:55:43Z</time>
      </trkpt>
      <trkpt lat="45.79321" lon="4.79972">
        <ele>230.976</ele>
        <time>2015-06-14T06:55:58Z</time>
      </trkpt>
      <trkpt lat="45.79349" lon="4.7995">
        <ele>235.369</ele>
        <time>2015-06-14T06:56:13Z</time>
      </trkpt>
      <trkpt lat="45.79391" lon="4.79942">
        <ele>236.215</ele>
        <time>2015-06-14T06:56:30Z</time>
      </trkpt>
      <trkpt lat="45.79436" lon="4.79945">
        <ele>237.129</ele>
        <time>2015-06-14T06:56:49Z</time>
      </trkpt>
      <trkpt lat="45.7947" lon="4.79924">
        <ele>241.586</ele>
        <time>2015-06-14T06:57:05Z</time>
      </trkpt>
      <trkpt lat="45.79513" lon="4.79909">
        <ele>243.109</ele>
        <time>2015-06-14T06:57:22Z</time>
      </trkpt>
      <trkpt lat="45.79565" lon="4.79912">
        <ele>246.67</ele>
        <time>2015-06-14T06:57:38Z</time>
      </trkpt>
      <trkpt lat="45.79588" lon="4.79916">
        <ele>245.374</ele>
        <time>2015-06-14T06:57:44Z</time>
      </trkpt>
      <trkpt lat="45.79605" lon="4.79916">
        <ele>245.676</ele>
        <time>2015-06-14T06:57:48Z</time>
      </trkpt>
      <trkpt lat="45.79685" lon="4.79885">
        <ele>250.419</ele>
        <time>2015-06-14T06:58:05Z</time>
      </trkpt>
      <trkpt lat="45.79698" lon="4.79881">
        <ele>251.684</ele>
        <time>2015-06-14T06:58:08Z</time>
      </trkpt>
      <trkpt lat="45.79728" lon="4.79864">
        <ele>253.488</ele>
        <time>2015-06-14T06:58:15Z</time>
      </trkpt>
      <trkpt lat="45.79808" lon="4.79852">
        <ele>254.22</ele>
        <time>2015-06-14T06:58:32Z</time>
      </trkpt>
      <trkpt lat="45.79817" lon="4.79851">
        <ele>253.742</ele>
        <time>2015-06-14T06:58:34Z</time>
      </trkpt>
      <trkpt lat="45.79847" lon="4.79858">
        <ele>251.34</ele>
        <time>2015-06-14T06:58:40Z</time>
      </trkpt>
      <trkpt lat="45.79866" lon="4.79856">
        <ele>253.878</ele>
        <time>2015-06-14T06:58:44Z</time>
      </trkpt>
      <trkpt lat="45.79915" lon="4.79833">
        <ele>257.502</ele>
        <time>2015-06-14T06:58:56Z</time>
      </trkpt>
      <trkpt lat="45.79922" lon="4.79827">
        <ele>258.384</ele>
        <time>2015-06-14T06:58:58Z</time>
      </trkpt>
      <trkpt lat="45.79943" lon="4.79812">
        <ele>261.264</ele>
        <time>2015-06-14T06:59:03Z</time>
      </trkpt>
      <trkpt lat="45.79987" lon="4.79808">
        <ele>268.367</ele>
        <time>2015-06-14T06:59:15Z</time>
      </trkpt>
      <trkpt lat="45.80015" lon="4.79802">
        <ele>274.334</ele>
        <time>2015-06-14T06:59:26Z</time>
      </trkpt>
      <trkpt lat="45.80057" lon="4.79796">
        <ele>278.25</ele>
        <time>2015-06-14T06:59:42Z</time>
      </trkpt>
      <trkpt lat="45.80081" lon="4.798">
        <ele>279.181</ele>
        <time>2015-06-14T06:59:52Z</time>
      </trkpt>
      <trkpt lat="45.80111" lon="4.79776">
        <ele>281.391</ele>
        <time>2015-06-14T07:00:03Z</time>
      </trkpt>
      <trkpt lat="45.80115" lon="4.7977">
        <ele>280.338</ele>
        <time>2015-06-14T07:00:04Z</time>
      </trkpt>
      <trkpt lat="45.80145" lon="4.7971">
        <ele>269.52</ele>
        <time>2015-06-14T07:00:17Z</time>
      </trkpt>
      <trkpt lat="45.80153" lon="4.79677">
        <ele>266.02</ele>
        <time>2015-06-14T07:00:23Z</time>
      </trkpt>
      <trkpt lat="45.8016" lon="4.79587">
        <ele>263.228</ele>
        <time>2015-06-14T07:00:32Z</time>
      </trkpt>
      <trkpt lat="45.80169" lon="4.79531">
        <ele>263.511</ele>
        <time>2015-06-14T07:00:38Z</time>
      </trkpt>
      <trkpt lat="45.80169" lon="4.79479">
        <ele>264.544</ele>
        <time>2015-06-14T07:00:44Z</time>
      </trkpt>
      <trkpt lat="45.80174" lon="4.79457">
        <ele>264.974</ele>
        <time>2015-06-14T07:00:47Z</time>
      </trkpt>
      <trkpt lat="45.80193" lon="4.79403">
        <ele>265.192</ele>
        <time>2015-06-14T07:00:54Z</time>
      </trkpt>
      <trkpt lat="45.80199" lon="4.79378">
        <ele>265.884</ele>
        <time>2015-06-14T07:00:57Z</time>
      </trkpt>
      <trkpt lat="45.80204" lon="4.79365">
        <ele>265.209</ele>
        <time>2015-06-14T07:00:59Z</time>
      </trkpt>
      <trkpt lat="45.80208" lon="4.79293">
        <ele>263.478</ele>
        <time>2015-06-14T07:01:13Z</time>
      </trkpt>
      <trkpt lat="45.80192" lon="4.79235">
        <ele>264.702</ele>
        <time>2015-06-14T07:01:29Z</time>
      </trkpt>
      <trkpt lat="45.80166" lon="4.79214">
        <ele>265.743</ele>
        <time>2015-06-14T07:01:43Z</time>
      </trkpt>
      <trkpt lat="45.80169" lon="4.79206">
        <ele>265.584</ele>
        <time>2015-06-14T07:01:47Z</time>
      </trkpt>
      <trkpt lat="45.80168" lon="4.79173">
        <ele>268.779</ele>
        <time>2015-06-14T07:01:58Z</time>
      </trkpt>
      <trkpt lat="45.80191" lon="4.7914">
        <ele>271.057</ele>
        <time>2015-06-14T07:02:17Z</time>
      </trkpt>
      <trkpt lat="45.80206" lon="4.7912">
        <ele>273.622</ele>
        <time>2015-06-14T07:02:29Z</time>
      </trkpt>
      <trkpt lat="45.80223" lon="4.7909">
        <ele>276.617</ele>
        <time>2015-06-14T07:02:45Z</time>
      </trkpt>
      <trkpt lat="45.80225" lon="4.79078">
        <ele>277.587</ele>
        <time>2015-06-14T07:02:49Z</time>
      </trkpt>
      <trkpt lat="45.80229" lon="4.79068">
        <ele>277.815</ele>
        <time>2015-06-14T07:02:54Z</time>
      </trkpt>
      <trkpt lat="45.80231" lon="4.79063">
        <ele>278.383</ele>
        <time>2015-06-14T07:02:57Z</time>
      </trkpt>
      <trkpt lat="45.80232" lon="4.79056">
        <ele>279.434</ele>
        <time>2015-06-14T07:03:00Z</time>
      </trkpt>
      <trkpt lat="45.80227" lon="4.7904">
        <ele>279.473</ele>
        <time>2015-06-14T07:03:07Z</time>
      </trkpt>
      <trkpt lat="45.80223" lon="4.79027">
        <ele>280.167</ele>
        <time>2015-06-14T07:03:13Z</time>
      </trkpt>
      <trkpt lat="45.80222" lon="4.79013">
        <ele>279.801</ele>
        <time>2015-06-14T07:03:18Z</time>
      </trkpt>
      <trkpt lat="45.80214" lon="4.78974">
        <ele>281.466</ele>
        <time>2015-06-14T07:03:30Z</time>
      </trkpt>
      <trkpt lat="45.80214" lon="4.78964">
        <ele>281.063</ele>
        <time>2015-06-14T07:03:34Z</time>
      </trkpt>
      <trkpt lat="45.80202" lon="4.78921">
        <ele>278.928</ele>
        <time>2015-06-14T07:03:47Z</time>
      </trkpt>
      <trkpt lat="45.80195" lon="4.78897">
        <ele>276.881</ele>
        <time>2015-06-14T07:03:51Z</time>
      </trkpt>
      <trkpt lat="45.80174" lon="4.78838">
        <ele>276.326</ele>
        <time>2015-06-14T07:04:01Z</time>
      </trkpt>
      <trkpt lat="45.80174" lon="4.7881">
        <ele>278.314</ele>
        <time>2015-06-14T07:04:10Z</time>
      </trkpt>
      <trkpt lat="45.80173" lon="4.78804">
        <ele>278.68</ele>
        <time>2015-06-14T07:04:12Z</time>
      </trkpt>
      <trkpt lat="45.80175" lon="4.78792">
        <ele>281.634</ele>
        <time>2015-06-14T07:04:18Z</time>
      </trkpt>
      <trkpt lat="45.80185" lon="4.78758">
        <ele>287.003</ele>
        <time>2015-06-14T07:04:31Z</time>
      </trkpt>
      <trkpt lat="45.80188" lon="4.7875">
        <ele>288.435</ele>
        <time>2015-06-14T07:04:34Z</time>
      </trkpt>
      <trkpt lat="45.80192" lon="4.78737">
        <ele>288.986</ele>
        <time>2015-06-14T07:04:39Z</time>
      </trkpt>
      <trkpt lat="45.80188" lon="4.78721">
        <ele>290.654</ele>
        <time>2015-06-14T07:04:46Z</time>
      </trkpt>
      <trkpt lat="45.80184" lon="4.78713">
        <ele>290.754</ele>
        <time>2015-06-14T07:04:50Z</time>
      </trkpt>
      <trkpt lat="45.80183" lon="4.78707">
        <ele>291.352</ele>
        <time>2015-06-14T07:04:53Z</time>
      </trkpt>
      <trkpt lat="45.8018" lon="4.78692">
        <ele>292.323</ele>
        <time>2015-06-14T07:04:59Z</time>
      </trkpt>
      <trkpt lat="45.80172" lon="4.78669">
        <ele>294.892</ele>
        <time>2015-06-14T07:05:07Z</time>
      </trkpt>
      <trkpt lat="45.80179" lon="4.78668">
        <ele>295.217</ele>
        <time>2015-06-14T07:05:14Z</time>
      </trkpt>
      <trkpt lat="45.80211" lon="4.78671">
        <ele>295.516</ele>
        <time>2015-06-14T07:05:27Z</time>
      </trkpt>
      <trkpt lat="45.80242" lon="4.7867">
        <ele>294.604</ele>
        <time>2015-06-14T07:05:33Z</time>
      </trkpt>
      <trkpt lat="45.80257" lon="4.78667">
        <ele>294.63</ele>
        <time>2015-06-14T07:05:35Z</time>
      </trkpt>
      <trkpt lat="45.80283" lon="4.78671">
        <ele>292.178</ele>
        <time>2015-06-14T07:05:39Z</time>
      </trkpt>
      <trkpt lat="45.80322" lon="4.78672">
        <ele>282.826</ele>
        <time>2015-06-14T07:05:45Z</time>
      </trkpt>
      <trkpt lat="45.80368" lon="4.78639">
        <ele>277.741</ele>
        <time>2015-06-14T07:05:52Z</time>
      </trkpt>
      <trkpt lat="45.80408" lon="4.78616">
        <ele>275.092</ele>
        <time>2015-06-14T07:05:56Z</time>
      </trkpt>
      <trkpt lat="45.80444" lon="4.78612">
        <ele>272.783</ele>
        <time>2015-06-14T07:06:01Z</time>
      </trkpt>
      <trkpt lat="45.80495" lon="4.78645">
        <ele>276.591</ele>
        <time>2015-06-14T07:06:14Z</time>
      </trkpt>
      <trkpt lat="45.80501" lon="4.78649">
        <ele>277.273</ele>
        <time>2015-06-14T07:06:16Z</time>
      </trkpt>
      <trkpt lat="45.80534" lon="4.78627">
        <ele>279.012</ele>
        <time>2015-06-14T07:06:30Z</time>
      </trkpt>
      <trkpt lat="45.80542" lon="4.78611">
        <ele>278.288</ele>
        <time>2015-06-14T07:06:42Z</time>
      </trkpt>
      <trkpt lat="45.80551" lon="4.786">
        <ele>277.548</ele>
        <time>2015-06-14T07:06:55Z</time>
      </trkpt>
      <trkpt lat="45.80574" lon="4.78543">
        <ele>275.088</ele>
        <time>2015-06-14T07:07:08Z</time>
      </trkpt>
      <trkpt lat="45.80591" lon="4.78476">
        <ele>273.847</ele>
        <time>2015-06-14T07:07:22Z</time>
      </trkpt>
      <trkpt lat="45.80611" lon="4.78431">
        <ele>272.792</ele>
        <time>2015-06-14T07:07:33Z</time>
      </trkpt>
      <trkpt lat="45.80621" lon="4.7842">
        <ele>271.64</ele>
        <time>2015-06-14T07:07:37Z</time>
      </trkpt>
      <trkpt lat="45.80643" lon="4.78396">
        <ele>270.168</ele>
        <time>2015-06-14T07:07:46Z</time>
      </trkpt>
      <trkpt lat="45.80653" lon="4.7839">
        <ele>270.012</ele>
        <time>2015-06-14T07:07:50Z</time>
      </trkpt>
      <trkpt lat="45.80669" lon="4.78398">
        <ele>271.227</ele>
        <time>2015-06-14T07:07:58Z</time>
      </trkpt>
      <trkpt lat="45.80685" lon="4.78396">
        <ele>273.718</ele>
        <time>2015-06-14T07:08:06Z</time>
      </trkpt>
      <trkpt lat="45.80696" lon="4.78392">
        <ele>274.562</ele>
        <time>2015-06-14T07:08:11Z</time>
      </trkpt>
      <trkpt lat="45.80728" lon="4.78379">
        <ele>276.071</ele>
        <time>2015-06-14T07:08:20Z</time>
      </trkpt>
      <trkpt lat="45.80753" lon="4.78374">
        <ele>272.739</ele>
        <time>2015-06-14T07:08:29Z</time>
      </trkpt>
      <trkpt lat="45.80778" lon="4.78368">
        <ele>272.863</ele>
        <time>2015-06-14T07:08:39Z</time>
      </trkpt>
      <trkpt lat="45.80821" lon="4.78361">
        <ele>274.035</ele>
        <time>2015-06-14T07:08:51Z</time>
      </trkpt>
      <trkpt lat="45.80857" lon="4.78363">
        <ele>280.89</ele>
        <time>2015-06-14T07:09:00Z</time>
      </trkpt>
      <trkpt lat="45.80889" lon="4.78357">
        <ele>282.981</ele>
        <time>2015-06-14T07:09:08Z</time>
      </trkpt>
      <trkpt lat="45.80896" lon="4.7834">
        <ele>283.157</ele>
        <time>2015-06-14T07:09:11Z</time>
      </trkpt>
      <trkpt lat="45.80909" lon="4.78281">
        <ele>283.403</ele>
        <time>2015-06-14T07:09:21Z</time>
      </trkpt>
      <trkpt lat="45.8092" lon="4.7826">
        <ele>285.061</ele>
        <time>2015-06-14T07:09:30Z</time>
      </trkpt>
      <trkpt lat="45.80921" lon="4.7826">
        <ele>285.89</ele>
        <time>2015-06-14T07:09:46Z</time>
      </trkpt>
      <trkpt lat="45.80921" lon="4.78259">
        <ele>285.94</ele>
        <time>2015-06-14T07:09:51Z</time>
      </trkpt>
      <trkpt lat="45.8093" lon="4.78254">
        <ele>286.794</ele>
        <time>2015-06-14T07:10:04Z</time>
      </trkpt>
      <trkpt lat="45.80944" lon="4.78255">
        <ele>288.647</ele>
        <time>2015-06-14T07:10:35Z</time>
      </trkpt>
      <trkpt lat="45.8097" lon="4.78254">
        <ele>290.141</ele>
        <time>2015-06-14T07:10:43Z</time>
      </trkpt>
      <trkpt lat="45.80992" lon="4.78254">
        <ele>288.854</ele>
        <time>2015-06-14T07:10:51Z</time>
      </trkpt>
      <trkpt lat="45.81" lon="4.7826">
        <ele>289.657</ele>
        <time>2015-06-14T07:10:55Z</time>
      </trkpt>
      <trkpt lat="45.81025" lon="4.78259">
        <ele>290.526</ele>
        <time>2015-06-14T07:11:01Z</time>
      </trkpt>
      <trkpt lat="45.81056" lon="4.78256">
        <ele>291.712</ele>
        <time>2015-06-14T07:11:11Z</time>
      </trkpt>
      <trkpt lat="45.81088" lon="4.78254">
        <ele>296.764</ele>
        <time>2015-06-14T07:11:22Z</time>
      </trkpt>
      <trkpt lat="45.81102" lon="4.78252">
        <ele>296.765</ele>
        <time>2015-06-14T07:11:27Z</time>
      </trkpt>
      <trkpt lat="45.81138" lon="4.78245">
        <ele>294.194</ele>
        <time>2015-06-14T07:11:38Z</time>
      </trkpt>
      <trkpt lat="45.81155" lon="4.78239">
        <ele>295.404</ele>
        <time>2015-06-14T07:11:44Z</time>
      </trkpt>
      <trkpt lat="45.81162" lon="4.78235">
        <ele>298.683</ele>
        <time>2015-06-14T07:11:53Z</time>
      </trkpt>
      <trkpt lat="45.8117" lon="4.78234">
        <ele>297.549</ele>
        <time>2015-06-14T07:11:58Z</time>
      </trkpt>
      <trkpt lat="45.81168" lon="4.78228">
        <ele>299.023</ele>
        <time>2015-06-14T07:12:02Z</time>
      </trkpt>
      <trkpt lat="45.81171" lon="4.78229">
        <ele>297.809</ele>
        <time>2015-06-14T07:12:05Z</time>
      </trkpt>
      <trkpt lat="45.81204" lon="4.78225">
        <ele>296.181</ele>
        <time>2015-06-14T07:12:15Z</time>
      </trkpt>
      <trkpt lat="45.8124" lon="4.78244">
        <ele>290.558</ele>
        <time>2015-06-14T07:12:27Z</time>
      </trkpt>
      <trkpt lat="45.81267" lon="4.78301">
        <ele>289.038</ele>
        <time>2015-06-14T07:12:40Z</time>
      </trkpt>
      <trkpt lat="45.81275" lon="4.78316">
        <ele>288.763</ele>
        <time>2015-06-14T07:12:44Z</time>
      </trkpt>
      <trkpt lat="45.81291" lon="4.78324">
        <ele>289.749</ele>
        <time>2015-06-14T07:12:50Z</time>
      </trkpt>
      <trkpt lat="45.81302" lon="4.78323">
        <ele>290.447</ele>
        <time>2015-06-14T07:12:55Z</time>
      </trkpt>
      <trkpt lat="45.81333" lon="4.78336">
        <ele>292.296</ele>
        <time>2015-06-14T07:13:09Z</time>
      </trkpt>
      <trkpt lat="45.81335" lon="4.78336">
        <ele>292.424</ele>
        <time>2015-06-14T07:13:10Z</time>
      </trkpt>
      <trkpt lat="45.81344" lon="4.7834">
        <ele>292.587</ele>
        <time>2015-06-14T07:13:15Z</time>
      </trkpt>
      <trkpt lat="45.81382" lon="4.78344">
        <ele>307.814</ele>
        <time>2015-06-14T07:13:27Z</time>
      </trkpt>
      <trkpt lat="45.81415" lon="4.78349">
        <ele>308.661</ele>
        <time>2015-06-14T07:13:38Z</time>
      </trkpt>
      <trkpt lat="45.8145" lon="4.78354">
        <ele>309.413</ele>
        <time>2015-06-14T07:13:50Z</time>
      </trkpt>
      <trkpt lat="45.81476" lon="4.78353">
        <ele>314.278</ele>
        <time>2015-06-14T07:14:00Z</time>
      </trkpt>
      <trkpt lat="45.81503" lon="4.78357">
        <ele>314.966</ele>
        <time>2015-06-14T07:14:10Z</time>
      </trkpt>
      <trkpt lat="45.81526" lon="4.78358">
        <ele>311.724</ele>
        <time>2015-06-14T07:14:19Z</time>
      </trkpt>
      <trkpt lat="45.81556" lon="4.78357">
        <ele>313.595</ele>
        <time>2015-06-14T07:14:29Z</time>
      </trkpt>
      <trkpt lat="45.81592" lon="4.78349">
        <ele>315.531</ele>
        <time>2015-06-14T07:14:40Z</time>
      </trkpt>
      <trkpt lat="45.81628" lon="4.78334">
        <ele>315.692</ele>
        <time>2015-06-14T07:14:51Z</time>
      </trkpt>
      <trkpt lat="45.81673" lon="4.78308">
        <ele>315.413</ele>
        <time>2015-06-14T07:15:01Z</time>
      </trkpt>
      <trkpt lat="45.81718" lon="4.78299">
        <ele>311.198</ele>
        <time>2015-06-14T07:15:12Z</time>
      </trkpt>
      <trkpt lat="45.81745" lon="4.7829">
        <ele>312.427</ele>
        <time>2015-06-14T07:15:22Z</time>
      </trkpt>
      <trkpt lat="45.81776" lon="4.7829">
        <ele>313.898</ele>
        <time>2015-06-14T07:15:36Z</time>
      </trkpt>
      <trkpt lat="45.81779" lon="4.7829">
        <ele>315.969</ele>
        <time>2015-06-14T07:15:38Z</time>
      </trkpt>
      <trkpt lat="45.81789" lon="4.78291">
        <ele>317.265</ele>
        <time>2015-06-14T07:15:44Z</time>
      </trkpt>
      <trkpt lat="45.81793" lon="4.78294">
        <ele>317.659</ele>
        <time>2015-06-14T07:15:47Z</time>
      </trkpt>
      <trkpt lat="45.81788" lon="4.78301">
        <ele>319.706</ele>
        <time>2015-06-14T07:15:52Z</time>
      </trkpt>
      <trkpt lat="45.81768" lon="4.78311">
        <ele>320.208</ele>
        <time>2015-06-14T07:16:03Z</time>
      </trkpt>
      <trkpt lat="45.81759" lon="4.78316">
        <ele>319.516</ele>
        <time>2015-06-14T07:16:09Z</time>
      </trkpt>
      <trkpt lat="45.81767" lon="4.7833">
        <ele>319.808</ele>
        <time>2015-06-14T07:16:19Z</time>
      </trkpt>
      <trkpt lat="45.81792" lon="4.78332">
        <ele>318.238</ele>
        <time>2015-06-14T07:16:33Z</time>
      </trkpt>
      <trkpt lat="45.81817" lon="4.78338">
        <ele>320.913</ele>
        <time>2015-06-14T07:16:45Z</time>
      </trkpt>
      <trkpt lat="45.81846" lon="4.78357">
        <ele>322.124</ele>
        <time>2015-06-14T07:17:03Z</time>
      </trkpt>
      <trkpt lat="45.81861" lon="4.78368">
        <ele>321.342</ele>
        <time>2015-06-14T07:17:13Z</time>
      </trkpt>
      <trkpt lat="45.81863" lon="4.78371">
        <ele>321.433</ele>
        <time>2015-06-14T07:17:15Z</time>
      </trkpt>
      <trkpt lat="45.81889" lon="4.78384">
        <ele>324.267</ele>
        <time>2015-06-14T07:17:30Z</time>
      </trkpt>
      <trkpt lat="45.81914" lon="4.78395">
        <ele>327.267</ele>
        <time>2015-06-14T07:17:44Z</time>
      </trkpt>
      <trkpt lat="45.81942" lon="4.78403">
        <ele>329.465</ele>
        <time>2015-06-14T07:17:59Z</time>
      </trkpt>
      <trkpt lat="45.81975" lon="4.78416">
        <ele>331.274</ele>
        <time>2015-06-14T07:18:16Z</time>
      </trkpt>
      <trkpt lat="45.8198" lon="4.78415">
        <ele>330.812</ele>
        <time>2015-06-14T07:18:18Z</time>
      </trkpt>
      <trkpt lat="45.81985" lon="4.78402">
        <ele>328.949</ele>
        <time>2015-06-14T07:18:22Z</time>
      </trkpt>
      <trkpt lat="45.81977" lon="4.78379">
        <ele>324.781</ele>
        <time>2015-06-14T07:18:27Z</time>
      </trkpt>
      <trkpt lat="45.8197" lon="4.78365">
        <ele>323.31</ele>
        <time>2015-06-14T07:18:29Z</time>
      </trkpt>
      <trkpt lat="45.81951" lon="4.78346">
        <ele>318.468</ele>
        <time>2015-06-14T07:18:35Z</time>
      </trkpt>
      <trkpt lat="45.81951" lon="4.78339">
        <ele>316.207</ele>
        <time>2015-06-14T07:18:38Z</time>
      </trkpt>
      <trkpt lat="45.81963" lon="4.78342">
        <ele>315.248</ele>
        <time>2015-06-14T07:18:50Z</time>
      </trkpt>
      <trkpt lat="45.81969" lon="4.78344">
        <ele>316.198</ele>
        <time>2015-06-14T07:18:55Z</time>
      </trkpt>
      <trkpt lat="45.81977" lon="4.78345">
        <ele>317.825</ele>
        <time>2015-06-14T07:19:00Z</time>
      </trkpt>
      <trkpt lat="45.81983" lon="4.78348">
        <ele>321.313</ele>
        <time>2015-06-14T07:19:05Z</time>
      </trkpt>
      <trkpt lat="45.81988" lon="4.7835">
        <ele>321.745</ele>
        <time>2015-06-14T07:19:08Z</time>
      </trkpt>
      <trkpt lat="45.82005" lon="4.78353">
        <ele>325.01</ele>
        <time>2015-06-14T07:19:18Z</time>
      </trkpt>
      <trkpt lat="45.82007" lon="4.78354">
        <ele>325.978</ele>
        <time>2015-06-14T07:19:20Z</time>
      </trkpt>
      <trkpt lat="45.82028" lon="4.78359">
        <ele>327.443</ele>
        <time>2015-06-14T07:19:28Z</time>
      </trkpt>
      <trkpt lat="45.82057" lon="4.78369">
        <ele>327.094</ele>
        <time>2015-06-14T07:19:40Z</time>
      </trkpt>
      <trkpt lat="45.82092" lon="4.78376">
        <ele>325.98</ele>
        <time>2015-06-14T07:19:51Z</time>
      </trkpt>
      <trkpt lat="45.82118" lon="4.78386">
        <ele>330.541</ele>
        <time>2015-06-14T07:20:02Z</time>
      </trkpt>
      <trkpt lat="45.8213" lon="4.78382">
        <ele>332.506</ele>
        <time>2015-06-14T07:20:07Z</time>
      </trkpt>
      <trkpt lat="45.82152" lon="4.78375">
        <ele>333.42</ele>
        <time>2015-06-14T07:20:15Z</time>
      </trkpt>
      <trkpt lat="45.82159" lon="4.78375">
        <ele>334.265</ele>
        <time>2015-06-14T07:20:19Z</time>
      </trkpt>
      <trkpt lat="45.82163" lon="4.78377">
        <ele>335.093</ele>
        <time>2015-06-14T07:20:22Z</time>
      </trkpt>
      <trkpt lat="45.82174" lon="4.78385">
        <ele>337.164</ele>
        <time>2015-06-14T07:20:29Z</time>
      </trkpt>
      <trkpt lat="45.82182" lon="4.78384">
        <ele>336.97</ele>
        <time>2015-06-14T07:20:32Z</time>
      </trkpt>
      <trkpt lat="45.82194" lon="4.78386">
        <ele>339.072</ele>
        <time>2015-06-14T07:20:40Z</time>
      </trkpt>
      <trkpt lat="45.82222" lon="4.78401">
        <ele>341.413</ele>
        <time>2015-06-14T07:20:53Z</time>
      </trkpt>
      <trkpt lat="45.82252" lon="4.78411">
        <ele>339.859</ele>
        <time>2015-06-14T07:21:05Z</time>
      </trkpt>
      <trkpt lat="45.82256" lon="4.78411">
        <ele>339.831</ele>
        <time>2015-06-14T07:21:07Z</time>
      </trkpt>
      <trkpt lat="45.82258" lon="4.78415">
        <ele>339.837</ele>
        <time>2015-06-14T07:21:09Z</time>
      </trkpt>
      <trkpt lat="45.82287" lon="4.78431">
        <ele>339.031</ele>
        <time>2015-06-14T07:21:23Z</time>
      </trkpt>
      <trkpt lat="45.8231" lon="4.78441">
        <ele>337.864</ele>
        <time>2015-06-14T07:21:34Z</time>
      </trkpt>
      <trkpt lat="45.82311" lon="4.78444">
        <ele>336.313</ele>
        <time>2015-06-14T07:21:35Z</time>
      </trkpt>
      <trkpt lat="45.82313" lon="4.78451">
        <ele>334.407</ele>
        <time>2015-06-14T07:21:39Z</time>
      </trkpt>
      <trkpt lat="45.82314" lon="4.78457">
        <ele>334.901</ele>
        <time>2015-06-14T07:21:41Z</time>
      </trkpt>
      <trkpt lat="45.82333" lon="4.78466">
        <ele>337.942</ele>
        <time>2015-06-14T07:21:52Z</time>
      </trkpt>
      <trkpt lat="45.82344" lon="4.78468">
        <ele>338.095</ele>
        <time>2015-06-14T07:21:57Z</time>
      </trkpt>
      <trkpt lat="45.82345" lon="4.78472">
        <ele>340.206</ele>
        <time>2015-06-14T07:22:02Z</time>
      </trkpt>
      <trkpt lat="45.8234" lon="4.78472">
        <ele>343.867</ele>
        <time>2015-06-14T07:22:08Z</time>
      </trkpt>
      <trkpt lat="45.82334" lon="4.78476">
        <ele>346.423</ele>
        <time>2015-06-14T07:22:13Z</time>
      </trkpt>
      <trkpt lat="45.82327" lon="4.78487">
        <ele>350.348</ele>
        <time>2015-06-14T07:22:21Z</time>
      </trkpt>
      <trkpt lat="45.82327" lon="4.78505">
        <ele>350.998</ele>
        <time>2015-06-14T07:22:29Z</time>
      </trkpt>
      <trkpt lat="45.8233" lon="4.78504">
        <ele>352.15</ele>
        <time>2015-06-14T07:22:32Z</time>
      </trkpt>
      <trkpt lat="45.82338" lon="4.78509">
        <ele>355.943</ele>
        <time>2015-06-14T07:22:38Z</time>
      </trkpt>
      <trkpt lat="45.82348" lon="4.78513">
        <ele>358.227</ele>
        <time>2015-06-14T07:22:45Z</time>
      </trkpt>
      <trkpt lat="45.8235" lon="4.78516">
        <ele>358.463</ele>
        <time>2015-06-14T07:22:47Z</time>
      </trkpt>
      <trkpt lat="45.82356" lon="4.78534">
        <ele>359.289</ele>
        <time>2015-06-14T07:22:55Z</time>
      </trkpt>
      <trkpt lat="45.82362" lon="4.78548">
        <ele>358.07</ele>
        <time>2015-06-14T07:23:02Z</time>
      </trkpt>
      <trkpt lat="45.82364" lon="4.78554">
        <ele>358.993</ele>
        <time>2015-06-14T07:23:06Z</time>
      </trkpt>
      <trkpt lat="45.82378" lon="4.78569">
        <ele>361.976</ele>
        <time>2015-06-14T07:23:17Z</time>
      </trkpt>
      <trkpt lat="45.82392" lon="4.78578">
        <ele>365.48</ele>
        <time>2015-06-14T07:23:27Z</time>
      </trkpt>
      <trkpt lat="45.82406" lon="4.78588">
        <ele>369.29</ele>
        <time>2015-06-14T07:23:39Z</time>
      </trkpt>
      <trkpt lat="45.82415" lon="4.78595">
        <ele>371.673</ele>
        <time>2015-06-14T07:23:46Z</time>
      </trkpt>
      <trkpt lat="45.82438" lon="4.78607">
        <ele>372.688</ele>
        <time>2015-06-14T07:24:02Z</time>
      </trkpt>
      <trkpt lat="45.82457" lon="4.7861">
        <ele>376.786</ele>
        <time>2015-06-14T07:24:15Z</time>
      </trkpt>
      <trkpt lat="45.82462" lon="4.78613">
        <ele>378.047</ele>
        <time>2015-06-14T07:24:19Z</time>
      </trkpt>
      <trkpt lat="45.8247" lon="4.78615">
        <ele>379.018</ele>
        <time>2015-06-14T07:24:24Z</time>
      </trkpt>
      <trkpt lat="45.82498" lon="4.78622">
        <ele>377.616</ele>
        <time>2015-06-14T07:24:40Z</time>
      </trkpt>
      <trkpt lat="45.82506" lon="4.78625">
        <ele>377.624</ele>
        <time>2015-06-14T07:24:46Z</time>
      </trkpt>
      <trkpt lat="45.8253" lon="4.78629">
        <ele>379.663</ele>
        <time>2015-06-14T07:25:01Z</time>
      </trkpt>
      <trkpt lat="45.82547" lon="4.78638">
        <ele>381.125</ele>
        <time>2015-06-14T07:25:14Z</time>
      </trkpt>
      <trkpt lat="45.82559" lon="4.78642">
        <ele>383.32</ele>
        <time>2015-06-14T07:25:22Z</time>
      </trkpt>
      <trkpt lat="45.82561" lon="4.78645">
        <ele>384.492</ele>
        <time>2015-06-14T07:25:25Z</time>
      </trkpt>
      <trkpt lat="45.82568" lon="4.78652">
        <ele>388.216</ele>
        <time>2015-06-14T07:25:33Z</time>
      </trkpt>
      <trkpt lat="45.82571" lon="4.78653">
        <ele>389.83</ele>
        <time>2015-06-14T07:25:36Z</time>
      </trkpt>
      <trkpt lat="45.82591" lon="4.78661">
        <ele>388.308</ele>
        <time>2015-06-14T07:25:47Z</time>
      </trkpt>
      <trkpt lat="45.82596" lon="4.78663">
        <ele>389.329</ele>
        <time>2015-06-14T07:25:50Z</time>
      </trkpt>
      <trkpt lat="45.82599" lon="4.78668">
        <ele>392.147</ele>
        <time>2015-06-14T07:25:54Z</time>
      </trkpt>
      <trkpt lat="45.82603" lon="4.78675">
        <ele>395.029</ele>
        <time>2015-06-14T07:25:59Z</time>
      </trkpt>
      <trkpt lat="45.82616" lon="4.78683">
        <ele>396.622</ele>
        <time>2015-06-14T07:26:07Z</time>
      </trkpt>
      <trkpt lat="45.8262" lon="4.78687">
        <ele>398.688</ele>
        <time>2015-06-14T07:26:10Z</time>
      </trkpt>
      <trkpt lat="45.82631" lon="4.78694">
        <ele>398.185</ele>
        <time>2015-06-14T07:26:18Z</time>
      </trkpt>
      <trkpt lat="45.82647" lon="4.78707">
        <ele>398.455</ele>
        <time>2015-06-14T07:26:30Z</time>
      </trkpt>
      <trkpt lat="45.82654" lon="4.78713">
        <ele>398.226</ele>
        <time>2015-06-14T07:26:35Z</time>
      </trkpt>
      <trkpt lat="45.82663" lon="4.78726">
        <ele>399.739</ele>
        <time>2015-06-14T07:26:45Z</time>
      </trkpt>
      <trkpt lat="45.82667" lon="4.78732">
        <ele>400.565</ele>
        <time>2015-06-14T07:26:49Z</time>
      </trkpt>
      <trkpt lat="45.82668" lon="4.7874">
        <ele>399.199</ele>
        <time>2015-06-14T07:26:55Z</time>
      </trkpt>
      <trkpt lat="45.82672" lon="4.7874">
        <ele>399.447</ele>
        <time>2015-06-14T07:26:58Z</time>
      </trkpt>
      <trkpt lat="45.82698" lon="4.78706">
        <ele>397.036</ele>
        <time>2015-06-14T07:27:14Z</time>
      </trkpt>
      <trkpt lat="45.82727" lon="4.78687">
        <ele>395.254</ele>
        <time>2015-06-14T07:27:26Z</time>
      </trkpt>
      <trkpt lat="45.8278" lon="4.78674">
        <ele>396.997</ele>
        <time>2015-06-14T07:27:44Z</time>
      </trkpt>
      <trkpt lat="45.82807" lon="4.78636">
        <ele>403.575</ele>
        <time>2015-06-14T07:27:56Z</time>
      </trkpt>
      <trkpt lat="45.82804" lon="4.7858">
        <ele>402.077</ele>
        <time>2015-06-14T07:28:09Z</time>
      </trkpt>
      <trkpt lat="45.8279" lon="4.78537">
        <ele>402.963</ele>
        <time>2015-06-14T07:28:20Z</time>
      </trkpt>
      <trkpt lat="45.82792" lon="4.78473">
        <ele>402.385</ele>
        <time>2015-06-14T07:28:35Z</time>
      </trkpt>
      <trkpt lat="45.82819" lon="4.7845">
        <ele>404.369</ele>
        <time>2015-06-14T07:28:45Z</time>
      </trkpt>
      <trkpt lat="45.82871" lon="4.78443">
        <ele>405.431</ele>
        <time>2015-06-14T07:29:02Z</time>
      </trkpt>
      <trkpt lat="45.82922" lon="4.78451">
        <ele>405.926</ele>
        <time>2015-06-14T07:29:18Z</time>
      </trkpt>
      <trkpt lat="45.82996" lon="4.78405">
        <ele>409.591</ele>
        <time>2015-06-14T07:29:44Z</time>
      </trkpt>
      <trkpt lat="45.83028" lon="4.78362">
        <ele>411.373</ele>
        <time>2015-06-14T07:29:59Z</time>
      </trkpt>
      <trkpt lat="45.83023" lon="4.78297">
        <ele>411.181</ele>
        <time>2015-06-14T07:30:14Z</time>
      </trkpt>
      <trkpt lat="45.82995" lon="4.78227">
        <ele>412.807</ele>
        <time>2015-06-14T07:30:32Z</time>
      </trkpt>
      <trkpt lat="45.83001" lon="4.782">
        <ele>413.973</ele>
        <time>2015-06-14T07:30:40Z</time>
      </trkpt>
      <trkpt lat="45.83008" lon="4.78204">
        <ele>415.537</ele>
        <time>2015-06-14T07:30:44Z</time>
      </trkpt>
      <trkpt lat="45.8302" lon="4.78218">
        <ele>418.07</ele>
        <time>2015-06-14T07:30:53Z</time>
      </trkpt>
      <trkpt lat="45.83051" lon="4.78245">
        <ele>422.36</ele>
        <time>2015-06-14T07:31:14Z</time>
      </trkpt>
      <trkpt lat="45.83088" lon="4.7827">
        <ele>427.368</ele>
        <time>2015-06-14T07:31:38Z</time>
      </trkpt>
      <trkpt lat="45.83118" lon="4.78284">
        <ele>433.98</ele>
        <time>2015-06-14T07:31:58Z</time>
      </trkpt>
      <trkpt lat="45.8312" lon="4.78282">
        <ele>435.317</ele>
        <time>2015-06-14T07:32:00Z</time>
      </trkpt>
      <trkpt lat="45.83146" lon="4.78272">
        <ele>441.815</ele>
        <time>2015-06-14T07:32:17Z</time>
      </trkpt>
      <trkpt lat="45.83178" lon="4.78273">
        <ele>446.335</ele>
        <time>2015-06-14T07:32:36Z</time>
      </trkpt>
      <trkpt lat="45.83215" lon="4.7828">
        <ele>448.38</ele>
        <time>2015-06-14T07:32:56Z</time>
      </trkpt>
      <trkpt lat="45.8325" lon="4.78296">
        <ele>449.477</ele>
        <time>2015-06-14T07:33:12Z</time>
      </trkpt>
      <trkpt lat="45.83258" lon="4.78293">
        <ele>450.572</ele>
        <time>2015-06-14T07:33:18Z</time>
      </trkpt>
      <trkpt lat="45.8326" lon="4.78279">
        <ele>451.07</ele>
        <time>2015-06-14T07:33:22Z</time>
      </trkpt>
      <trkpt lat="45.83244" lon="4.78171">
        <ele>450.037</ele>
        <time>2015-06-14T07:33:44Z</time>
      </trkpt>
      <trkpt lat="45.83243" lon="4.78158">
        <ele>449.939</ele>
        <time>2015-06-14T07:33:47Z</time>
      </trkpt>
      <trkpt lat="45.83249" lon="4.78137">
        <ele>450.326</ele>
        <time>2015-06-14T07:33:52Z</time>
      </trkpt>
      <trkpt lat="45.83302" lon="4.78077">
        <ele>451.821</ele>
        <time>2015-06-14T07:34:10Z</time>
      </trkpt>
      <trkpt lat="45.83332" lon="4.7806">
        <ele>450.987</ele>
        <time>2015-06-14T07:34:17Z</time>
      </trkpt>
      <trkpt lat="45.83393" lon="4.78031">
        <ele>450.402</ele>
        <time>2015-06-14T07:34:31Z</time>
      </trkpt>
      <trkpt lat="45.83399" lon="4.78023">
        <ele>450.943</ele>
        <time>2015-06-14T07:34:33Z</time>
      </trkpt>
      <trkpt lat="45.83423" lon="4.77938">
        <ele>451.689</ele>
        <time>2015-06-14T07:34:48Z</time>
      </trkpt>
      <trkpt lat="45.83425" lon="4.77926">
        <ele>451.508</ele>
        <time>2015-06-14T07:34:50Z</time>
      </trkpt>
      <trkpt lat="45.83446" lon="4.77887">
        <ele>448.933</ele>
        <time>2015-06-14T07:34:57Z</time>
      </trkpt>
      <trkpt lat="45.83483" lon="4.7787">
        <ele>446.047</ele>
        <time>2015-06-14T07:35:02Z</time>
      </trkpt>
      <trkpt lat="45.83575" lon="4.77864">
        <ele>440.482</ele>
        <time>2015-06-14T07:35:12Z</time>
      </trkpt>
      <trkpt lat="45.83639" lon="4.77831">
        <ele>440.027</ele>
        <time>2015-06-14T07:35:21Z</time>
      </trkpt>
      <trkpt lat="45.83692" lon="4.77829">
        <ele>431.765</ele>
        <time>2015-06-14T07:35:27Z</time>
      </trkpt>
      <trkpt lat="45.83758" lon="4.77852">
        <ele>430.153</ele>
        <time>2015-06-14T07:35:34Z</time>
      </trkpt>
      <trkpt lat="45.83791" lon="4.77839">
        <ele>430.56</ele>
        <time>2015-06-14T07:35:39Z</time>
      </trkpt>
      <trkpt lat="45.83795" lon="4.77821">
        <ele>429.894</ele>
        <time>2015-06-14T07:35:41Z</time>
      </trkpt>
      <trkpt lat="45.83785" lon="4.77789">
        <ele>428.359</ele>
        <time>2015-06-14T07:35:45Z</time>
      </trkpt>
      <trkpt lat="45.83767" lon="4.77625">
        <ele>426.807</ele>
        <time>2015-06-14T07:36:02Z</time>
      </trkpt>
      <trkpt lat="45.83761" lon="4.77503">
        <ele>429.482</ele>
        <time>2015-06-14T07:36:19Z</time>
      </trkpt>
      <trkpt lat="45.83768" lon="4.775">
        <ele>430.457</ele>
        <time>2015-06-14T07:36:23Z</time>
      </trkpt>
      <trkpt lat="45.8377" lon="4.77505">
        <ele>431.029</ele>
        <time>2015-06-14T07:36:25Z</time>
      </trkpt>
      <trkpt lat="45.83775" lon="4.7756">
        <ele>434.36</ele>
        <time>2015-06-14T07:36:42Z</time>
      </trkpt>
      <trkpt lat="45.83788" lon="4.77626">
        <ele>439.8</ele>
        <time>2015-06-14T07:37:03Z</time>
      </trkpt>
      <trkpt lat="45.83802" lon="4.77682">
        <ele>444.711</ele>
        <time>2015-06-14T07:37:22Z</time>
      </trkpt>
      <trkpt lat="45.83814" lon="4.7774">
        <ele>448.326</ele>
        <time>2015-06-14T07:37:41Z</time>
      </trkpt>
      <trkpt lat="45.83832" lon="4.77778">
        <ele>450.304</ele>
        <time>2015-06-14T07:37:56Z</time>
      </trkpt>
      <trkpt lat="45.83854" lon="4.77797">
        <ele>451.795</ele>
        <time>2015-06-14T07:38:08Z</time>
      </trkpt>
      <trkpt lat="45.83896" lon="4.77801">
        <ele>456.204</ele>
        <time>2015-06-14T07:38:26Z</time>
      </trkpt>
      <trkpt lat="45.83927" lon="4.77796">
        <ele>456.444</ele>
        <time>2015-06-14T07:38:38Z</time>
      </trkpt>
      <trkpt lat="45.83971" lon="4.77799">
        <ele>462.549</ele>
        <time>2015-06-14T07:38:58Z</time>
      </trkpt>
      <trkpt lat="45.84016" lon="4.77801">
        <ele>466.725</ele>
        <time>2015-06-14T07:39:19Z</time>
      </trkpt>
      <trkpt lat="45.84031" lon="4.77796">
        <ele>467.182</ele>
        <time>2015-06-14T07:39:29Z</time>
      </trkpt>
      <trkpt lat="45.84044" lon="4.77792">
        <ele>472.856</ele>
        <time>2015-06-14T07:39:39Z</time>
      </trkpt>
      <trkpt lat="45.84048" lon="4.77795">
        <ele>477.012</ele>
        <time>2015-06-14T07:39:48Z</time>
      </trkpt>
      <trkpt lat="45.84057" lon="4.77784">
        <ele>478.599</ele>
        <time>2015-06-14T07:39:52Z</time>
      </trkpt>
      <trkpt lat="45.84064" lon="4.7778">
        <ele>480.422</ele>
        <time>2015-06-14T07:39:56Z</time>
      </trkpt>
      <trkpt lat="45.84075" lon="4.77766">
        <ele>479.332</ele>
        <time>2015-06-14T07:40:07Z</time>
      </trkpt>
      <trkpt lat="45.8408" lon="4.77761">
        <ele>479.863</ele>
        <time>2015-06-14T07:40:52Z</time>
      </trkpt>
      <trkpt lat="45.84095" lon="4.77756">
        <ele>482.711</ele>
        <time>2015-06-14T07:41:03Z</time>
      </trkpt>
      <trkpt lat="45.84103" lon="4.77759">
        <ele>483.622</ele>
        <time>2015-06-14T07:41:07Z</time>
      </trkpt>
      <trkpt lat="45.84122" lon="4.77778">
        <ele>483.488</ele>
        <time>2015-06-14T07:41:18Z</time>
      </trkpt>
      <trkpt lat="45.84128" lon="4.77783">
        <ele>484.775</ele>
        <time>2015-06-14T07:41:22Z</time>
      </trkpt>
      <trkpt lat="45.84139" lon="4.77777">
        <ele>487.32</ele>
        <time>2015-06-14T07:41:29Z</time>
      </trkpt>
      <trkpt lat="45.84141" lon="4.77779">
        <ele>488.946</ele>
        <time>2015-06-14T07:41:32Z</time>
      </trkpt>
      <trkpt lat="45.84149" lon="4.7777">
        <ele>490.888</ele>
        <time>2015-06-14T07:41:42Z</time>
      </trkpt>
      <trkpt lat="45.84167" lon="4.77765">
        <ele>493.796</ele>
        <time>2015-06-14T07:41:55Z</time>
      </trkpt>
      <trkpt lat="45.84167" lon="4.77765">
        <ele>494.072</ele>
        <time>2015-06-14T07:41:56Z</time>
      </trkpt>
      <trkpt lat="45.84184" lon="4.77761">
        <ele>495.796</ele>
        <time>2015-06-14T07:42:05Z</time>
      </trkpt>
      <trkpt lat="45.842" lon="4.77758">
        <ele>499.144</ele>
        <time>2015-06-14T07:42:16Z</time>
      </trkpt>
      <trkpt lat="45.84217" lon="4.77755">
        <ele>502.559</ele>
        <time>2015-06-14T07:42:25Z</time>
      </trkpt>
      <trkpt lat="45.84225" lon="4.77759">
        <ele>503.213</ele>
        <time>2015-06-14T07:42:29Z</time>
      </trkpt>
      <trkpt lat="45.84248" lon="4.77742">
        <ele>504.69</ele>
        <time>2015-06-14T07:42:47Z</time>
      </trkpt>
      <trkpt lat="45.84251" lon="4.77741">
        <ele>504.755</ele>
        <time>2015-06-14T07:42:52Z</time>
      </trkpt>
      <trkpt lat="45.84276" lon="4.77732">
        <ele>506.513</ele>
        <time>2015-06-14T07:43:05Z</time>
      </trkpt>
      <trkpt lat="45.8428" lon="4.77732">
        <ele>508.446</ele>
        <time>2015-06-14T07:43:08Z</time>
      </trkpt>
      <trkpt lat="45.84287" lon="4.77733">
        <ele>512.666</ele>
        <time>2015-06-14T07:43:13Z</time>
      </trkpt>
      <trkpt lat="45.84305" lon="4.77727">
        <ele>514.804</ele>
        <time>2015-06-14T07:43:26Z</time>
      </trkpt>
      <trkpt lat="45.84315" lon="4.77724">
        <ele>520.201</ele>
        <time>2015-06-14T07:43:35Z</time>
      </trkpt>
      <trkpt lat="45.84319" lon="4.77723">
        <ele>521.106</ele>
        <time>2015-06-14T07:43:38Z</time>
      </trkpt>
      <trkpt lat="45.84331" lon="4.77715">
        <ele>521.067</ele>
        <time>2015-06-14T07:43:44Z</time>
      </trkpt>
      <trkpt lat="45.84338" lon="4.77713">
        <ele>521.258</ele>
        <time>2015-06-14T07:43:48Z</time>
      </trkpt>
      <trkpt lat="45.84344" lon="4.77709">
        <ele>522.15</ele>
        <time>2015-06-14T07:43:52Z</time>
      </trkpt>
      <trkpt lat="45.84359" lon="4.77701">
        <ele>520.654</ele>
        <time>2015-06-14T07:44:02Z</time>
      </trkpt>
      <trkpt lat="45.84366" lon="4.77698">
        <ele>522.782</ele>
        <time>2015-06-14T07:44:09Z</time>
      </trkpt>
      <trkpt lat="45.84387" lon="4.77689">
        <ele>525.428</ele>
        <time>2015-06-14T07:44:23Z</time>
      </trkpt>
      <trkpt lat="45.84401" lon="4.7768">
        <ele>527.267</ele>
        <time>2015-06-14T07:44:35Z</time>
      </trkpt>
      <trkpt lat="45.84406" lon="4.7768">
        <ele>528.68</ele>
        <time>2015-06-14T07:44:38Z</time>
      </trkpt>
      <trkpt lat="45.84414" lon="4.77673">
        <ele>529.015</ele>
        <time>2015-06-14T07:44:45Z</time>
      </trkpt>
      <trkpt lat="45.84421" lon="4.77672">
        <ele>530.127</ele>
        <time>2015-06-14T07:44:50Z</time>
      </trkpt>
      <trkpt lat="45.84437" lon="4.7766">
        <ele>532.145</ele>
        <time>2015-06-14T07:45:01Z</time>
      </trkpt>
      <trkpt lat="45.84462" lon="4.7765">
        <ele>535.89</ele>
        <time>2015-06-14T07:45:18Z</time>
      </trkpt>
      <trkpt lat="45.84467" lon="4.77645">
        <ele>537.398</ele>
        <time>2015-06-14T07:45:25Z</time>
      </trkpt>
      <trkpt lat="45.84481" lon="4.7764">
        <ele>541.383</ele>
        <time>2015-06-14T07:45:34Z</time>
      </trkpt>
      <trkpt lat="45.84497" lon="4.77629">
        <ele>544.078</ele>
        <time>2015-06-14T07:45:47Z</time>
      </trkpt>
      <trkpt lat="45.8451" lon="4.7762">
        <ele>546.077</ele>
        <time>2015-06-14T07:45:58Z</time>
      </trkpt>
      <trkpt lat="45.84514" lon="4.7762">
        <ele>547.877</ele>
        <time>2015-06-14T07:46:02Z</time>
      </trkpt>
      <trkpt lat="45.84541" lon="4.77605">
        <ele>548.47</ele>
        <time>2015-06-14T07:46:16Z</time>
      </trkpt>
      <trkpt lat="45.84575" lon="4.77584">
        <ele>549.738</ele>
        <time>2015-06-14T07:46:32Z</time>
      </trkpt>
      <trkpt lat="45.84615" lon="4.77568">
        <ele>553.621</ele>
        <time>2015-06-14T07:46:51Z</time>
      </trkpt>
      <trkpt lat="45.84654" lon="4.77562">
        <ele>558.615</ele>
        <time>2015-06-14T07:47:09Z</time>
      </trkpt>
      <trkpt lat="45.84688" lon="4.77574">
        <ele>558.859</ele>
        <time>2015-06-14T07:47:25Z</time>
      </trkpt>
      <trkpt lat="45.84693" lon="4.77576">
        <ele>558.863</ele>
        <time>2015-06-14T07:47:29Z</time>
      </trkpt>
      <trkpt lat="45.84709" lon="4.77588">
        <ele>557.525</ele>
        <time>2015-06-14T07:47:39Z</time>
      </trkpt>
      <trkpt lat="45.84713" lon="4.77594">
        <ele>557.155</ele>
        <time>2015-06-14T07:47:42Z</time>
      </trkpt>
      <trkpt lat="45.84716" lon="4.77595">
        <ele>557.076</ele>
        <time>2015-06-14T07:47:55Z</time>
      </trkpt>
      <trkpt lat="45.84718" lon="4.77597">
        <ele>556.168</ele>
        <time>2015-06-14T07:53:57Z</time>
      </trkpt>
      <trkpt lat="45.8472" lon="4.776">
        <ele>556.009</ele>
        <time>2015-06-14T07:53:59Z</time>
      </trkpt>
      <trkpt lat="45.84734" lon="4.77609">
        <ele>555.811</ele>
        <time>2015-06-14T07:54:07Z</time>
      </trkpt>
      <trkpt lat="45.84773" lon="4.77622">
        <ele>560.222</ele>
        <time>2015-06-14T07:54:21Z</time>
      </trkpt>
      <trkpt lat="45.84811" lon="4.77626">
        <ele>553.255</ele>
        <time>2015-06-14T07:54:33Z</time>
      </trkpt>
      <trkpt lat="45.84841" lon="4.77622">
        <ele>554.966</ele>
        <time>2015-06-14T07:54:42Z</time>
      </trkpt>
      <trkpt lat="45.84875" lon="4.77618">
        <ele>558.771</ele>
        <time>2015-06-14T07:54:53Z</time>
      </trkpt>
      <trkpt lat="45.84908" lon="4.77615">
        <ele>561.488</ele>
        <time>2015-06-14T07:55:04Z</time>
      </trkpt>
      <trkpt lat="45.84942" lon="4.77616">
        <ele>565.25</ele>
        <time>2015-06-14T07:55:14Z</time>
      </trkpt>
      <trkpt lat="45.84978" lon="4.77623">
        <ele>563.694</ele>
        <time>2015-06-14T07:55:24Z</time>
      </trkpt>
      <trkpt lat="45.85015" lon="4.77631">
        <ele>559.831</ele>
        <time>2015-06-14T07:55:35Z</time>
      </trkpt>
      <trkpt lat="45.85038" lon="4.77639">
        <ele>560.231</ele>
        <time>2015-06-14T07:55:42Z</time>
      </trkpt>
      <trkpt lat="45.85057" lon="4.77641">
        <ele>559.919</ele>
        <time>2015-06-14T07:55:48Z</time>
      </trkpt>
      <trkpt lat="45.85082" lon="4.77634">
        <ele>558.698</ele>
        <time>2015-06-14T07:55:58Z</time>
      </trkpt>
      <trkpt lat="45.85105" lon="4.77629">
        <ele>553.124</ele>
        <time>2015-06-14T07:56:06Z</time>
      </trkpt>
      <trkpt lat="45.85117" lon="4.77627">
        <ele>549.522</ele>
        <time>2015-06-14T07:56:10Z</time>
      </trkpt>
      <trkpt lat="45.85163" lon="4.77615">
        <ele>545.214</ele>
        <time>2015-06-14T07:56:21Z</time>
      </trkpt>
      <trkpt lat="45.85175" lon="4.77611">
        <ele>543.248</ele>
        <time>2015-06-14T07:56:24Z</time>
      </trkpt>
      <trkpt lat="45.85193" lon="4.77607">
        <ele>539.688</ele>
        <time>2015-06-14T07:56:29Z</time>
      </trkpt>
      <trkpt lat="45.85264" lon="4.77695">
        <ele>532.703</ele>
        <time>2015-06-14T07:56:43Z</time>
      </trkpt>
      <trkpt lat="45.85278" lon="4.77706">
        <ele>531.494</ele>
        <time>2015-06-14T07:56:47Z</time>
      </trkpt>
      <trkpt lat="45.85304" lon="4.77676">
        <ele>531.006</ele>
        <time>2015-06-14T07:56:57Z</time>
      </trkpt>
      <trkpt lat="45.8532" lon="4.77668">
        <ele>530.949</ele>
        <time>2015-06-14T07:57:01Z</time>
      </trkpt>
      <trkpt lat="45.85338" lon="4.77669">
        <ele>530.792</ele>
        <time>2015-06-14T07:57:05Z</time>
      </trkpt>
      <trkpt lat="45.85437" lon="4.77699">
        <ele>526.563</ele>
        <time>2015-06-14T07:57:21Z</time>
      </trkpt>
      <trkpt lat="45.85484" lon="4.77708">
        <ele>524.348</ele>
        <time>2015-06-14T07:57:27Z</time>
      </trkpt>
      <trkpt lat="45.85526" lon="4.77671">
        <ele>522.626</ele>
        <time>2015-06-14T07:57:34Z</time>
      </trkpt>
      <trkpt lat="45.85529" lon="4.7766">
        <ele>522.046</ele>
        <time>2015-06-14T07:57:35Z</time>
      </trkpt>
      <trkpt lat="45.85541" lon="4.77615">
        <ele>519.857</ele>
        <time>2015-06-14T07:57:39Z</time>
      </trkpt>
      <trkpt lat="45.8555" lon="4.7758">
        <ele>518.56</ele>
        <time>2015-06-14T07:57:42Z</time>
      </trkpt>
      <trkpt lat="45.85558" lon="4.77531">
        <ele>517.568</ele>
        <time>2015-06-14T07:57:46Z</time>
      </trkpt>
      <trkpt lat="45.85552" lon="4.77483">
        <ele>516.375</ele>
        <time>2015-06-14T07:57:50Z</time>
      </trkpt>
      <trkpt lat="45.85496" lon="4.77419">
        <ele>511.221</ele>
        <time>2015-06-14T07:57:58Z</time>
      </trkpt>
      <trkpt lat="45.8549" lon="4.77416">
        <ele>511.26</ele>
        <time>2015-06-14T07:58:01Z</time>
      </trkpt>
      <trkpt lat="45.85488" lon="4.77419">
        <ele>510.698</ele>
        <time>2015-06-14T07:58:09Z</time>
      </trkpt>
      <trkpt lat="45.85519" lon="4.77445">
        <ele>513.474</ele>
        <time>2015-06-14T07:58:23Z</time>
      </trkpt>
      <trkpt lat="45.85531" lon="4.7746">
        <ele>514.923</ele>
        <time>2015-06-14T07:58:28Z</time>
      </trkpt>
      <trkpt lat="45.85535" lon="4.77465">
        <ele>515.315</ele>
        <time>2015-06-14T07:58:30Z</time>
      </trkpt>
      <trkpt lat="45.85533" lon="4.77473">
        <ele>514.099</ele>
        <time>2015-06-14T07:58:35Z</time>
      </trkpt>
      <trkpt lat="45.85525" lon="4.77472">
        <ele>514.867</ele>
        <time>2015-06-14T07:58:43Z</time>
      </trkpt>
      <trkpt lat="45.85516" lon="4.77469">
        <ele>515.949</ele>
        <time>2015-06-14T07:58:49Z</time>
      </trkpt>
      <trkpt lat="45.85505" lon="4.77468">
        <ele>517.085</ele>
        <time>2015-06-14T07:58:57Z</time>
      </trkpt>
      <trkpt lat="45.85479" lon="4.77468">
        <ele>519.14</ele>
        <time>2015-06-14T07:59:12Z</time>
      </trkpt>
      <trkpt lat="45.85468" lon="4.77466">
        <ele>522.143</ele>
        <time>2015-06-14T07:59:23Z</time>
      </trkpt>
      <trkpt lat="45.85473" lon="4.77463">
        <ele>524.618</ele>
        <time>2015-06-14T07:59:58Z</time>
      </trkpt>
      <trkpt lat="45.85487" lon="4.77465">
        <ele>524.376</ele>
        <time>2015-06-14T08:00:04Z</time>
      </trkpt>
      <trkpt lat="45.85498" lon="4.77468">
        <ele>522.82</ele>
        <time>2015-06-14T08:00:08Z</time>
      </trkpt>
      <trkpt lat="45.85531" lon="4.77477">
        <ele>518.668</ele>
        <time>2015-06-14T08:00:15Z</time>
      </trkpt>
      <trkpt lat="45.85542" lon="4.77492">
        <ele>520.022</ele>
        <time>2015-06-14T08:00:23Z</time>
      </trkpt>
      <trkpt lat="45.85553" lon="4.77485">
        <ele>517.574</ele>
        <time>2015-06-14T08:00:27Z</time>
      </trkpt>
      <trkpt lat="45.85562" lon="4.77473">
        <ele>514.656</ele>
        <time>2015-06-14T08:00:31Z</time>
      </trkpt>
      <trkpt lat="45.85603" lon="4.77444">
        <ele>508.376</ele>
        <time>2015-06-14T08:00:40Z</time>
      </trkpt>
      <trkpt lat="45.85635" lon="4.77404">
        <ele>502.206</ele>
        <time>2015-06-14T08:00:47Z</time>
      </trkpt>
      <trkpt lat="45.85643" lon="4.77393">
        <ele>500.428</ele>
        <time>2015-06-14T08:00:51Z</time>
      </trkpt>
      <trkpt lat="45.85667" lon="4.77392">
        <ele>495.173</ele>
        <time>2015-06-14T08:01:02Z</time>
      </trkpt>
      <trkpt lat="45.8569" lon="4.77399">
        <ele>492.209</ele>
        <time>2015-06-14T08:01:09Z</time>
      </trkpt>
      <trkpt lat="45.8571" lon="4.77424">
        <ele>489.957</ele>
        <time>2015-06-14T08:01:16Z</time>
      </trkpt>
      <trkpt lat="45.85741" lon="4.77425">
        <ele>487.859</ele>
        <time>2015-06-14T08:01:25Z</time>
      </trkpt>
      <trkpt lat="45.85779" lon="4.77435">
        <ele>481.246</ele>
        <time>2015-06-14T08:01:33Z</time>
      </trkpt>
      <trkpt lat="45.85798" lon="4.77439">
        <ele>479.832</ele>
        <time>2015-06-14T08:01:37Z</time>
      </trkpt>
      <trkpt lat="45.85826" lon="4.77462">
        <ele>473.584</ele>
        <time>2015-06-14T08:01:45Z</time>
      </trkpt>
      <trkpt lat="45.85873" lon="4.77466">
        <ele>468.745</ele>
        <time>2015-06-14T08:01:52Z</time>
      </trkpt>
      <trkpt lat="45.85893" lon="4.77469">
        <ele>466.616</ele>
        <time>2015-06-14T08:01:55Z</time>
      </trkpt>
      <trkpt lat="45.85931" lon="4.77474">
        <ele>461.594</ele>
        <time>2015-06-14T08:02:03Z</time>
      </trkpt>
      <trkpt lat="45.85938" lon="4.77473">
        <ele>460.892</ele>
        <time>2015-06-14T08:02:06Z</time>
      </trkpt>
      <trkpt lat="45.85952" lon="4.77469">
        <ele>458.253</ele>
        <time>2015-06-14T08:02:12Z</time>
      </trkpt>
      <trkpt lat="45.85976" lon="4.77473">
        <ele>450.033</ele>
        <time>2015-06-14T08:02:20Z</time>
      </trkpt>
      <trkpt lat="45.8599" lon="4.77479">
        <ele>448.633</ele>
        <time>2015-06-14T08:02:25Z</time>
      </trkpt>
      <trkpt lat="45.86018" lon="4.77477">
        <ele>441.934</ele>
        <time>2015-06-14T08:02:34Z</time>
      </trkpt>
      <trkpt lat="45.86028" lon="4.77479">
        <ele>440.665</ele>
        <time>2015-06-14T08:02:37Z</time>
      </trkpt>
      <trkpt lat="45.86035" lon="4.77479">
        <ele>438.091</ele>
        <time>2015-06-14T08:02:40Z</time>
      </trkpt>
      <trkpt lat="45.86051" lon="4.77486">
        <ele>433.612</ele>
        <time>2015-06-14T08:02:45Z</time>
      </trkpt>
      <trkpt lat="45.86056" lon="4.77491">
        <ele>432.332</ele>
        <time>2015-06-14T08:02:57Z</time>
      </trkpt>
      <trkpt lat="45.86065" lon="4.77493">
        <ele>431.293</ele>
        <time>2015-06-14T08:03:13Z</time>
      </trkpt>
      <trkpt lat="45.86082" lon="4.77486">
        <ele>429.118</ele>
        <time>2015-06-14T08:03:23Z</time>
      </trkpt>
      <trkpt lat="45.86087" lon="4.77482">
        <ele>425.798</ele>
        <time>2015-06-14T08:03:35Z</time>
      </trkpt>
      <trkpt lat="45.8609" lon="4.77482">
        <ele>424.701</ele>
        <time>2015-06-14T08:03:37Z</time>
      </trkpt>
      <trkpt lat="45.86102" lon="4.77483">
        <ele>422.644</ele>
        <time>2015-06-14T08:03:41Z</time>
      </trkpt>
      <trkpt lat="45.86119" lon="4.77484">
        <ele>419.189</ele>
        <time>2015-06-14T08:03:44Z</time>
      </trkpt>
      <trkpt lat="45.86135" lon="4.7748">
        <ele>415.214</ele>
        <time>2015-06-14T08:03:49Z</time>
      </trkpt>
      <trkpt lat="45.86146" lon="4.77485">
        <ele>413.797</ele>
        <time>2015-06-14T08:03:52Z</time>
      </trkpt>
      <trkpt lat="45.86153" lon="4.77481">
        <ele>411.965</ele>
        <time>2015-06-14T08:03:54Z</time>
      </trkpt>
      <trkpt lat="45.8617" lon="4.77487">
        <ele>410.481</ele>
        <time>2015-06-14T08:03:59Z</time>
      </trkpt>
      <trkpt lat="45.86209" lon="4.77488">
        <ele>405.559</ele>
        <time>2015-06-14T08:04:10Z</time>
      </trkpt>
      <trkpt lat="45.86217" lon="4.77489">
        <ele>403.981</ele>
        <time>2015-06-14T08:04:12Z</time>
      </trkpt>
      <trkpt lat="45.86232" lon="4.77496">
        <ele>399.88</ele>
        <time>2015-06-14T08:04:19Z</time>
      </trkpt>
      <trkpt lat="45.86232" lon="4.77497">
        <ele>398.454</ele>
        <time>2015-06-14T08:04:40Z</time>
      </trkpt>
      <trkpt lat="45.86227" lon="4.77505">
        <ele>399.542</ele>
        <time>2015-06-14T08:04:44Z</time>
      </trkpt>
      <trkpt lat="45.86211" lon="4.77509">
        <ele>400.643</ele>
        <time>2015-06-14T08:04:55Z</time>
      </trkpt>
      <trkpt lat="45.86195" lon="4.7751">
        <ele>401.91</ele>
        <time>2015-06-14T08:05:07Z</time>
      </trkpt>
      <trkpt lat="45.86171" lon="4.77513">
        <ele>400.031</ele>
        <time>2015-06-14T08:05:20Z</time>
      </trkpt>
      <trkpt lat="45.86164" lon="4.77517">
        <ele>399.873</ele>
        <time>2015-06-14T08:05:23Z</time>
      </trkpt>
      <trkpt lat="45.8616" lon="4.77517">
        <ele>399.331</ele>
        <time>2015-06-14T08:05:25Z</time>
      </trkpt>
      <trkpt lat="45.86123" lon="4.77543">
        <ele>406.465</ele>
        <time>2015-06-14T08:05:38Z</time>
      </trkpt>
      <trkpt lat="45.8609" lon="4.77561">
        <ele>410.906</ele>
        <time>2015-06-14T08:05:48Z</time>
      </trkpt>
      <trkpt lat="45.86061" lon="4.77578">
        <ele>413.561</ele>
        <time>2015-06-14T08:05:56Z</time>
      </trkpt>
      <trkpt lat="45.86028" lon="4.77597">
        <ele>420.529</ele>
        <time>2015-06-14T08:06:05Z</time>
      </trkpt>
      <trkpt lat="45.85992" lon="4.77609">
        <ele>419.802</ele>
        <time>2015-06-14T08:06:14Z</time>
      </trkpt>
      <trkpt lat="45.85966" lon="4.77617">
        <ele>422.151</ele>
        <time>2015-06-14T08:06:24Z</time>
      </trkpt>
      <trkpt lat="45.85949" lon="4.77622">
        <ele>424.589</ele>
        <time>2015-06-14T08:06:34Z</time>
      </trkpt>
      <trkpt lat="45.85932" lon="4.77632">
        <ele>430.489</ele>
        <time>2015-06-14T08:06:47Z</time>
      </trkpt>
      <trkpt lat="45.85923" lon="4.77651">
        <ele>437.993</ele>
        <time>2015-06-14T08:06:57Z</time>
      </trkpt>
      <trkpt lat="45.85918" lon="4.77669">
        <ele>438.99</ele>
        <time>2015-06-14T08:07:07Z</time>
      </trkpt>
      <trkpt lat="45.85916" lon="4.77674">
        <ele>438.063</ele>
        <time>2015-06-14T08:07:09Z</time>
      </trkpt>
      <trkpt lat="45.85913" lon="4.77688">
        <ele>435.717</ele>
        <time>2015-06-14T08:07:14Z</time>
      </trkpt>
      <trkpt lat="45.85911" lon="4.77691">
        <ele>433.432</ele>
        <time>2015-06-14T08:07:17Z</time>
      </trkpt>
      <trkpt lat="45.85905" lon="4.77713">
        <ele>430.387</ele>
        <time>2015-06-14T08:07:28Z</time>
      </trkpt>
      <trkpt lat="45.85898" lon="4.7772">
        <ele>429.549</ele>
        <time>2015-06-14T08:07:32Z</time>
      </trkpt>
      <trkpt lat="45.85866" lon="4.77733">
        <ele>425.681</ele>
        <time>2015-06-14T08:07:44Z</time>
      </trkpt>
      <trkpt lat="45.85854" lon="4.77727">
        <ele>427.01</ele>
        <time>2015-06-14T08:07:52Z</time>
      </trkpt>
      <trkpt lat="45.85848" lon="4.77727">
        <ele>427.574</ele>
        <time>2015-06-14T08:07:56Z</time>
      </trkpt>
      <trkpt lat="45.85843" lon="4.77725">
        <ele>430.289</ele>
        <time>2015-06-14T08:08:01Z</time>
      </trkpt>
      <trkpt lat="45.85824" lon="4.77733">
        <ele>434.781</ele>
        <time>2015-06-14T08:08:16Z</time>
      </trkpt>
      <trkpt lat="45.85812" lon="4.77742">
        <ele>438.439</ele>
        <time>2015-06-14T08:08:28Z</time>
      </trkpt>
      <trkpt lat="45.85808" lon="4.77745">
        <ele>440.107</ele>
        <time>2015-06-14T08:08:32Z</time>
      </trkpt>
      <trkpt lat="45.85794" lon="4.7776">
        <ele>438.962</ele>
        <time>2015-06-14T08:08:46Z</time>
      </trkpt>
      <trkpt lat="45.85773" lon="4.77769">
        <ele>439.577</ele>
        <time>2015-06-14T08:09:00Z</time>
      </trkpt>
      <trkpt lat="45.85772" lon="4.7777">
        <ele>440.265</ele>
        <time>2015-06-14T08:09:02Z</time>
      </trkpt>
      <trkpt lat="45.85764" lon="4.77778">
        <ele>444.874</ele>
        <time>2015-06-14T08:09:12Z</time>
      </trkpt>
      <trkpt lat="45.85746" lon="4.77794">
        <ele>448.01</ele>
        <time>2015-06-14T08:09:25Z</time>
      </trkpt>
      <trkpt lat="45.85739" lon="4.77799">
        <ele>448.885</ele>
        <time>2015-06-14T08:09:32Z</time>
      </trkpt>
      <trkpt lat="45.85736" lon="4.77804">
        <ele>451.376</ele>
        <time>2015-06-14T08:09:36Z</time>
      </trkpt>
      <trkpt lat="45.85733" lon="4.77805">
        <ele>452.059</ele>
        <time>2015-06-14T08:09:38Z</time>
      </trkpt>
      <trkpt lat="45.8573" lon="4.77806">
        <ele>453.21</ele>
        <time>2015-06-14T08:09:40Z</time>
      </trkpt>
      <trkpt lat="45.85726" lon="4.77821">
        <ele>456.987</ele>
        <time>2015-06-14T08:09:53Z</time>
      </trkpt>
      <trkpt lat="45.85722" lon="4.77831">
        <ele>458.247</ele>
        <time>2015-06-14T08:10:04Z</time>
      </trkpt>
      <trkpt lat="45.85713" lon="4.77845">
        <ele>459.518</ele>
        <time>2015-06-14T08:10:20Z</time>
      </trkpt>
      <trkpt lat="45.85709" lon="4.77851">
        <ele>459.751</ele>
        <time>2015-06-14T08:10:26Z</time>
      </trkpt>
      <trkpt lat="45.85701" lon="4.7786">
        <ele>459.26</ele>
        <time>2015-06-14T08:10:40Z</time>
      </trkpt>
      <trkpt lat="45.85695" lon="4.77867">
        <ele>458.907</ele>
        <time>2015-06-14T08:10:47Z</time>
      </trkpt>
      <trkpt lat="45.85693" lon="4.77869">
        <ele>458.721</ele>
        <time>2015-06-14T08:10:50Z</time>
      </trkpt>
      <trkpt lat="45.85686" lon="4.77885">
        <ele>459.608</ele>
        <time>2015-06-14T08:11:05Z</time>
      </trkpt>
      <trkpt lat="45.85679" lon="4.77893">
        <ele>459.23</ele>
        <time>2015-06-14T08:11:22Z</time>
      </trkpt>
      <trkpt lat="45.85676" lon="4.77896">
        <ele>460.466</ele>
        <time>2015-06-14T08:11:27Z</time>
      </trkpt>
      <trkpt lat="45.85664" lon="4.77909">
        <ele>462.23</ele>
        <time>2015-06-14T08:11:41Z</time>
      </trkpt>
      <trkpt lat="45.85656" lon="4.77914">
        <ele>463.892</ele>
        <time>2015-06-14T08:11:51Z</time>
      </trkpt>
      <trkpt lat="45.85653" lon="4.77916">
        <ele>464.07</ele>
        <time>2015-06-14T08:11:54Z</time>
      </trkpt>
      <trkpt lat="45.85649" lon="4.77916">
        <ele>464.98</ele>
        <time>2015-06-14T08:11:58Z</time>
      </trkpt>
      <trkpt lat="45.85639" lon="4.77924">
        <ele>466.014</ele>
        <time>2015-06-14T08:12:09Z</time>
      </trkpt>
      <trkpt lat="45.85622" lon="4.77932">
        <ele>467.765</ele>
        <time>2015-06-14T08:12:23Z</time>
      </trkpt>
      <trkpt lat="45.85616" lon="4.77938">
        <ele>468.114</ele>
        <time>2015-06-14T08:12:30Z</time>
      </trkpt>
      <trkpt lat="45.85613" lon="4.77942">
        <ele>467.88</ele>
        <time>2015-06-14T08:12:33Z</time>
      </trkpt>
      <trkpt lat="45.85608" lon="4.77944">
        <ele>466.471</ele>
        <time>2015-06-14T08:12:36Z</time>
      </trkpt>
      <trkpt lat="45.85601" lon="4.77961">
        <ele>467.356</ele>
        <time>2015-06-14T08:12:47Z</time>
      </trkpt>
      <trkpt lat="45.85604" lon="4.77974">
        <ele>468.391</ele>
        <time>2015-06-14T08:13:02Z</time>
      </trkpt>
      <trkpt lat="45.85603" lon="4.77974">
        <ele>468.417</ele>
        <time>2015-06-14T08:13:03Z</time>
      </trkpt>
      <trkpt lat="45.856" lon="4.77988">
        <ele>471.527</ele>
        <time>2015-06-14T08:13:17Z</time>
      </trkpt>
      <trkpt lat="45.85603" lon="4.77995">
        <ele>471.989</ele>
        <time>2015-06-14T08:13:23Z</time>
      </trkpt>
      <trkpt lat="45.85602" lon="4.77998">
        <ele>472.578</ele>
        <time>2015-06-14T08:13:25Z</time>
      </trkpt>
      <trkpt lat="45.85601" lon="4.78002">
        <ele>473.135</ele>
        <time>2015-06-14T08:13:28Z</time>
      </trkpt>
      <trkpt lat="45.85608" lon="4.78018">
        <ele>476.41</ele>
        <time>2015-06-14T08:13:44Z</time>
      </trkpt>
      <trkpt lat="45.85612" lon="4.78027">
        <ele>477.179</ele>
        <time>2015-06-14T08:13:57Z</time>
      </trkpt>
      <trkpt lat="45.85613" lon="4.78031">
        <ele>477.643</ele>
        <time>2015-06-14T08:14:05Z</time>
      </trkpt>
      <trkpt lat="45.85623" lon="4.78046">
        <ele>476.441</ele>
        <time>2015-06-14T08:14:12Z</time>
      </trkpt>
      <trkpt lat="45.85624" lon="4.78049">
        <ele>476.59</ele>
        <time>2015-06-14T08:14:14Z</time>
      </trkpt>
      <trkpt lat="45.85628" lon="4.78058">
        <ele>477.628</ele>
        <time>2015-06-14T08:14:21Z</time>
      </trkpt>
      <trkpt lat="45.8563" lon="4.78064">
        <ele>478.127</ele>
        <time>2015-06-14T08:14:24Z</time>
      </trkpt>
      <trkpt lat="45.85633" lon="4.78066">
        <ele>478.311</ele>
        <time>2015-06-14T08:14:27Z</time>
      </trkpt>
      <trkpt lat="45.85641" lon="4.7808">
        <ele>479.34</ele>
        <time>2015-06-14T08:14:36Z</time>
      </trkpt>
      <trkpt lat="45.85647" lon="4.78089">
        <ele>481.919</ele>
        <time>2015-06-14T08:14:41Z</time>
      </trkpt>
      <trkpt lat="45.8565" lon="4.78094">
        <ele>483.144</ele>
        <time>2015-06-14T08:14:44Z</time>
      </trkpt>
      <trkpt lat="45.85652" lon="4.78102">
        <ele>484.251</ele>
        <time>2015-06-14T08:14:49Z</time>
      </trkpt>
      <trkpt lat="45.85656" lon="4.78109">
        <ele>485.472</ele>
        <time>2015-06-14T08:14:53Z</time>
      </trkpt>
      <trkpt lat="45.8566" lon="4.78117">
        <ele>486.358</ele>
        <time>2015-06-14T08:14:57Z</time>
      </trkpt>
      <trkpt lat="45.85662" lon="4.78124">
        <ele>487.386</ele>
        <time>2015-06-14T08:15:01Z</time>
      </trkpt>
      <trkpt lat="45.85663" lon="4.78132">
        <ele>487.505</ele>
        <time>2015-06-14T08:15:07Z</time>
      </trkpt>
      <trkpt lat="45.85665" lon="4.78135">
        <ele>487.148</ele>
        <time>2015-06-14T08:15:09Z</time>
      </trkpt>
      <trkpt lat="45.8567" lon="4.78157">
        <ele>488.296</ele>
        <time>2015-06-14T08:15:22Z</time>
      </trkpt>
      <trkpt lat="45.85674" lon="4.78168">
        <ele>488.7</ele>
        <time>2015-06-14T08:15:30Z</time>
      </trkpt>
      <trkpt lat="45.8568" lon="4.78175">
        <ele>488.99</ele>
        <time>2015-06-14T08:15:35Z</time>
      </trkpt>
      <trkpt lat="45.85682" lon="4.78181">
        <ele>489.205</ele>
        <time>2015-06-14T08:15:38Z</time>
      </trkpt>
      <trkpt lat="45.85689" lon="4.7819">
        <ele>493.238</ele>
        <time>2015-06-14T08:15:44Z</time>
      </trkpt>
      <trkpt lat="45.85699" lon="4.78206">
        <ele>495.183</ele>
        <time>2015-06-14T08:15:51Z</time>
      </trkpt>
      <trkpt lat="45.85702" lon="4.78234">
        <ele>498.191</ele>
        <time>2015-06-14T08:16:06Z</time>
      </trkpt>
      <trkpt lat="45.85697" lon="4.7825">
        <ele>499.453</ele>
        <time>2015-06-14T08:16:17Z</time>
      </trkpt>
      <trkpt lat="45.85695" lon="4.78265">
        <ele>501.141</ele>
        <time>2015-06-14T08:16:28Z</time>
      </trkpt>
      <trkpt lat="45.85687" lon="4.78275">
        <ele>503.177</ele>
        <time>2015-06-14T08:16:44Z</time>
      </trkpt>
      <trkpt lat="45.85688" lon="4.78284">
        <ele>503.739</ele>
        <time>2015-06-14T08:16:50Z</time>
      </trkpt>
      <trkpt lat="45.85686" lon="4.78292">
        <ele>503.085</ele>
        <time>2015-06-14T08:17:08Z</time>
      </trkpt>
      <trkpt lat="45.85684" lon="4.78306">
        <ele>505.077</ele>
        <time>2015-06-14T08:17:35Z</time>
      </trkpt>
      <trkpt lat="45.85684" lon="4.78308">
        <ele>503.807</ele>
        <time>2015-06-14T08:18:16Z</time>
      </trkpt>
      <trkpt lat="45.85683" lon="4.78311">
        <ele>503.602</ele>
        <time>2015-06-14T08:18:36Z</time>
      </trkpt>
      <trkpt lat="45.85683" lon="4.78328">
        <ele>500.869</ele>
        <time>2015-06-14T08:18:48Z</time>
      </trkpt>
      <trkpt lat="45.85684" lon="4.78339">
        <ele>499.208</ele>
        <time>2015-06-14T08:19:05Z</time>
      </trkpt>
      <trkpt lat="45.85682" lon="4.78362">
        <ele>498.767</ele>
        <time>2015-06-14T08:19:20Z</time>
      </trkpt>
      <trkpt lat="45.85683" lon="4.78385">
        <ele>500.671</ele>
        <time>2015-06-14T08:19:30Z</time>
      </trkpt>
      <trkpt lat="45.85688" lon="4.78413">
        <ele>501.571</ele>
        <time>2015-06-14T08:19:42Z</time>
      </trkpt>
      <trkpt lat="45.85688" lon="4.78428">
        <ele>501.836</ele>
        <time>2015-06-14T08:19:49Z</time>
      </trkpt>
      <trkpt lat="45.85697" lon="4.78451">
        <ele>503.288</ele>
        <time>2015-06-14T08:19:56Z</time>
      </trkpt>
      <trkpt lat="45.85699" lon="4.78461">
        <ele>503.285</ele>
        <time>2015-06-14T08:20:00Z</time>
      </trkpt>
      <trkpt lat="45.8571" lon="4.78476">
        <ele>503.506</ele>
        <time>2015-06-14T08:20:06Z</time>
      </trkpt>
      <trkpt lat="45.85714" lon="4.78484">
        <ele>503.718</ele>
        <time>2015-06-14T08:20:10Z</time>
      </trkpt>
      <trkpt lat="45.85724" lon="4.78504">
        <ele>505.603</ele>
        <time>2015-06-14T08:20:22Z</time>
      </trkpt>
      <trkpt lat="45.85731" lon="4.7851">
        <ele>505.57</ele>
        <time>2015-06-14T08:20:26Z</time>
      </trkpt>
      <trkpt lat="45.8574" lon="4.78525">
        <ele>507.438</ele>
        <time>2015-06-14T08:20:35Z</time>
      </trkpt>
      <trkpt lat="45.85755" lon="4.78541">
        <ele>511.488</ele>
        <time>2015-06-14T08:20:47Z</time>
      </trkpt>
      <trkpt lat="45.85775" lon="4.78563">
        <ele>510.462</ele>
        <time>2015-06-14T08:21:03Z</time>
      </trkpt>
      <trkpt lat="45.85787" lon="4.78577">
        <ele>516.784</ele>
        <time>2015-06-14T08:21:13Z</time>
      </trkpt>
      <trkpt lat="45.85792" lon="4.78583">
        <ele>517.776</ele>
        <time>2015-06-14T08:21:16Z</time>
      </trkpt>
      <trkpt lat="45.85802" lon="4.78603">
        <ele>517.662</ele>
        <time>2015-06-14T08:21:27Z</time>
      </trkpt>
      <trkpt lat="45.85804" lon="4.78604">
        <ele>517.754</ele>
        <time>2015-06-14T08:21:33Z</time>
      </trkpt>
      <trkpt lat="45.85814" lon="4.78614">
        <ele>517.925</ele>
        <time>2015-06-14T08:21:37Z</time>
      </trkpt>
      <trkpt lat="45.8582" lon="4.78631">
        <ele>519.363</ele>
        <time>2015-06-14T08:21:44Z</time>
      </trkpt>
      <trkpt lat="45.85823" lon="4.78646">
        <ele>519.936</ele>
        <time>2015-06-14T08:21:53Z</time>
      </trkpt>
      <trkpt lat="45.85823" lon="4.78656">
        <ele>520.403</ele>
        <time>2015-06-14T08:21:59Z</time>
      </trkpt>
      <trkpt lat="45.85825" lon="4.78675">
        <ele>521.199</ele>
        <time>2015-06-14T08:22:09Z</time>
      </trkpt>
      <trkpt lat="45.85826" lon="4.78686">
        <ele>522.269</ele>
        <time>2015-06-14T08:22:15Z</time>
      </trkpt>
      <trkpt lat="45.85826" lon="4.78713">
        <ele>524.392</ele>
        <time>2015-06-14T08:22:29Z</time>
      </trkpt>
      <trkpt lat="45.85824" lon="4.78719">
        <ele>525.015</ele>
        <time>2015-06-14T08:22:33Z</time>
      </trkpt>
      <trkpt lat="45.85824" lon="4.78726">
        <ele>524.874</ele>
        <time>2015-06-14T08:22:36Z</time>
      </trkpt>
      <trkpt lat="45.85823" lon="4.78732">
        <ele>525.641</ele>
        <time>2015-06-14T08:22:39Z</time>
      </trkpt>
      <trkpt lat="45.85822" lon="4.7874">
        <ele>526.611</ele>
        <time>2015-06-14T08:22:43Z</time>
      </trkpt>
      <trkpt lat="45.8582" lon="4.78754">
        <ele>529.445</ele>
        <time>2015-06-14T08:22:50Z</time>
      </trkpt>
      <trkpt lat="45.85819" lon="4.78765">
        <ele>531.298</ele>
        <time>2015-06-14T08:22:55Z</time>
      </trkpt>
      <trkpt lat="45.85822" lon="4.78801">
        <ele>536.615</ele>
        <time>2015-06-14T08:23:11Z</time>
      </trkpt>
      <trkpt lat="45.85827" lon="4.78809">
        <ele>536.949</ele>
        <time>2015-06-14T08:23:20Z</time>
      </trkpt>
      <trkpt lat="45.85829" lon="4.78809">
        <ele>537.171</ele>
        <time>2015-06-14T08:23:23Z</time>
      </trkpt>
      <trkpt lat="45.85833" lon="4.7881">
        <ele>537.407</ele>
        <time>2015-06-14T08:23:39Z</time>
      </trkpt>
      <trkpt lat="45.85834" lon="4.7881">
        <ele>537.168</ele>
        <time>2015-06-14T08:24:27Z</time>
      </trkpt>
      <trkpt lat="45.85834" lon="4.7881">
        <ele>537.164</ele>
        <time>2015-06-14T08:24:28Z</time>
      </trkpt>
      <trkpt lat="45.85837" lon="4.78816">
        <ele>538.311</ele>
        <time>2015-06-14T08:24:33Z</time>
      </trkpt>
      <trkpt lat="45.85842" lon="4.78828">
        <ele>540.481</ele>
        <time>2015-06-14T08:24:42Z</time>
      </trkpt>
      <trkpt lat="45.85863" lon="4.78821">
        <ele>540.81</ele>
        <time>2015-06-14T08:24:57Z</time>
      </trkpt>
      <trkpt lat="45.85867" lon="4.78823">
        <ele>538.237</ele>
        <time>2015-06-14T08:25:13Z</time>
      </trkpt>
      <trkpt lat="45.85865" lon="4.78825">
        <ele>537.353</ele>
        <time>2015-06-14T08:25:20Z</time>
      </trkpt>
      <trkpt lat="45.85847" lon="4.78831">
        <ele>536.187</ele>
        <time>2015-06-14T08:25:32Z</time>
      </trkpt>
      <trkpt lat="45.85844" lon="4.78832">
        <ele>538.228</ele>
        <time>2015-06-14T08:25:47Z</time>
      </trkpt>
      <trkpt lat="45.85845" lon="4.7883">
        <ele>539.28</ele>
        <time>2015-06-14T08:26:08Z</time>
      </trkpt>
      <trkpt lat="45.85865" lon="4.78819">
        <ele>537.719</ele>
        <time>2015-06-14T08:26:21Z</time>
      </trkpt>
      <trkpt lat="45.85899" lon="4.78823">
        <ele>530.374</ele>
        <time>2015-06-14T08:26:29Z</time>
      </trkpt>
      <trkpt lat="45.85911" lon="4.78829">
        <ele>526.543</ele>
        <time>2015-06-14T08:26:39Z</time>
      </trkpt>
      <trkpt lat="45.8592" lon="4.7883">
        <ele>526.279</ele>
        <time>2015-06-14T08:26:57Z</time>
      </trkpt>
      <trkpt lat="45.8596" lon="4.78838">
        <ele>521.524</ele>
        <time>2015-06-14T08:27:08Z</time>
      </trkpt>
      <trkpt lat="45.86007" lon="4.78863">
        <ele>515.741</ele>
        <time>2015-06-14T08:27:20Z</time>
      </trkpt>
      <trkpt lat="45.86029" lon="4.78877">
        <ele>513.035</ele>
        <time>2015-06-14T08:27:24Z</time>
      </trkpt>
      <trkpt lat="45.86072" lon="4.7891">
        <ele>508.409</ele>
        <time>2015-06-14T08:27:32Z</time>
      </trkpt>
      <trkpt lat="45.86109" lon="4.78955">
        <ele>505.502</ele>
        <time>2015-06-14T08:27:42Z</time>
      </trkpt>
      <trkpt lat="45.86136" lon="4.78985">
        <ele>503.481</ele>
        <time>2015-06-14T08:27:50Z</time>
      </trkpt>
      <trkpt lat="45.86157" lon="4.79018">
        <ele>500.816</ele>
        <time>2015-06-14T08:27:59Z</time>
      </trkpt>
      <trkpt lat="45.86187" lon="4.79059">
        <ele>497.961</ele>
        <time>2015-06-14T08:28:07Z</time>
      </trkpt>
      <trkpt lat="45.86222" lon="4.79097">
        <ele>492.089</ele>
        <time>2015-06-14T08:28:15Z</time>
      </trkpt>
      <trkpt lat="45.86264" lon="4.79158">
        <ele>490.248</ele>
        <time>2015-06-14T08:28:21Z</time>
      </trkpt>
      <trkpt lat="45.86283" lon="4.79176">
        <ele>489.351</ele>
        <time>2015-06-14T08:28:25Z</time>
      </trkpt>
      <trkpt lat="45.86309" lon="4.79199">
        <ele>487.524</ele>
        <time>2015-06-14T08:28:30Z</time>
      </trkpt>
      <trkpt lat="45.86325" lon="4.79219">
        <ele>486.505</ele>
        <time>2015-06-14T08:28:33Z</time>
      </trkpt>
      <trkpt lat="45.86383" lon="4.79279">
        <ele>483.164</ele>
        <time>2015-06-14T08:28:41Z</time>
      </trkpt>
      <trkpt lat="45.86401" lon="4.79298">
        <ele>482.02</ele>
        <time>2015-06-14T08:28:44Z</time>
      </trkpt>
      <trkpt lat="45.86424" lon="4.79327">
        <ele>480.416</ele>
        <time>2015-06-14T08:28:48Z</time>
      </trkpt>
      <trkpt lat="45.86462" lon="4.79377">
        <ele>478.449</ele>
        <time>2015-06-14T08:28:56Z</time>
      </trkpt>
      <trkpt lat="45.865" lon="4.79411">
        <ele>475.898</ele>
        <time>2015-06-14T08:29:05Z</time>
      </trkpt>
      <trkpt lat="45.86554" lon="4.79465">
        <ele>471.406</ele>
        <time>2015-06-14T08:29:14Z</time>
      </trkpt>
      <trkpt lat="45.8658" lon="4.79498">
        <ele>467.736</ele>
        <time>2015-06-14T08:29:19Z</time>
      </trkpt>
      <trkpt lat="45.86599" lon="4.79534">
        <ele>464.677</ele>
        <time>2015-06-14T08:29:23Z</time>
      </trkpt>
      <trkpt lat="45.86622" lon="4.79587">
        <ele>458.632</ele>
        <time>2015-06-14T08:29:31Z</time>
      </trkpt>
      <trkpt lat="45.86655" lon="4.79641">
        <ele>454.525</ele>
        <time>2015-06-14T08:29:40Z</time>
      </trkpt>
      <trkpt lat="45.86664" lon="4.79662">
        <ele>454.86</ele>
        <time>2015-06-14T08:29:50Z</time>
      </trkpt>
      <trkpt lat="45.86663" lon="4.79661">
        <ele>454.588</ele>
        <time>2015-06-14T08:30:08Z</time>
      </trkpt>
      <trkpt lat="45.86664" lon="4.79664">
        <ele>455.148</ele>
        <time>2015-06-14T08:30:52Z</time>
      </trkpt>
      <trkpt lat="45.86664" lon="4.79664">
        <ele>455.154</ele>
        <time>2015-06-14T08:31:24Z</time>
      </trkpt>
      <trkpt lat="45.86668" lon="4.79678">
        <ele>454.528</ele>
        <time>2015-06-14T08:31:30Z</time>
      </trkpt>
      <trkpt lat="45.86674" lon="4.79697">
        <ele>453.82</ele>
        <time>2015-06-14T08:31:34Z</time>
      </trkpt>
      <trkpt lat="45.86675" lon="4.79706">
        <ele>453.813</ele>
        <time>2015-06-14T08:31:37Z</time>
      </trkpt>
      <trkpt lat="45.86673" lon="4.79718">
        <ele>453.646</ele>
        <time>2015-06-14T08:31:41Z</time>
      </trkpt>
      <trkpt lat="45.86669" lon="4.79739">
        <ele>452.99</ele>
        <time>2015-06-14T08:31:46Z</time>
      </trkpt>
      <trkpt lat="45.86658" lon="4.79773">
        <ele>454.044</ele>
        <time>2015-06-14T08:31:56Z</time>
      </trkpt>
      <trkpt lat="45.86634" lon="4.79815">
        <ele>454.18</ele>
        <time>2015-06-14T08:32:06Z</time>
      </trkpt>
      <trkpt lat="45.86621" lon="4.79854">
        <ele>455.773</ele>
        <time>2015-06-14T08:32:17Z</time>
      </trkpt>
      <trkpt lat="45.86601" lon="4.7988">
        <ele>457.457</ele>
        <time>2015-06-14T08:32:27Z</time>
      </trkpt>
      <trkpt lat="45.86583" lon="4.799">
        <ele>457.214</ele>
        <time>2015-06-14T08:32:33Z</time>
      </trkpt>
      <trkpt lat="45.8659" lon="4.79915">
        <ele>455.658</ele>
        <time>2015-06-14T08:32:38Z</time>
      </trkpt>
      <trkpt lat="45.86633" lon="4.79941">
        <ele>452.684</ele>
        <time>2015-06-14T08:32:48Z</time>
      </trkpt>
      <trkpt lat="45.86672" lon="4.79971">
        <ele>451.442</ele>
        <time>2015-06-14T08:32:59Z</time>
      </trkpt>
      <trkpt lat="45.86689" lon="4.80004">
        <ele>451.518</ele>
        <time>2015-06-14T08:33:07Z</time>
      </trkpt>
      <trkpt lat="45.86705" lon="4.80012">
        <ele>451.813</ele>
        <time>2015-06-14T08:33:12Z</time>
      </trkpt>
      <trkpt lat="45.86719" lon="4.80033">
        <ele>452.267</ele>
        <time>2015-06-14T08:33:20Z</time>
      </trkpt>
      <trkpt lat="45.86719" lon="4.80048">
        <ele>452.486</ele>
        <time>2015-06-14T08:33:25Z</time>
      </trkpt>
      <trkpt lat="45.86719" lon="4.8006">
        <ele>454.114</ele>
        <time>2015-06-14T08:33:30Z</time>
      </trkpt>
      <trkpt lat="45.86719" lon="4.8007">
        <ele>455.722</ele>
        <time>2015-06-14T08:33:35Z</time>
      </trkpt>
      <trkpt lat="45.86725" lon="4.80092">
        <ele>458.279</ele>
        <time>2015-06-14T08:33:46Z</time>
      </trkpt>
      <trkpt lat="45.86728" lon="4.80107">
        <ele>459.949</ele>
        <time>2015-06-14T08:33:54Z</time>
      </trkpt>
      <trkpt lat="45.86737" lon="4.80128">
        <ele>462.28</ele>
        <time>2015-06-14T08:34:04Z</time>
      </trkpt>
      <trkpt lat="45.86742" lon="4.80136">
        <ele>463.925</ele>
        <time>2015-06-14T08:34:08Z</time>
      </trkpt>
      <trkpt lat="45.86749" lon="4.8014">
        <ele>465.255</ele>
        <time>2015-06-14T08:34:12Z</time>
      </trkpt>
      <trkpt lat="45.86753" lon="4.80143">
        <ele>465.224</ele>
        <time>2015-06-14T08:34:14Z</time>
      </trkpt>
      <trkpt lat="45.86762" lon="4.80144">
        <ele>466.843</ele>
        <time>2015-06-14T08:34:20Z</time>
      </trkpt>
      <trkpt lat="45.86773" lon="4.80152">
        <ele>467.248</ele>
        <time>2015-06-14T08:34:28Z</time>
      </trkpt>
      <trkpt lat="45.86782" lon="4.80172">
        <ele>465.139</ele>
        <time>2015-06-14T08:34:33Z</time>
      </trkpt>
      <trkpt lat="45.86789" lon="4.80186">
        <ele>463.255</ele>
        <time>2015-06-14T08:34:36Z</time>
      </trkpt>
      <trkpt lat="45.86796" lon="4.80204">
        <ele>461.302</ele>
        <time>2015-06-14T08:34:39Z</time>
      </trkpt>
      <trkpt lat="45.86817" lon="4.80256">
        <ele>453.928</ele>
        <time>2015-06-14T08:34:50Z</time>
      </trkpt>
      <trkpt lat="45.86818" lon="4.8026">
        <ele>453.151</ele>
        <time>2015-06-14T08:34:51Z</time>
      </trkpt>
      <trkpt lat="45.86813" lon="4.80274">
        <ele>450.417</ele>
        <time>2015-06-14T08:34:55Z</time>
      </trkpt>
      <trkpt lat="45.86802" lon="4.80295">
        <ele>446.789</ele>
        <time>2015-06-14T08:35:02Z</time>
      </trkpt>
      <trkpt lat="45.86799" lon="4.80313">
        <ele>444.684</ele>
        <time>2015-06-14T08:35:05Z</time>
      </trkpt>
      <trkpt lat="45.86793" lon="4.80331">
        <ele>441.115</ele>
        <time>2015-06-14T08:35:11Z</time>
      </trkpt>
      <trkpt lat="45.86797" lon="4.80338">
        <ele>439.637</ele>
        <time>2015-06-14T08:35:13Z</time>
      </trkpt>
      <trkpt lat="45.868" lon="4.80349">
        <ele>436.981</ele>
        <time>2015-06-14T08:35:17Z</time>
      </trkpt>
      <trkpt lat="45.868" lon="4.80358">
        <ele>435.858</ele>
        <time>2015-06-14T08:35:19Z</time>
      </trkpt>
      <trkpt lat="45.86797" lon="4.80368">
        <ele>434.977</ele>
        <time>2015-06-14T08:35:22Z</time>
      </trkpt>
      <trkpt lat="45.86799" lon="4.80373">
        <ele>433.449</ele>
        <time>2015-06-14T08:35:24Z</time>
      </trkpt>
      <trkpt lat="45.86806" lon="4.80393">
        <ele>430.402</ele>
        <time>2015-06-14T08:35:30Z</time>
      </trkpt>
      <trkpt lat="45.86814" lon="4.80404">
        <ele>427.833</ele>
        <time>2015-06-14T08:35:33Z</time>
      </trkpt>
      <trkpt lat="45.86808" lon="4.80416">
        <ele>425.082</ele>
        <time>2015-06-14T08:35:37Z</time>
      </trkpt>
      <trkpt lat="45.86797" lon="4.80434">
        <ele>421.021</ele>
        <time>2015-06-14T08:35:43Z</time>
      </trkpt>
      <trkpt lat="45.86794" lon="4.80441">
        <ele>419.598</ele>
        <time>2015-06-14T08:35:45Z</time>
      </trkpt>
      <trkpt lat="45.86781" lon="4.80444">
        <ele>417.184</ele>
        <time>2015-06-14T08:35:49Z</time>
      </trkpt>
      <trkpt lat="45.86778" lon="4.80451">
        <ele>415.292</ele>
        <time>2015-06-14T08:35:53Z</time>
      </trkpt>
      <trkpt lat="45.86778" lon="4.80453">
        <ele>416.391</ele>
        <time>2015-06-14T08:36:06Z</time>
      </trkpt>
      <trkpt lat="45.86778" lon="4.80453">
        <ele>416.454</ele>
        <time>2015-06-14T08:36:08Z</time>
      </trkpt>
      <trkpt lat="45.86775" lon="4.80447">
        <ele>417.967</ele>
        <time>2015-06-14T08:36:12Z</time>
      </trkpt>
      <trkpt lat="45.86773" lon="4.80445">
        <ele>418.308</ele>
        <time>2015-06-14T08:36:14Z</time>
      </trkpt>
      <trkpt lat="45.8677" lon="4.80438">
        <ele>419.16</ele>
        <time>2015-06-14T08:36:18Z</time>
      </trkpt>
      <trkpt lat="45.86767" lon="4.80432">
        <ele>422.784</ele>
        <time>2015-06-14T08:36:23Z</time>
      </trkpt>
      <trkpt lat="45.86752" lon="4.80421">
        <ele>425.086</ele>
        <time>2015-06-14T08:36:32Z</time>
      </trkpt>
      <trkpt lat="45.86738" lon="4.80406">
        <ele>426.928</ele>
        <time>2015-06-14T08:36:40Z</time>
      </trkpt>
      <trkpt lat="45.86736" lon="4.80402">
        <ele>427.34</ele>
        <time>2015-06-14T08:36:42Z</time>
      </trkpt>
      <trkpt lat="45.86734" lon="4.80395">
        <ele>429.345</ele>
        <time>2015-06-14T08:36:47Z</time>
      </trkpt>
      <trkpt lat="45.86729" lon="4.80378">
        <ele>433.566</ele>
        <time>2015-06-14T08:36:56Z</time>
      </trkpt>
      <trkpt lat="45.86724" lon="4.80372">
        <ele>434.597</ele>
        <time>2015-06-14T08:37:11Z</time>
      </trkpt>
      <trkpt lat="45.86724" lon="4.80376">
        <ele>435.031</ele>
        <time>2015-06-14T08:37:14Z</time>
      </trkpt>
      <trkpt lat="45.8673" lon="4.80397">
        <ele>433.598</ele>
        <time>2015-06-14T08:37:21Z</time>
      </trkpt>
      <trkpt lat="45.86746" lon="4.80418">
        <ele>431.047</ele>
        <time>2015-06-14T08:37:30Z</time>
      </trkpt>
      <trkpt lat="45.86755" lon="4.80427">
        <ele>429.211</ele>
        <time>2015-06-14T08:37:41Z</time>
      </trkpt>
      <trkpt lat="45.86756" lon="4.80429">
        <ele>429.191</ele>
        <time>2015-06-14T08:37:46Z</time>
      </trkpt>
      <trkpt lat="45.86756" lon="4.80432">
        <ele>428.233</ele>
        <time>2015-06-14T08:37:48Z</time>
      </trkpt>
      <trkpt lat="45.86753" lon="4.80439">
        <ele>426.641</ele>
        <time>2015-06-14T08:37:52Z</time>
      </trkpt>
      <trkpt lat="45.86732" lon="4.80429">
        <ele>424.042</ele>
        <time>2015-06-14T08:38:00Z</time>
      </trkpt>
      <trkpt lat="45.8672" lon="4.80412">
        <ele>424.042</ele>
        <time>2015-06-14T08:38:06Z</time>
      </trkpt>
      <trkpt lat="45.86718" lon="4.80426">
        <ele>422.97</ele>
        <time>2015-06-14T08:38:10Z</time>
      </trkpt>
      <trkpt lat="45.86719" lon="4.80434">
        <ele>421.909</ele>
        <time>2015-06-14T08:38:12Z</time>
      </trkpt>
      <trkpt lat="45.86729" lon="4.80455">
        <ele>420.064</ele>
        <time>2015-06-14T08:38:16Z</time>
      </trkpt>
      <trkpt lat="45.86746" lon="4.80498">
        <ele>417.25</ele>
        <time>2015-06-14T08:38:22Z</time>
      </trkpt>
      <trkpt lat="45.86781" lon="4.80554">
        <ele>411.221</ele>
        <time>2015-06-14T08:38:30Z</time>
      </trkpt>
      <trkpt lat="45.86792" lon="4.80566">
        <ele>410.6</ele>
        <time>2015-06-14T08:38:33Z</time>
      </trkpt>
      <trkpt lat="45.86806" lon="4.80594">
        <ele>409.337</ele>
        <time>2015-06-14T08:38:39Z</time>
      </trkpt>
      <trkpt lat="45.86809" lon="4.80626">
        <ele>406.958</ele>
        <time>2015-06-14T08:38:45Z</time>
      </trkpt>
      <trkpt lat="45.86809" lon="4.80683">
        <ele>404.921</ele>
        <time>2015-06-14T08:38:53Z</time>
      </trkpt>
      <trkpt lat="45.86811" lon="4.80723">
        <ele>402.025</ele>
        <time>2015-06-14T08:39:01Z</time>
      </trkpt>
      <trkpt lat="45.8681" lon="4.80726">
        <ele>401.327</ele>
        <time>2015-06-14T08:39:03Z</time>
      </trkpt>
      <trkpt lat="45.86807" lon="4.80734">
        <ele>400.424</ele>
        <time>2015-06-14T08:39:06Z</time>
      </trkpt>
      <trkpt lat="45.86795" lon="4.80742">
        <ele>395.464</ele>
        <time>2015-06-14T08:39:13Z</time>
      </trkpt>
      <trkpt lat="45.8679" lon="4.80744">
        <ele>393.948</ele>
        <time>2015-06-14T08:39:17Z</time>
      </trkpt>
      <trkpt lat="45.86782" lon="4.80744">
        <ele>391.388</ele>
        <time>2015-06-14T08:39:21Z</time>
      </trkpt>
      <trkpt lat="45.86778" lon="4.80745">
        <ele>389.845</ele>
        <time>2015-06-14T08:39:24Z</time>
      </trkpt>
      <trkpt lat="45.86773" lon="4.80745">
        <ele>385.017</ele>
        <time>2015-06-14T08:39:29Z</time>
      </trkpt>
      <trkpt lat="45.86767" lon="4.80739">
        <ele>382.331</ele>
        <time>2015-06-14T08:39:35Z</time>
      </trkpt>
      <trkpt lat="45.86757" lon="4.80733">
        <ele>379.526</ele>
        <time>2015-06-14T08:39:47Z</time>
      </trkpt>
      <trkpt lat="45.86755" lon="4.80733">
        <ele>378.931</ele>
        <time>2015-06-14T08:39:52Z</time>
      </trkpt>
      <trkpt lat="45.86742" lon="4.80725">
        <ele>373.865</ele>
        <time>2015-06-14T08:40:02Z</time>
      </trkpt>
      <trkpt lat="45.86737" lon="4.80718">
        <ele>373.005</ele>
        <time>2015-06-14T08:40:06Z</time>
      </trkpt>
      <trkpt lat="45.86734" lon="4.80718">
        <ele>372.589</ele>
        <time>2015-06-14T08:40:08Z</time>
      </trkpt>
      <trkpt lat="45.86729" lon="4.80719">
        <ele>371.856</ele>
        <time>2015-06-14T08:40:12Z</time>
      </trkpt>
      <trkpt lat="45.86727" lon="4.80728">
        <ele>370.446</ele>
        <time>2015-06-14T08:40:17Z</time>
      </trkpt>
      <trkpt lat="45.86711" lon="4.80756">
        <ele>365.381</ele>
        <time>2015-06-14T08:40:27Z</time>
      </trkpt>
      <trkpt lat="45.8671" lon="4.8076">
        <ele>364.627</ele>
        <time>2015-06-14T08:40:28Z</time>
      </trkpt>
      <trkpt lat="45.86704" lon="4.80774">
        <ele>361.787</ele>
        <time>2015-06-14T08:40:33Z</time>
      </trkpt>
      <trkpt lat="45.86707" lon="4.8079">
        <ele>359.036</ele>
        <time>2015-06-14T08:40:37Z</time>
      </trkpt>
      <trkpt lat="45.86708" lon="4.8081">
        <ele>355.749</ele>
        <time>2015-06-14T08:40:42Z</time>
      </trkpt>
      <trkpt lat="45.86714" lon="4.80827">
        <ele>353.315</ele>
        <time>2015-06-14T08:40:45Z</time>
      </trkpt>
      <trkpt lat="45.8672" lon="4.80873">
        <ele>345.52</ele>
        <time>2015-06-14T08:40:55Z</time>
      </trkpt>
      <trkpt lat="45.8672" lon="4.8088">
        <ele>344.992</ele>
        <time>2015-06-14T08:40:57Z</time>
      </trkpt>
      <trkpt lat="45.86721" lon="4.80895">
        <ele>341.984</ele>
        <time>2015-06-14T08:41:02Z</time>
      </trkpt>
      <trkpt lat="45.86721" lon="4.80904">
        <ele>338.759</ele>
        <time>2015-06-14T08:41:06Z</time>
      </trkpt>
      <trkpt lat="45.86728" lon="4.80951">
        <ele>328.525</ele>
        <time>2015-06-14T08:41:19Z</time>
      </trkpt>
      <trkpt lat="45.86736" lon="4.80966">
        <ele>325.76</ele>
        <time>2015-06-14T08:41:28Z</time>
      </trkpt>
      <trkpt lat="45.86736" lon="4.80968">
        <ele>325.927</ele>
        <time>2015-06-14T08:43:05Z</time>
      </trkpt>
      <trkpt lat="45.86736" lon="4.80968">
        <ele>325.803</ele>
        <time>2015-06-14T08:43:11Z</time>
      </trkpt>
      <trkpt lat="45.86738" lon="4.80996">
        <ele>321.934</ele>
        <time>2015-06-14T08:43:18Z</time>
      </trkpt>
      <trkpt lat="45.86735" lon="4.81011">
        <ele>319.763</ele>
        <time>2015-06-14T08:43:21Z</time>
      </trkpt>
      <trkpt lat="45.86706" lon="4.81031">
        <ele>312.573</ele>
        <time>2015-06-14T08:43:29Z</time>
      </trkpt>
      <trkpt lat="45.86699" lon="4.81025">
        <ele>311.806</ele>
        <time>2015-06-14T08:43:33Z</time>
      </trkpt>
      <trkpt lat="45.86689" lon="4.8099">
        <ele>313.963</ele>
        <time>2015-06-14T08:43:47Z</time>
      </trkpt>
      <trkpt lat="45.8668" lon="4.80962">
        <ele>322.444</ele>
        <time>2015-06-14T08:44:03Z</time>
      </trkpt>
      <trkpt lat="45.86671" lon="4.80949">
        <ele>324.011</ele>
        <time>2015-06-14T08:44:13Z</time>
      </trkpt>
      <trkpt lat="45.8665" lon="4.80937">
        <ele>324.064</ele>
        <time>2015-06-14T08:44:27Z</time>
      </trkpt>
      <trkpt lat="45.86638" lon="4.80937">
        <ele>325.855</ele>
        <time>2015-06-14T08:44:34Z</time>
      </trkpt>
      <trkpt lat="45.86612" lon="4.80939">
        <ele>327.432</ele>
        <time>2015-06-14T08:44:49Z</time>
      </trkpt>
      <trkpt lat="45.86603" lon="4.80941">
        <ele>328.961</ele>
        <time>2015-06-14T08:44:54Z</time>
      </trkpt>
      <trkpt lat="45.8658" lon="4.80945">
        <ele>334.487</ele>
        <time>2015-06-14T08:45:07Z</time>
      </trkpt>
      <trkpt lat="45.8655" lon="4.80934">
        <ele>335.752</ele>
        <time>2015-06-14T08:45:22Z</time>
      </trkpt>
      <trkpt lat="45.86537" lon="4.80928">
        <ele>335.782</ele>
        <time>2015-06-14T08:45:30Z</time>
      </trkpt>
      <trkpt lat="45.86508" lon="4.80909">
        <ele>338.963</ele>
        <time>2015-06-14T08:45:45Z</time>
      </trkpt>
      <trkpt lat="45.86481" lon="4.80889">
        <ele>337.062</ele>
        <time>2015-06-14T08:45:58Z</time>
      </trkpt>
      <trkpt lat="45.86458" lon="4.80865">
        <ele>338.201</ele>
        <time>2015-06-14T08:46:13Z</time>
      </trkpt>
      <trkpt lat="45.86449" lon="4.8085">
        <ele>338.568</ele>
        <time>2015-06-14T08:46:20Z</time>
      </trkpt>
      <trkpt lat="45.86436" lon="4.80835">
        <ele>347.301</ele>
        <time>2015-06-14T08:46:30Z</time>
      </trkpt>
      <trkpt lat="45.86419" lon="4.80813">
        <ele>350.629</ele>
        <time>2015-06-14T08:46:43Z</time>
      </trkpt>
      <trkpt lat="45.86409" lon="4.808">
        <ele>351.816</ele>
        <time>2015-06-14T08:46:51Z</time>
      </trkpt>
      <trkpt lat="45.86403" lon="4.80793">
        <ele>350.999</ele>
        <time>2015-06-14T08:46:56Z</time>
      </trkpt>
      <trkpt lat="45.864" lon="4.80785">
        <ele>352.745</ele>
        <time>2015-06-14T08:47:00Z</time>
      </trkpt>
      <trkpt lat="45.86399" lon="4.8077">
        <ele>353.931</ele>
        <time>2015-06-14T08:47:06Z</time>
      </trkpt>
      <trkpt lat="45.86399" lon="4.80762">
        <ele>354.74</ele>
        <time>2015-06-14T08:47:09Z</time>
      </trkpt>
      <trkpt lat="45.864" lon="4.80758">
        <ele>355.259</ele>
        <time>2015-06-14T08:47:11Z</time>
      </trkpt>
      <trkpt lat="45.86402" lon="4.80724">
        <ele>355.407</ele>
        <time>2015-06-14T08:47:24Z</time>
      </trkpt>
      <trkpt lat="45.86399" lon="4.80713">
        <ele>356.321</ele>
        <time>2015-06-14T08:47:28Z</time>
      </trkpt>
      <trkpt lat="45.86398" lon="4.80685">
        <ele>358.738</ele>
        <time>2015-06-14T08:47:39Z</time>
      </trkpt>
      <trkpt lat="45.86398" lon="4.80679">
        <ele>358.626</ele>
        <time>2015-06-14T08:47:41Z</time>
      </trkpt>
      <trkpt lat="45.86384" lon="4.80632">
        <ele>362.997</ele>
        <time>2015-06-14T08:48:00Z</time>
      </trkpt>
      <trkpt lat="45.86377" lon="4.80623">
        <ele>363.67</ele>
        <time>2015-06-14T08:48:05Z</time>
      </trkpt>
      <trkpt lat="45.86365" lon="4.80599">
        <ele>365.933</ele>
        <time>2015-06-14T08:48:18Z</time>
      </trkpt>
      <trkpt lat="45.86343" lon="4.80575">
        <ele>359.796</ele>
        <time>2015-06-14T08:48:33Z</time>
      </trkpt>
      <trkpt lat="45.86319" lon="4.80548">
        <ele>357.193</ele>
        <time>2015-06-14T08:48:49Z</time>
      </trkpt>
      <trkpt lat="45.86305" lon="4.80523">
        <ele>357.296</ele>
        <time>2015-06-14T08:48:59Z</time>
      </trkpt>
      <trkpt lat="45.86306" lon="4.80515">
        <ele>358.043</ele>
        <time>2015-06-14T08:49:03Z</time>
      </trkpt>
      <trkpt lat="45.86323" lon="4.80494">
        <ele>362.694</ele>
        <time>2015-06-14T08:49:21Z</time>
      </trkpt>
      <trkpt lat="45.86326" lon="4.8049">
        <ele>363.298</ele>
        <time>2015-06-14T08:49:24Z</time>
      </trkpt>
      <trkpt lat="45.86328" lon="4.80477">
        <ele>363.905</ele>
        <time>2015-06-14T08:49:30Z</time>
      </trkpt>
      <trkpt lat="45.86335" lon="4.80475">
        <ele>365.591</ele>
        <time>2015-06-14T08:49:41Z</time>
      </trkpt>
      <trkpt lat="45.86337" lon="4.80464">
        <ele>367.759</ele>
        <time>2015-06-14T08:49:55Z</time>
      </trkpt>
      <trkpt lat="45.86337" lon="4.80454">
        <ele>370.053</ele>
        <time>2015-06-14T08:50:09Z</time>
      </trkpt>
      <trkpt lat="45.86348" lon="4.80452">
        <ele>371.439</ele>
        <time>2015-06-14T08:50:26Z</time>
      </trkpt>
      <trkpt lat="45.86353" lon="4.80442">
        <ele>377.432</ele>
        <time>2015-06-14T08:50:44Z</time>
      </trkpt>
      <trkpt lat="45.86354" lon="4.80433">
        <ele>379.739</ele>
        <time>2015-06-14T08:50:59Z</time>
      </trkpt>
      <trkpt lat="45.86354" lon="4.80433">
        <ele>379.98</ele>
        <time>2015-06-14T08:51:26Z</time>
      </trkpt>
      <trkpt lat="45.86354" lon="4.80428">
        <ele>379.674</ele>
        <time>2015-06-14T08:51:29Z</time>
      </trkpt>
      <trkpt lat="45.86347" lon="4.80411">
        <ele>382.881</ele>
        <time>2015-06-14T08:51:41Z</time>
      </trkpt>
      <trkpt lat="45.86341" lon="4.80392">
        <ele>388.137</ele>
        <time>2015-06-14T08:51:54Z</time>
      </trkpt>
      <trkpt lat="45.86333" lon="4.8037">
        <ele>394.902</ele>
        <time>2015-06-14T08:52:09Z</time>
      </trkpt>
      <trkpt lat="45.86333" lon="4.80367">
        <ele>395.342</ele>
        <time>2015-06-14T08:52:11Z</time>
      </trkpt>
      <trkpt lat="45.86333" lon="4.80364">
        <ele>396.357</ele>
        <time>2015-06-14T08:52:14Z</time>
      </trkpt>
      <trkpt lat="45.86328" lon="4.80349">
        <ele>397.134</ele>
        <time>2015-06-14T08:52:22Z</time>
      </trkpt>
      <trkpt lat="45.86326" lon="4.80344">
        <ele>397.378</ele>
        <time>2015-06-14T08:52:24Z</time>
      </trkpt>
      <trkpt lat="45.86323" lon="4.8033">
        <ele>399.609</ele>
        <time>2015-06-14T08:52:33Z</time>
      </trkpt>
      <trkpt lat="45.86317" lon="4.80318">
        <ele>400.396</ele>
        <time>2015-06-14T08:52:41Z</time>
      </trkpt>
      <trkpt lat="45.86314" lon="4.80313">
        <ele>401.088</ele>
        <time>2015-06-14T08:52:44Z</time>
      </trkpt>
      <trkpt lat="45.86305" lon="4.8029">
        <ele>400.92</ele>
        <time>2015-06-14T08:52:57Z</time>
      </trkpt>
      <trkpt lat="45.86304" lon="4.80289">
        <ele>401.173</ele>
        <time>2015-06-14T08:52:58Z</time>
      </trkpt>
      <trkpt lat="45.86302" lon="4.80284">
        <ele>401.67</ele>
        <time>2015-06-14T08:53:01Z</time>
      </trkpt>
      <trkpt lat="45.86301" lon="4.80272">
        <ele>402.384</ele>
        <time>2015-06-14T08:53:08Z</time>
      </trkpt>
      <trkpt lat="45.863" lon="4.80269">
        <ele>402.808</ele>
        <time>2015-06-14T08:53:10Z</time>
      </trkpt>
      <trkpt lat="45.86298" lon="4.80259">
        <ele>402.916</ele>
        <time>2015-06-14T08:53:16Z</time>
      </trkpt>
      <trkpt lat="45.86299" lon="4.80256">
        <ele>402.865</ele>
        <time>2015-06-14T08:53:18Z</time>
      </trkpt>
      <trkpt lat="45.86298" lon="4.80248">
        <ele>403.876</ele>
        <time>2015-06-14T08:53:22Z</time>
      </trkpt>
      <trkpt lat="45.86296" lon="4.80245">
        <ele>404.546</ele>
        <time>2015-06-14T08:53:24Z</time>
      </trkpt>
      <trkpt lat="45.86293" lon="4.80237">
        <ele>406.147</ele>
        <time>2015-06-14T08:53:28Z</time>
      </trkpt>
      <trkpt lat="45.86292" lon="4.80228">
        <ele>406.805</ele>
        <time>2015-06-14T08:53:33Z</time>
      </trkpt>
      <trkpt lat="45.86281" lon="4.80206">
        <ele>410.005</ele>
        <time>2015-06-14T08:53:47Z</time>
      </trkpt>
      <trkpt lat="45.86278" lon="4.80202">
        <ele>410.154</ele>
        <time>2015-06-14T08:53:50Z</time>
      </trkpt>
      <trkpt lat="45.86274" lon="4.80193">
        <ele>411.994</ele>
        <time>2015-06-14T08:53:56Z</time>
      </trkpt>
      <trkpt lat="45.86271" lon="4.80182">
        <ele>416.366</ele>
        <time>2015-06-14T08:54:04Z</time>
      </trkpt>
      <trkpt lat="45.86271" lon="4.80179">
        <ele>417.811</ele>
        <time>2015-06-14T08:54:06Z</time>
      </trkpt>
      <trkpt lat="45.86271" lon="4.80162">
        <ele>422.588</ele>
        <time>2015-06-14T08:54:15Z</time>
      </trkpt>
      <trkpt lat="45.8627" lon="4.80151">
        <ele>422.811</ele>
        <time>2015-06-14T08:54:20Z</time>
      </trkpt>
      <trkpt lat="45.86268" lon="4.80147">
        <ele>423.511</ele>
        <time>2015-06-14T08:54:22Z</time>
      </trkpt>
      <trkpt lat="45.86265" lon="4.80131">
        <ele>425.648</ele>
        <time>2015-06-14T08:54:32Z</time>
      </trkpt>
      <trkpt lat="45.86264" lon="4.80128">
        <ele>426.656</ele>
        <time>2015-06-14T08:54:34Z</time>
      </trkpt>
      <trkpt lat="45.86259" lon="4.80115">
        <ele>427.095</ele>
        <time>2015-06-14T08:54:40Z</time>
      </trkpt>
      <trkpt lat="45.86248" lon="4.80089">
        <ele>429.372</ele>
        <time>2015-06-14T08:54:55Z</time>
      </trkpt>
      <trkpt lat="45.86248" lon="4.80076">
        <ele>430.852</ele>
        <time>2015-06-14T08:55:03Z</time>
      </trkpt>
      <trkpt lat="45.86249" lon="4.80073">
        <ele>431.471</ele>
        <time>2015-06-14T08:55:05Z</time>
      </trkpt>
      <trkpt lat="45.86244" lon="4.80063">
        <ele>432.074</ele>
        <time>2015-06-14T08:55:11Z</time>
      </trkpt>
      <trkpt lat="45.86241" lon="4.80037">
        <ele>433.528</ele>
        <time>2015-06-14T08:55:27Z</time>
      </trkpt>
      <trkpt lat="45.8624" lon="4.80012">
        <ele>436.245</ele>
        <time>2015-06-14T08:55:41Z</time>
      </trkpt>
      <trkpt lat="45.8624" lon="4.80006">
        <ele>434.875</ele>
        <time>2015-06-14T08:55:57Z</time>
      </trkpt>
      <trkpt lat="45.86238" lon="4.80003">
        <ele>434.152</ele>
        <time>2015-06-14T08:56:04Z</time>
      </trkpt>
      <trkpt lat="45.8623" lon="4.8">
        <ele>432.951</ele>
        <time>2015-06-14T08:56:12Z</time>
      </trkpt>
      <trkpt lat="45.86224" lon="4.79999">
        <ele>431.969</ele>
        <time>2015-06-14T08:56:17Z</time>
      </trkpt>
      <trkpt lat="45.86215" lon="4.79996">
        <ele>431.195</ele>
        <time>2015-06-14T08:56:24Z</time>
      </trkpt>
      <trkpt lat="45.86212" lon="4.79993">
        <ele>431.192</ele>
        <time>2015-06-14T08:56:27Z</time>
      </trkpt>
      <trkpt lat="45.86198" lon="4.7999">
        <ele>431.144</ele>
        <time>2015-06-14T08:56:37Z</time>
      </trkpt>
      <trkpt lat="45.8619" lon="4.79989">
        <ele>432.253</ele>
        <time>2015-06-14T08:56:43Z</time>
      </trkpt>
      <trkpt lat="45.86182" lon="4.79986">
        <ele>432.448</ele>
        <time>2015-06-14T08:56:49Z</time>
      </trkpt>
      <trkpt lat="45.86186" lon="4.79978">
        <ele>433.482</ele>
        <time>2015-06-14T08:56:56Z</time>
      </trkpt>
      <trkpt lat="45.86197" lon="4.79975">
        <ele>434.363</ele>
        <time>2015-06-14T08:57:03Z</time>
      </trkpt>
      <trkpt lat="45.86204" lon="4.79973">
        <ele>434.847</ele>
        <time>2015-06-14T08:57:07Z</time>
      </trkpt>
      <trkpt lat="45.86206" lon="4.79971">
        <ele>434.948</ele>
        <time>2015-06-14T08:57:09Z</time>
      </trkpt>
      <trkpt lat="45.86209" lon="4.7997">
        <ele>435.471</ele>
        <time>2015-06-14T08:57:11Z</time>
      </trkpt>
      <trkpt lat="45.86215" lon="4.7993">
        <ele>437.839</ele>
        <time>2015-06-14T08:57:29Z</time>
      </trkpt>
      <trkpt lat="45.86216" lon="4.79926">
        <ele>438.049</ele>
        <time>2015-06-14T08:57:31Z</time>
      </trkpt>
      <trkpt lat="45.86214" lon="4.79916">
        <ele>438.402</ele>
        <time>2015-06-14T08:57:36Z</time>
      </trkpt>
      <trkpt lat="45.86183" lon="4.79903">
        <ele>442.094</ele>
        <time>2015-06-14T08:57:55Z</time>
      </trkpt>
      <trkpt lat="45.86167" lon="4.799">
        <ele>445.068</ele>
        <time>2015-06-14T08:58:04Z</time>
      </trkpt>
      <trkpt lat="45.86128" lon="4.79869">
        <ele>446.262</ele>
        <time>2015-06-14T08:58:26Z</time>
      </trkpt>
      <trkpt lat="45.86126" lon="4.79866">
        <ele>446.379</ele>
        <time>2015-06-14T08:58:28Z</time>
      </trkpt>
      <trkpt lat="45.86124" lon="4.79832">
        <ele>449.969</ele>
        <time>2015-06-14T08:58:45Z</time>
      </trkpt>
      <trkpt lat="45.86124" lon="4.79825">
        <ele>450.626</ele>
        <time>2015-06-14T08:58:49Z</time>
      </trkpt>
      <trkpt lat="45.86124" lon="4.79814">
        <ele>449.403</ele>
        <time>2015-06-14T08:58:54Z</time>
      </trkpt>
      <trkpt lat="45.86126" lon="4.79797">
        <ele>452.479</ele>
        <time>2015-06-14T08:59:04Z</time>
      </trkpt>
      <trkpt lat="45.86127" lon="4.79794">
        <ele>453.501</ele>
        <time>2015-06-14T08:59:06Z</time>
      </trkpt>
      <trkpt lat="45.86125" lon="4.79778">
        <ele>454.881</ele>
        <time>2015-06-14T08:59:14Z</time>
      </trkpt>
      <trkpt lat="45.86123" lon="4.79775">
        <ele>455.388</ele>
        <time>2015-06-14T08:59:17Z</time>
      </trkpt>
      <trkpt lat="45.86122" lon="4.79772">
        <ele>455.509</ele>
        <time>2015-06-14T08:59:19Z</time>
      </trkpt>
      <trkpt lat="45.86121" lon="4.79767">
        <ele>456.217</ele>
        <time>2015-06-14T08:59:22Z</time>
      </trkpt>
      <trkpt lat="45.8612" lon="4.79764">
        <ele>456.408</ele>
        <time>2015-06-14T08:59:24Z</time>
      </trkpt>
      <trkpt lat="45.86111" lon="4.79738">
        <ele>459.699</ele>
        <time>2015-06-14T08:59:39Z</time>
      </trkpt>
      <trkpt lat="45.861" lon="4.79704">
        <ele>461.936</ele>
        <time>2015-06-14T08:59:56Z</time>
      </trkpt>
      <trkpt lat="45.86088" lon="4.79677">
        <ele>466.414</ele>
        <time>2015-06-14T09:00:13Z</time>
      </trkpt>
      <trkpt lat="45.86088" lon="4.79657">
        <ele>468.817</ele>
        <time>2015-06-14T09:00:24Z</time>
      </trkpt>
      <trkpt lat="45.86072" lon="4.7962">
        <ele>469.658</ele>
        <time>2015-06-14T09:00:40Z</time>
      </trkpt>
      <trkpt lat="45.86071" lon="4.79615">
        <ele>469.434</ele>
        <time>2015-06-14T09:00:42Z</time>
      </trkpt>
      <trkpt lat="45.86067" lon="4.79608">
        <ele>470.624</ele>
        <time>2015-06-14T09:00:48Z</time>
      </trkpt>
      <trkpt lat="45.86051" lon="4.79569">
        <ele>475.02</ele>
        <time>2015-06-14T09:01:06Z</time>
      </trkpt>
      <trkpt lat="45.86024" lon="4.79515">
        <ele>479.347</ele>
        <time>2015-06-14T09:01:29Z</time>
      </trkpt>
      <trkpt lat="45.85996" lon="4.79473">
        <ele>482.487</ele>
        <time>2015-06-14T09:01:49Z</time>
      </trkpt>
      <trkpt lat="45.85987" lon="4.79462">
        <ele>483.461</ele>
        <time>2015-06-14T09:01:55Z</time>
      </trkpt>
      <trkpt lat="45.85974" lon="4.79443">
        <ele>484.262</ele>
        <time>2015-06-14T09:02:05Z</time>
      </trkpt>
      <trkpt lat="45.8597" lon="4.79438">
        <ele>484.699</ele>
        <time>2015-06-14T09:02:08Z</time>
      </trkpt>
      <trkpt lat="45.85948" lon="4.79396">
        <ele>486.521</ele>
        <time>2015-06-14T09:02:27Z</time>
      </trkpt>
      <trkpt lat="45.85932" lon="4.7938">
        <ele>487.073</ele>
        <time>2015-06-14T09:02:37Z</time>
      </trkpt>
      <trkpt lat="45.85913" lon="4.79376">
        <ele>487.689</ele>
        <time>2015-06-14T09:02:47Z</time>
      </trkpt>
      <trkpt lat="45.85909" lon="4.79378">
        <ele>487.837</ele>
        <time>2015-06-14T09:02:49Z</time>
      </trkpt>
      <trkpt lat="45.859" lon="4.7938">
        <ele>488.456</ele>
        <time>2015-06-14T09:02:56Z</time>
      </trkpt>
      <trkpt lat="45.859" lon="4.79382">
        <ele>487.691</ele>
        <time>2015-06-14T09:03:00Z</time>
      </trkpt>
      <trkpt lat="45.85919" lon="4.79375">
        <ele>486.634</ele>
        <time>2015-06-14T09:03:07Z</time>
      </trkpt>
      <trkpt lat="45.85941" lon="4.79388">
        <ele>484.971</ele>
        <time>2015-06-14T09:03:12Z</time>
      </trkpt>
      <trkpt lat="45.85954" lon="4.79386">
        <ele>485.789</ele>
        <time>2015-06-14T09:03:19Z</time>
      </trkpt>
      <trkpt lat="45.85951" lon="4.79368">
        <ele>487.588</ele>
        <time>2015-06-14T09:03:27Z</time>
      </trkpt>
      <trkpt lat="45.85934" lon="4.7933">
        <ele>492.84</ele>
        <time>2015-06-14T09:03:46Z</time>
      </trkpt>
      <trkpt lat="45.85924" lon="4.79292">
        <ele>497.111</ele>
        <time>2015-06-14T09:04:03Z</time>
      </trkpt>
      <trkpt lat="45.85909" lon="4.79259">
        <ele>499.728</ele>
        <time>2015-06-14T09:04:16Z</time>
      </trkpt>
      <trkpt lat="45.85892" lon="4.79233">
        <ele>501.91</ele>
        <time>2015-06-14T09:04:31Z</time>
      </trkpt>
      <trkpt lat="45.85867" lon="4.79193">
        <ele>506.188</ele>
        <time>2015-06-14T09:04:51Z</time>
      </trkpt>
      <trkpt lat="45.85856" lon="4.79148">
        <ele>509.918</ele>
        <time>2015-06-14T09:05:09Z</time>
      </trkpt>
      <trkpt lat="45.85843" lon="4.79098">
        <ele>512.437</ele>
        <time>2015-06-14T09:05:28Z</time>
      </trkpt>
      <trkpt lat="45.85826" lon="4.79053">
        <ele>514.995</ele>
        <time>2015-06-14T09:05:47Z</time>
      </trkpt>
      <trkpt lat="45.85814" lon="4.79008">
        <ele>517.562</ele>
        <time>2015-06-14T09:06:04Z</time>
      </trkpt>
      <trkpt lat="45.85809" lon="4.78986">
        <ele>519.302</ele>
        <time>2015-06-14T09:06:12Z</time>
      </trkpt>
      <trkpt lat="45.85795" lon="4.7893">
        <ele>523.426</ele>
        <time>2015-06-14T09:06:34Z</time>
      </trkpt>
      <trkpt lat="45.85783" lon="4.78886">
        <ele>526.237</ele>
        <time>2015-06-14T09:06:56Z</time>
      </trkpt>
      <trkpt lat="45.85783" lon="4.78885">
        <ele>526.293</ele>
        <time>2015-06-14T09:07:15Z</time>
      </trkpt>
      <trkpt lat="45.85783" lon="4.78884">
        <ele>526.668</ele>
        <time>2015-06-14T09:08:06Z</time>
      </trkpt>
      <trkpt lat="45.85781" lon="4.7888">
        <ele>525.809</ele>
        <time>2015-06-14T09:08:24Z</time>
      </trkpt>
      <trkpt lat="45.8578" lon="4.7888">
        <ele>527.284</ele>
        <time>2015-06-14T09:14:19Z</time>
      </trkpt>
      <trkpt lat="45.8578" lon="4.78879">
        <ele>527.492</ele>
        <time>2015-06-14T09:14:27Z</time>
      </trkpt>
      <trkpt lat="45.85767" lon="4.78858">
        <ele>529.148</ele>
        <time>2015-06-14T09:14:40Z</time>
      </trkpt>
      <trkpt lat="45.85736" lon="4.78816">
        <ele>530.433</ele>
        <time>2015-06-14T09:14:58Z</time>
      </trkpt>
      <trkpt lat="45.85698" lon="4.78772">
        <ele>535.683</ele>
        <time>2015-06-14T09:15:16Z</time>
      </trkpt>
      <trkpt lat="45.85656" lon="4.78718">
        <ele>540.536</ele>
        <time>2015-06-14T09:15:37Z</time>
      </trkpt>
      <trkpt lat="45.85622" lon="4.78677">
        <ele>542.359</ele>
        <time>2015-06-14T09:15:53Z</time>
      </trkpt>
      <trkpt lat="45.85586" lon="4.78643">
        <ele>547.93</ele>
        <time>2015-06-14T09:16:08Z</time>
      </trkpt>
      <trkpt lat="45.85544" lon="4.78602">
        <ele>549.802</ele>
        <time>2015-06-14T09:16:24Z</time>
      </trkpt>
      <trkpt lat="45.85511" lon="4.78571">
        <ele>549.387</ele>
        <time>2015-06-14T09:16:36Z</time>
      </trkpt>
      <trkpt lat="45.85451" lon="4.785">
        <ele>550.429</ele>
        <time>2015-06-14T09:16:58Z</time>
      </trkpt>
      <trkpt lat="45.85395" lon="4.78436">
        <ele>552.373</ele>
        <time>2015-06-14T09:17:18Z</time>
      </trkpt>
      <trkpt lat="45.85349" lon="4.78369">
        <ele>550.588</ele>
        <time>2015-06-14T09:17:35Z</time>
      </trkpt>
      <trkpt lat="45.85326" lon="4.78326">
        <ele>550.474</ele>
        <time>2015-06-14T09:17:44Z</time>
      </trkpt>
      <trkpt lat="45.85328" lon="4.78334">
        <ele>550.584</ele>
        <time>2015-06-14T09:17:49Z</time>
      </trkpt>
      <trkpt lat="45.85332" lon="4.7834">
        <ele>550.484</ele>
        <time>2015-06-14T09:17:51Z</time>
      </trkpt>
      <trkpt lat="45.85325" lon="4.78348">
        <ele>550.53</ele>
        <time>2015-06-14T09:17:57Z</time>
      </trkpt>
      <trkpt lat="45.85308" lon="4.78319">
        <ele>549.829</ele>
        <time>2015-06-14T09:18:07Z</time>
      </trkpt>
      <trkpt lat="45.85277" lon="4.78268">
        <ele>551.269</ele>
        <time>2015-06-14T09:18:21Z</time>
      </trkpt>
      <trkpt lat="45.85248" lon="4.78223">
        <ele>551.48</ele>
        <time>2015-06-14T09:18:31Z</time>
      </trkpt>
      <trkpt lat="45.85217" lon="4.78172">
        <ele>552.735</ele>
        <time>2015-06-14T09:18:40Z</time>
      </trkpt>
      <trkpt lat="45.85187" lon="4.78121">
        <ele>553.871</ele>
        <time>2015-06-14T09:18:50Z</time>
      </trkpt>
      <trkpt lat="45.85162" lon="4.78067">
        <ele>557.118</ele>
        <time>2015-06-14T09:19:00Z</time>
      </trkpt>
      <trkpt lat="45.8516" lon="4.78061">
        <ele>557.389</ele>
        <time>2015-06-14T09:19:02Z</time>
      </trkpt>
      <trkpt lat="45.85141" lon="4.78016">
        <ele>567.565</ele>
        <time>2015-06-14T09:19:18Z</time>
      </trkpt>
      <trkpt lat="45.85138" lon="4.78005">
        <ele>568.395</ele>
        <time>2015-06-14T09:19:21Z</time>
      </trkpt>
      <trkpt lat="45.85127" lon="4.77944">
        <ele>576.487</ele>
        <time>2015-06-14T09:19:37Z</time>
      </trkpt>
      <trkpt lat="45.85123" lon="4.77938">
        <ele>578.903</ele>
        <time>2015-06-14T09:19:40Z</time>
      </trkpt>
      <trkpt lat="45.85112" lon="4.77913">
        <ele>582.293</ele>
        <time>2015-06-14T09:19:49Z</time>
      </trkpt>
      <trkpt lat="45.85097" lon="4.77894">
        <ele>582.682</ele>
        <time>2015-06-14T09:19:55Z</time>
      </trkpt>
      <trkpt lat="45.851" lon="4.77877">
        <ele>582.923</ele>
        <time>2015-06-14T09:19:59Z</time>
      </trkpt>
      <trkpt lat="45.85106" lon="4.7786">
        <ele>580.616</ele>
        <time>2015-06-14T09:20:02Z</time>
      </trkpt>
      <trkpt lat="45.85106" lon="4.77837">
        <ele>579.65</ele>
        <time>2015-06-14T09:20:05Z</time>
      </trkpt>
      <trkpt lat="45.85113" lon="4.77808">
        <ele>579.054</ele>
        <time>2015-06-14T09:20:09Z</time>
      </trkpt>
      <trkpt lat="45.85112" lon="4.77788">
        <ele>578.382</ele>
        <time>2015-06-14T09:20:12Z</time>
      </trkpt>
      <trkpt lat="45.85106" lon="4.77754">
        <ele>576.331</ele>
        <time>2015-06-14T09:20:16Z</time>
      </trkpt>
      <trkpt lat="45.85095" lon="4.77723">
        <ele>573.952</ele>
        <time>2015-06-14T09:20:20Z</time>
      </trkpt>
      <trkpt lat="45.85082" lon="4.77699">
        <ele>572.524</ele>
        <time>2015-06-14T09:20:23Z</time>
      </trkpt>
      <trkpt lat="45.85038" lon="4.77638">
        <ele>564.426</ele>
        <time>2015-06-14T09:20:32Z</time>
      </trkpt>
      <trkpt lat="45.84979" lon="4.77618">
        <ele>557.98</ele>
        <time>2015-06-14T09:20:44Z</time>
      </trkpt>
      <trkpt lat="45.84929" lon="4.77614">
        <ele>557.161</ele>
        <time>2015-06-14T09:20:54Z</time>
      </trkpt>
      <trkpt lat="45.84906" lon="4.77614">
        <ele>558.153</ele>
        <time>2015-06-14T09:20:59Z</time>
      </trkpt>
      <trkpt lat="45.84862" lon="4.77614">
        <ele>555.551</ele>
        <time>2015-06-14T09:21:07Z</time>
      </trkpt>
      <trkpt lat="45.84846" lon="4.77617">
        <ele>555.179</ele>
        <time>2015-06-14T09:21:09Z</time>
      </trkpt>
      <trkpt lat="45.84783" lon="4.77619">
        <ele>555.589</ele>
        <time>2015-06-14T09:21:20Z</time>
      </trkpt>
      <trkpt lat="45.84766" lon="4.77614">
        <ele>556.792</ele>
        <time>2015-06-14T09:21:23Z</time>
      </trkpt>
      <trkpt lat="45.84715" lon="4.7759">
        <ele>554.1</ele>
        <time>2015-06-14T09:21:34Z</time>
      </trkpt>
      <trkpt lat="45.84705" lon="4.77579">
        <ele>553.663</ele>
        <time>2015-06-14T09:21:39Z</time>
      </trkpt>
      <trkpt lat="45.84695" lon="4.7757">
        <ele>551.716</ele>
        <time>2015-06-14T09:21:46Z</time>
      </trkpt>
      <trkpt lat="45.84693" lon="4.77576">
        <ele>551.81</ele>
        <time>2015-06-14T09:21:51Z</time>
      </trkpt>
      <trkpt lat="45.84694" lon="4.7758">
        <ele>551.687</ele>
        <time>2015-06-14T09:21:53Z</time>
      </trkpt>
      <trkpt lat="45.8471" lon="4.77623">
        <ele>552.179</ele>
        <time>2015-06-14T09:22:11Z</time>
      </trkpt>
      <trkpt lat="45.84725" lon="4.77686">
        <ele>555.887</ele>
        <time>2015-06-14T09:22:31Z</time>
      </trkpt>
      <trkpt lat="45.84712" lon="4.77742">
        <ele>559.607</ele>
        <time>2015-06-14T09:22:48Z</time>
      </trkpt>
      <trkpt lat="45.84691" lon="4.77805">
        <ele>563.005</ele>
        <time>2015-06-14T09:23:08Z</time>
      </trkpt>
      <trkpt lat="45.84659" lon="4.77864">
        <ele>567.867</ele>
        <time>2015-06-14T09:23:29Z</time>
      </trkpt>
      <trkpt lat="45.84636" lon="4.77906">
        <ele>570.151</ele>
        <time>2015-06-14T09:23:46Z</time>
      </trkpt>
      <trkpt lat="45.84657" lon="4.77925">
        <ele>570.744</ele>
        <time>2015-06-14T09:23:57Z</time>
      </trkpt>
      <trkpt lat="45.84687" lon="4.77886">
        <ele>573.696</ele>
        <time>2015-06-14T09:24:13Z</time>
      </trkpt>
      <trkpt lat="45.84716" lon="4.77827">
        <ele>576.812</ele>
        <time>2015-06-14T09:24:34Z</time>
      </trkpt>
      <trkpt lat="45.84732" lon="4.7784">
        <ele>576.723</ele>
        <time>2015-06-14T09:24:43Z</time>
      </trkpt>
      <trkpt lat="45.84732" lon="4.77857">
        <ele>577.475</ele>
        <time>2015-06-14T09:24:48Z</time>
      </trkpt>
      <trkpt lat="45.84706" lon="4.77915">
        <ele>579.922</ele>
        <time>2015-06-14T09:25:07Z</time>
      </trkpt>
      <trkpt lat="45.8468" lon="4.77979">
        <ele>584.667</ele>
        <time>2015-06-14T09:25:28Z</time>
      </trkpt>
      <trkpt lat="45.84672" lon="4.78022">
        <ele>587.741</ele>
        <time>2015-06-14T09:25:40Z</time>
      </trkpt>
      <trkpt lat="45.84669" lon="4.78031">
        <ele>588.329</ele>
        <time>2015-06-14T09:25:42Z</time>
      </trkpt>
      <trkpt lat="45.84674" lon="4.78038">
        <ele>588.702</ele>
        <time>2015-06-14T09:25:46Z</time>
      </trkpt>
      <trkpt lat="45.84682" lon="4.78036">
        <ele>588.207</ele>
        <time>2015-06-14T09:25:59Z</time>
      </trkpt>
      <trkpt lat="45.84682" lon="4.78043">
        <ele>587.15</ele>
        <time>2015-06-14T09:26:02Z</time>
      </trkpt>
      <trkpt lat="45.84689" lon="4.7806">
        <ele>585.211</ele>
        <time>2015-06-14T09:26:09Z</time>
      </trkpt>
      <trkpt lat="45.84694" lon="4.78095">
        <ele>580.549</ele>
        <time>2015-06-14T09:26:22Z</time>
      </trkpt>
      <trkpt lat="45.84692" lon="4.78094">
        <ele>579.02</ele>
        <time>2015-06-14T09:26:39Z</time>
      </trkpt>
      <trkpt lat="45.84688" lon="4.78092">
        <ele>580.548</ele>
        <time>2015-06-14T09:26:55Z</time>
      </trkpt>
      <trkpt lat="45.84678" lon="4.7808">
        <ele>581.646</ele>
        <time>2015-06-14T09:27:16Z</time>
      </trkpt>
      <trkpt lat="45.84672" lon="4.78066">
        <ele>583.932</ele>
        <time>2015-06-14T09:27:35Z</time>
      </trkpt>
      <trkpt lat="45.8467" lon="4.78057">
        <ele>585.544</ele>
        <time>2015-06-14T09:27:45Z</time>
      </trkpt>
      <trkpt lat="45.84655" lon="4.7808">
        <ele>584.825</ele>
        <time>2015-06-14T09:27:56Z</time>
      </trkpt>
      <trkpt lat="45.84652" lon="4.7809">
        <ele>583.895</ele>
        <time>2015-06-14T09:27:58Z</time>
      </trkpt>
      <trkpt lat="45.84645" lon="4.78107">
        <ele>582.243</ele>
        <time>2015-06-14T09:28:01Z</time>
      </trkpt>
      <trkpt lat="45.8464" lon="4.78141">
        <ele>579.827</ele>
        <time>2015-06-14T09:28:05Z</time>
      </trkpt>
      <trkpt lat="45.84623" lon="4.78212">
        <ele>575.928</ele>
        <time>2015-06-14T09:28:15Z</time>
      </trkpt>
      <trkpt lat="45.84573" lon="4.78262">
        <ele>570.848</ele>
        <time>2015-06-14T09:28:24Z</time>
      </trkpt>
      <trkpt lat="45.84565" lon="4.78262">
        <ele>570.152</ele>
        <time>2015-06-14T09:28:25Z</time>
      </trkpt>
      <trkpt lat="45.84505" lon="4.7826">
        <ele>564.177</ele>
        <time>2015-06-14T09:28:32Z</time>
      </trkpt>
      <trkpt lat="45.84448" lon="4.78254">
        <ele>559.56</ele>
        <time>2015-06-14T09:28:38Z</time>
      </trkpt>
      <trkpt lat="45.8439" lon="4.78235">
        <ele>556.56</ele>
        <time>2015-06-14T09:28:44Z</time>
      </trkpt>
      <trkpt lat="45.84348" lon="4.78233">
        <ele>552.512</ele>
        <time>2015-06-14T09:28:48Z</time>
      </trkpt>
      <trkpt lat="45.84229" lon="4.78263">
        <ele>544.927</ele>
        <time>2015-06-14T09:29:00Z</time>
      </trkpt>
      <trkpt lat="45.84209" lon="4.78276">
        <ele>543.404</ele>
        <time>2015-06-14T09:29:05Z</time>
      </trkpt>
      <trkpt lat="45.84198" lon="4.78284">
        <ele>541.591</ele>
        <time>2015-06-14T09:29:10Z</time>
      </trkpt>
      <trkpt lat="45.8418" lon="4.7832">
        <ele>541.383</ele>
        <time>2015-06-14T09:29:20Z</time>
      </trkpt>
      <trkpt lat="45.84155" lon="4.7835">
        <ele>540.771</ele>
        <time>2015-06-14T09:29:31Z</time>
      </trkpt>
      <trkpt lat="45.84131" lon="4.78358">
        <ele>540.583</ele>
        <time>2015-06-14T09:29:39Z</time>
      </trkpt>
      <trkpt lat="45.84128" lon="4.78362">
        <ele>540.081</ele>
        <time>2015-06-14T09:29:44Z</time>
      </trkpt>
      <trkpt lat="45.84138" lon="4.78362">
        <ele>541.584</ele>
        <time>2015-06-14T09:29:52Z</time>
      </trkpt>
      <trkpt lat="45.8414" lon="4.78362">
        <ele>541.957</ele>
        <time>2015-06-14T09:29:54Z</time>
      </trkpt>
      <trkpt lat="45.84145" lon="4.78359">
        <ele>544.187</ele>
        <time>2015-06-14T09:29:58Z</time>
      </trkpt>
      <trkpt lat="45.8415" lon="4.78365">
        <ele>548.684</ele>
        <time>2015-06-14T09:30:08Z</time>
      </trkpt>
      <trkpt lat="45.8415" lon="4.78365">
        <ele>548.891</ele>
        <time>2015-06-14T09:30:09Z</time>
      </trkpt>
      <trkpt lat="45.84146" lon="4.7837">
        <ele>550.78</ele>
        <time>2015-06-14T09:30:14Z</time>
      </trkpt>
      <trkpt lat="45.84143" lon="4.78377">
        <ele>552.663</ele>
        <time>2015-06-14T09:30:18Z</time>
      </trkpt>
      <trkpt lat="45.84137" lon="4.78383">
        <ele>553.81</ele>
        <time>2015-06-14T09:30:25Z</time>
      </trkpt>
      <trkpt lat="45.84132" lon="4.78386">
        <ele>554.272</ele>
        <time>2015-06-14T09:30:28Z</time>
      </trkpt>
      <trkpt lat="45.8413" lon="4.7839">
        <ele>554.358</ele>
        <time>2015-06-14T09:30:30Z</time>
      </trkpt>
      <trkpt lat="45.84119" lon="4.78402">
        <ele>555.13</ele>
        <time>2015-06-14T09:30:41Z</time>
      </trkpt>
      <trkpt lat="45.84118" lon="4.78404">
        <ele>555.207</ele>
        <time>2015-06-14T09:30:42Z</time>
      </trkpt>
      <trkpt lat="45.84117" lon="4.78406">
        <ele>555.341</ele>
        <time>2015-06-14T09:30:44Z</time>
      </trkpt>
      <trkpt lat="45.84112" lon="4.78407">
        <ele>555.172</ele>
        <time>2015-06-14T09:30:47Z</time>
      </trkpt>
      <trkpt lat="45.84104" lon="4.78409">
        <ele>554.512</ele>
        <time>2015-06-14T09:30:52Z</time>
      </trkpt>
      <trkpt lat="45.84091" lon="4.78415">
        <ele>552.998</ele>
        <time>2015-06-14T09:31:01Z</time>
      </trkpt>
      <trkpt lat="45.84062" lon="4.78421">
        <ele>553.089</ele>
        <time>2015-06-14T09:31:12Z</time>
      </trkpt>
      <trkpt lat="45.84055" lon="4.78422">
        <ele>553.512</ele>
        <time>2015-06-14T09:31:14Z</time>
      </trkpt>
      <trkpt lat="45.84045" lon="4.78417">
        <ele>553.512</ele>
        <time>2015-06-14T09:31:17Z</time>
      </trkpt>
      <trkpt lat="45.84005" lon="4.78401">
        <ele>552.29</ele>
        <time>2015-06-14T09:31:26Z</time>
      </trkpt>
      <trkpt lat="45.83968" lon="4.78399">
        <ele>550.974</ele>
        <time>2015-06-14T09:31:33Z</time>
      </trkpt>
      <trkpt lat="45.83951" lon="4.78421">
        <ele>549.874</ele>
        <time>2015-06-14T09:31:43Z</time>
      </trkpt>
      <trkpt lat="45.83935" lon="4.78437">
        <ele>553.622</ele>
        <time>2015-06-14T09:31:58Z</time>
      </trkpt>
      <trkpt lat="45.83931" lon="4.78439">
        <ele>552.814</ele>
        <time>2015-06-14T09:32:05Z</time>
      </trkpt>
      <trkpt lat="45.83928" lon="4.78446">
        <ele>555.027</ele>
        <time>2015-06-14T09:32:15Z</time>
      </trkpt>
      <trkpt lat="45.83922" lon="4.78462">
        <ele>560.018</ele>
        <time>2015-06-14T09:32:31Z</time>
      </trkpt>
      <trkpt lat="45.83917" lon="4.78474">
        <ele>560.089</ele>
        <time>2015-06-14T09:32:49Z</time>
      </trkpt>
      <trkpt lat="45.83914" lon="4.7848">
        <ele>562.652</ele>
        <time>2015-06-14T09:33:02Z</time>
      </trkpt>
      <trkpt lat="45.83912" lon="4.78483">
        <ele>563.503</ele>
        <time>2015-06-14T09:33:06Z</time>
      </trkpt>
      <trkpt lat="45.83905" lon="4.78491">
        <ele>567.332</ele>
        <time>2015-06-14T09:33:20Z</time>
      </trkpt>
      <trkpt lat="45.83901" lon="4.78496">
        <ele>568.044</ele>
        <time>2015-06-14T09:33:40Z</time>
      </trkpt>
      <trkpt lat="45.83891" lon="4.78498">
        <ele>568.934</ele>
        <time>2015-06-14T09:33:56Z</time>
      </trkpt>
      <trkpt lat="45.83894" lon="4.785">
        <ele>569.177</ele>
        <time>2015-06-14T09:34:07Z</time>
      </trkpt>
      <trkpt lat="45.83901" lon="4.78495">
        <ele>570.332</ele>
        <time>2015-06-14T09:34:21Z</time>
      </trkpt>
      <trkpt lat="45.83905" lon="4.78495">
        <ele>569.141</ele>
        <time>2015-06-14T09:34:47Z</time>
      </trkpt>
      <trkpt lat="45.83918" lon="4.78468">
        <ele>568.663</ele>
        <time>2015-06-14T09:34:59Z</time>
      </trkpt>
      <trkpt lat="45.83929" lon="4.78456">
        <ele>568.629</ele>
        <time>2015-06-14T09:35:05Z</time>
      </trkpt>
      <trkpt lat="45.83952" lon="4.78426">
        <ele>567.997</ele>
        <time>2015-06-14T09:35:15Z</time>
      </trkpt>
      <trkpt lat="45.83956" lon="4.78413">
        <ele>566.504</ele>
        <time>2015-06-14T09:35:19Z</time>
      </trkpt>
      <trkpt lat="45.83944" lon="4.78405">
        <ele>565.616</ele>
        <time>2015-06-14T09:35:31Z</time>
      </trkpt>
      <trkpt lat="45.83942" lon="4.78406">
        <ele>565.651</ele>
        <time>2015-06-14T09:35:47Z</time>
      </trkpt>
      <trkpt lat="45.83942" lon="4.78406">
        <ele>565.668</ele>
        <time>2015-06-14T09:36:03Z</time>
      </trkpt>
      <trkpt lat="45.83938" lon="4.7841">
        <ele>565.84</ele>
        <time>2015-06-14T09:36:07Z</time>
      </trkpt>
      <trkpt lat="45.83929" lon="4.7841">
        <ele>564.712</ele>
        <time>2015-06-14T09:36:12Z</time>
      </trkpt>
      <trkpt lat="45.83924" lon="4.78408">
        <ele>564.438</ele>
        <time>2015-06-14T09:36:14Z</time>
      </trkpt>
      <trkpt lat="45.8391" lon="4.78402">
        <ele>565.298</ele>
        <time>2015-06-14T09:36:18Z</time>
      </trkpt>
      <trkpt lat="45.83898" lon="4.78392">
        <ele>564.656</ele>
        <time>2015-06-14T09:36:22Z</time>
      </trkpt>
      <trkpt lat="45.83872" lon="4.7838">
        <ele>561.722</ele>
        <time>2015-06-14T09:36:28Z</time>
      </trkpt>
      <trkpt lat="45.83853" lon="4.78383">
        <ele>556.76</ele>
        <time>2015-06-14T09:36:33Z</time>
      </trkpt>
      <trkpt lat="45.83823" lon="4.78393">
        <ele>554.171</ele>
        <time>2015-06-14T09:36:41Z</time>
      </trkpt>
      <trkpt lat="45.83808" lon="4.78395">
        <ele>552.424</ele>
        <time>2015-06-14T09:36:43Z</time>
      </trkpt>
      <trkpt lat="45.83783" lon="4.78403">
        <ele>553.22</ele>
        <time>2015-06-14T09:36:48Z</time>
      </trkpt>
      <trkpt lat="45.83762" lon="4.78403">
        <ele>550.707</ele>
        <time>2015-06-14T09:37:01Z</time>
      </trkpt>
      <trkpt lat="45.83749" lon="4.78404">
        <ele>551.2</ele>
        <time>2015-06-14T09:37:08Z</time>
      </trkpt>
      <trkpt lat="45.83745" lon="4.78403">
        <ele>550.702</ele>
        <time>2015-06-14T09:37:10Z</time>
      </trkpt>
      <trkpt lat="45.83723" lon="4.78398">
        <ele>547.329</ele>
        <time>2015-06-14T09:37:22Z</time>
      </trkpt>
      <trkpt lat="45.83715" lon="4.78398">
        <ele>546.886</ele>
        <time>2015-06-14T09:37:25Z</time>
      </trkpt>
      <trkpt lat="45.83698" lon="4.78402">
        <ele>548.812</ele>
        <time>2015-06-14T09:37:34Z</time>
      </trkpt>
      <trkpt lat="45.83681" lon="4.78395">
        <ele>549.452</ele>
        <time>2015-06-14T09:37:40Z</time>
      </trkpt>
      <trkpt lat="45.83677" lon="4.78389">
        <ele>549.71</ele>
        <time>2015-06-14T09:37:42Z</time>
      </trkpt>
      <trkpt lat="45.8366" lon="4.78391">
        <ele>550.333</ele>
        <time>2015-06-14T09:37:49Z</time>
      </trkpt>
      <trkpt lat="45.8364" lon="4.78406">
        <ele>549.873</ele>
        <time>2015-06-14T09:37:57Z</time>
      </trkpt>
      <trkpt lat="45.83635" lon="4.78408">
        <ele>548.882</ele>
        <time>2015-06-14T09:37:59Z</time>
      </trkpt>
      <trkpt lat="45.83612" lon="4.78426">
        <ele>550.541</ele>
        <time>2015-06-14T09:38:09Z</time>
      </trkpt>
      <trkpt lat="45.83592" lon="4.78449">
        <ele>550.341</ele>
        <time>2015-06-14T09:38:20Z</time>
      </trkpt>
      <trkpt lat="45.83576" lon="4.78474">
        <ele>548.812</ele>
        <time>2015-06-14T09:38:27Z</time>
      </trkpt>
      <trkpt lat="45.83568" lon="4.78486">
        <ele>547.145</ele>
        <time>2015-06-14T09:38:30Z</time>
      </trkpt>
      <trkpt lat="45.83541" lon="4.78533">
        <ele>542.529</ele>
        <time>2015-06-14T09:38:40Z</time>
      </trkpt>
      <trkpt lat="45.83497" lon="4.78587">
        <ele>537.651</ele>
        <time>2015-06-14T09:38:51Z</time>
      </trkpt>
      <trkpt lat="45.83458" lon="4.78628">
        <ele>533.474</ele>
        <time>2015-06-14T09:38:59Z</time>
      </trkpt>
      <trkpt lat="45.83435" lon="4.78661">
        <ele>530.796</ele>
        <time>2015-06-14T09:39:04Z</time>
      </trkpt>
      <trkpt lat="45.83396" lon="4.7869">
        <ele>528.794</ele>
        <time>2015-06-14T09:39:10Z</time>
      </trkpt>
      <trkpt lat="45.83371" lon="4.78701">
        <ele>527.623</ele>
        <time>2015-06-14T09:39:15Z</time>
      </trkpt>
      <trkpt lat="45.83358" lon="4.78707">
        <ele>527.662</ele>
        <time>2015-06-14T09:39:17Z</time>
      </trkpt>
      <trkpt lat="45.83346" lon="4.78715">
        <ele>528.713</ele>
        <time>2015-06-14T09:39:19Z</time>
      </trkpt>
      <trkpt lat="45.83326" lon="4.78718">
        <ele>527.787</ele>
        <time>2015-06-14T09:39:23Z</time>
      </trkpt>
      <trkpt lat="45.83308" lon="4.78724">
        <ele>527.429</ele>
        <time>2015-06-14T09:39:26Z</time>
      </trkpt>
      <trkpt lat="45.83243" lon="4.78777">
        <ele>521.083</ele>
        <time>2015-06-14T09:39:39Z</time>
      </trkpt>
      <trkpt lat="45.83213" lon="4.78812">
        <ele>517.832</ele>
        <time>2015-06-14T09:39:45Z</time>
      </trkpt>
      <trkpt lat="45.83196" lon="4.78842">
        <ele>513.708</ele>
        <time>2015-06-14T09:39:49Z</time>
      </trkpt>
      <trkpt lat="45.83173" lon="4.78881">
        <ele>510.071</ele>
        <time>2015-06-14T09:39:57Z</time>
      </trkpt>
      <trkpt lat="45.8317" lon="4.78887">
        <ele>511.001</ele>
        <time>2015-06-14T09:40:09Z</time>
      </trkpt>
      <trkpt lat="45.83157" lon="4.789">
        <ele>510.882</ele>
        <time>2015-06-14T09:40:39Z</time>
      </trkpt>
      <trkpt lat="45.83143" lon="4.78917">
        <ele>509.621</ele>
        <time>2015-06-14T09:40:43Z</time>
      </trkpt>
      <trkpt lat="45.83129" lon="4.7893">
        <ele>507.954</ele>
        <time>2015-06-14T09:40:46Z</time>
      </trkpt>
      <trkpt lat="45.83113" lon="4.78945">
        <ele>506.641</ele>
        <time>2015-06-14T09:40:49Z</time>
      </trkpt>
      <trkpt lat="45.83078" lon="4.7897">
        <ele>500.727</ele>
        <time>2015-06-14T09:40:56Z</time>
      </trkpt>
      <trkpt lat="45.83033" lon="4.78996">
        <ele>492.724</ele>
        <time>2015-06-14T09:41:04Z</time>
      </trkpt>
      <trkpt lat="45.83017" lon="4.78982">
        <ele>489.195</ele>
        <time>2015-06-14T09:41:08Z</time>
      </trkpt>
      <trkpt lat="45.83011" lon="4.78953">
        <ele>486.227</ele>
        <time>2015-06-14T09:41:12Z</time>
      </trkpt>
      <trkpt lat="45.83" lon="4.78936">
        <ele>483.585</ele>
        <time>2015-06-14T09:41:17Z</time>
      </trkpt>
      <trkpt lat="45.82977" lon="4.78947">
        <ele>480.761</ele>
        <time>2015-06-14T09:41:26Z</time>
      </trkpt>
      <trkpt lat="45.82947" lon="4.78961">
        <ele>477.331</ele>
        <time>2015-06-14T09:41:33Z</time>
      </trkpt>
      <trkpt lat="45.82921" lon="4.78973">
        <ele>474.731</ele>
        <time>2015-06-14T09:41:38Z</time>
      </trkpt>
      <trkpt lat="45.82884" lon="4.78994">
        <ele>468.228</ele>
        <time>2015-06-14T09:41:47Z</time>
      </trkpt>
      <trkpt lat="45.82873" lon="4.78998">
        <ele>465.401</ele>
        <time>2015-06-14T09:41:51Z</time>
      </trkpt>
      <trkpt lat="45.82854" lon="4.79009">
        <ele>463.121</ele>
        <time>2015-06-14T09:41:57Z</time>
      </trkpt>
      <trkpt lat="45.82836" lon="4.79018">
        <ele>464.651</ele>
        <time>2015-06-14T09:42:07Z</time>
      </trkpt>
      <trkpt lat="45.82814" lon="4.79026">
        <ele>459.642</ele>
        <time>2015-06-14T09:42:17Z</time>
      </trkpt>
      <trkpt lat="45.82806" lon="4.79032">
        <ele>459.772</ele>
        <time>2015-06-14T09:42:21Z</time>
      </trkpt>
      <trkpt lat="45.82775" lon="4.79044">
        <ele>456.672</ele>
        <time>2015-06-14T09:42:27Z</time>
      </trkpt>
      <trkpt lat="45.82748" lon="4.79061">
        <ele>453.702</ele>
        <time>2015-06-14T09:42:31Z</time>
      </trkpt>
      <trkpt lat="45.82734" lon="4.79067">
        <ele>451.977</ele>
        <time>2015-06-14T09:42:33Z</time>
      </trkpt>
      <trkpt lat="45.82704" lon="4.79088">
        <ele>452.475</ele>
        <time>2015-06-14T09:42:42Z</time>
      </trkpt>
      <trkpt lat="45.82681" lon="4.79096">
        <ele>449.523</ele>
        <time>2015-06-14T09:42:47Z</time>
      </trkpt>
      <trkpt lat="45.82596" lon="4.79121">
        <ele>439.419</ele>
        <time>2015-06-14T09:42:58Z</time>
      </trkpt>
      <trkpt lat="45.82557" lon="4.7913">
        <ele>437.134</ele>
        <time>2015-06-14T09:43:02Z</time>
      </trkpt>
      <trkpt lat="45.82515" lon="4.79146">
        <ele>435.649</ele>
        <time>2015-06-14T09:43:07Z</time>
      </trkpt>
      <trkpt lat="45.82386" lon="4.79195">
        <ele>424.64</ele>
        <time>2015-06-14T09:43:21Z</time>
      </trkpt>
      <trkpt lat="45.8237" lon="4.79204">
        <ele>423.315</ele>
        <time>2015-06-14T09:43:24Z</time>
      </trkpt>
      <trkpt lat="45.82352" lon="4.79212">
        <ele>422.287</ele>
        <time>2015-06-14T09:43:29Z</time>
      </trkpt>
      <trkpt lat="45.82358" lon="4.79213">
        <ele>422.669</ele>
        <time>2015-06-14T09:43:34Z</time>
      </trkpt>
      <trkpt lat="45.82384" lon="4.79197">
        <ele>424.246</ele>
        <time>2015-06-14T09:43:43Z</time>
      </trkpt>
      <trkpt lat="45.82387" lon="4.79185">
        <ele>422.788</ele>
        <time>2015-06-14T09:43:47Z</time>
      </trkpt>
      <trkpt lat="45.82374" lon="4.79133">
        <ele>418.262</ele>
        <time>2015-06-14T09:43:57Z</time>
      </trkpt>
      <trkpt lat="45.82369" lon="4.79101">
        <ele>413.782</ele>
        <time>2015-06-14T09:44:01Z</time>
      </trkpt>
      <trkpt lat="45.82376" lon="4.79083">
        <ele>414.022</ele>
        <time>2015-06-14T09:44:09Z</time>
      </trkpt>
      <trkpt lat="45.82399" lon="4.79056">
        <ele>414.235</ele>
        <time>2015-06-14T09:44:18Z</time>
      </trkpt>
      <trkpt lat="45.82406" lon="4.79047">
        <ele>414.177</ele>
        <time>2015-06-14T09:44:20Z</time>
      </trkpt>
      <trkpt lat="45.82437" lon="4.79009">
        <ele>412.506</ele>
        <time>2015-06-14T09:44:27Z</time>
      </trkpt>
      <trkpt lat="45.82445" lon="4.78997">
        <ele>411.589</ele>
        <time>2015-06-14T09:44:29Z</time>
      </trkpt>
      <trkpt lat="45.82474" lon="4.78972">
        <ele>407.923</ele>
        <time>2015-06-14T09:44:36Z</time>
      </trkpt>
      <trkpt lat="45.82499" lon="4.78934">
        <ele>401.74</ele>
        <time>2015-06-14T09:44:43Z</time>
      </trkpt>
      <trkpt lat="45.82518" lon="4.78909">
        <ele>397.304</ele>
        <time>2015-06-14T09:44:49Z</time>
      </trkpt>
      <trkpt lat="45.82524" lon="4.78874">
        <ele>391.209</ele>
        <time>2015-06-14T09:44:58Z</time>
      </trkpt>
      <trkpt lat="45.8253" lon="4.78852">
        <ele>387.813</ele>
        <time>2015-06-14T09:45:07Z</time>
      </trkpt>
      <trkpt lat="45.8253" lon="4.78849">
        <ele>385.609</ele>
        <time>2015-06-14T09:45:14Z</time>
      </trkpt>
      <trkpt lat="45.82534" lon="4.78842">
        <ele>385.689</ele>
        <time>2015-06-14T09:45:18Z</time>
      </trkpt>
      <trkpt lat="45.82593" lon="4.78831">
        <ele>385.253</ele>
        <time>2015-06-14T09:45:35Z</time>
      </trkpt>
      <trkpt lat="45.82641" lon="4.78787">
        <ele>385.889</ele>
        <time>2015-06-14T09:45:49Z</time>
      </trkpt>
      <trkpt lat="45.82661" lon="4.78759">
        <ele>385.022</ele>
        <time>2015-06-14T09:45:55Z</time>
      </trkpt>
      <trkpt lat="45.82663" lon="4.78725">
        <ele>384.905</ele>
        <time>2015-06-14T09:46:03Z</time>
      </trkpt>
      <trkpt lat="45.82644" lon="4.78699">
        <ele>386.189</ele>
        <time>2015-06-14T09:46:08Z</time>
      </trkpt>
      <trkpt lat="45.82602" lon="4.78666">
        <ele>387.141</ele>
        <time>2015-06-14T09:46:15Z</time>
      </trkpt>
      <trkpt lat="45.82592" lon="4.78655">
        <ele>386.592</ele>
        <time>2015-06-14T09:46:17Z</time>
      </trkpt>
      <trkpt lat="45.82534" lon="4.78621">
        <ele>382.665</ele>
        <time>2015-06-14T09:46:28Z</time>
      </trkpt>
      <trkpt lat="45.82506" lon="4.78616">
        <ele>377.169</ele>
        <time>2015-06-14T09:46:33Z</time>
      </trkpt>
      <trkpt lat="45.82483" lon="4.78609">
        <ele>373.356</ele>
        <time>2015-06-14T09:46:37Z</time>
      </trkpt>
      <trkpt lat="45.82437" lon="4.78599">
        <ele>367.765</ele>
        <time>2015-06-14T09:46:45Z</time>
      </trkpt>
      <trkpt lat="45.82424" lon="4.78594">
        <ele>365.416</ele>
        <time>2015-06-14T09:46:47Z</time>
      </trkpt>
      <trkpt lat="45.82376" lon="4.78559">
        <ele>355.081</ele>
        <time>2015-06-14T09:46:57Z</time>
      </trkpt>
      <trkpt lat="45.8237" lon="4.78555">
        <ele>353.572</ele>
        <time>2015-06-14T09:46:58Z</time>
      </trkpt>
      <trkpt lat="45.82356" lon="4.78522">
        <ele>346.563</ele>
        <time>2015-06-14T09:47:06Z</time>
      </trkpt>
      <trkpt lat="45.82331" lon="4.78512">
        <ele>344.772</ele>
        <time>2015-06-14T09:47:13Z</time>
      </trkpt>
      <trkpt lat="45.82331" lon="4.78498">
        <ele>342.422</ele>
        <time>2015-06-14T09:47:19Z</time>
      </trkpt>
      <trkpt lat="45.82343" lon="4.78487">
        <ele>343.046</ele>
        <time>2015-06-14T09:47:24Z</time>
      </trkpt>
      <trkpt lat="45.82316" lon="4.7847">
        <ele>342.996</ele>
        <time>2015-06-14T09:47:32Z</time>
      </trkpt>
      <trkpt lat="45.82309" lon="4.78457">
        <ele>343.415</ele>
        <time>2015-06-14T09:47:35Z</time>
      </trkpt>
      <trkpt lat="45.82298" lon="4.78447">
        <ele>343.932</ele>
        <time>2015-06-14T09:47:38Z</time>
      </trkpt>
      <trkpt lat="45.82281" lon="4.78434">
        <ele>344.051</ele>
        <time>2015-06-14T09:47:41Z</time>
      </trkpt>
      <trkpt lat="45.82256" lon="4.78412">
        <ele>344.986</ele>
        <time>2015-06-14T09:47:47Z</time>
      </trkpt>
      <trkpt lat="45.82213" lon="4.78395">
        <ele>347.392</ele>
        <time>2015-06-14T09:47:58Z</time>
      </trkpt>
      <trkpt lat="45.82191" lon="4.78391">
        <ele>349.244</ele>
        <time>2015-06-14T09:48:05Z</time>
      </trkpt>
      <trkpt lat="45.82171" lon="4.78375">
        <ele>349.235</ele>
        <time>2015-06-14T09:48:11Z</time>
      </trkpt>
      <trkpt lat="45.82127" lon="4.78385">
        <ele>344.347</ele>
        <time>2015-06-14T09:48:22Z</time>
      </trkpt>
      <trkpt lat="45.82119" lon="4.78385">
        <ele>343.744</ele>
        <time>2015-06-14T09:48:24Z</time>
      </trkpt>
      <trkpt lat="45.82066" lon="4.78368">
        <ele>338.859</ele>
        <time>2015-06-14T09:48:36Z</time>
      </trkpt>
      <trkpt lat="45.82047" lon="4.78365">
        <ele>337.538</ele>
        <time>2015-06-14T09:48:43Z</time>
      </trkpt>
      <trkpt lat="45.82015" lon="4.78344">
        <ele>330.722</ele>
        <time>2015-06-14T09:48:50Z</time>
      </trkpt>
      <trkpt lat="45.81997" lon="4.7834">
        <ele>329.199</ele>
        <time>2015-06-14T09:48:54Z</time>
      </trkpt>
      <trkpt lat="45.81961" lon="4.78327">
        <ele>323.78</ele>
        <time>2015-06-14T09:49:05Z</time>
      </trkpt>
      <trkpt lat="45.81953" lon="4.78327">
        <ele>321.407</ele>
        <time>2015-06-14T09:49:09Z</time>
      </trkpt>
      <trkpt lat="45.81952" lon="4.78332">
        <ele>320.093</ele>
        <time>2015-06-14T09:49:14Z</time>
      </trkpt>
      <trkpt lat="45.81955" lon="4.78335">
        <ele>319.357</ele>
        <time>2015-06-14T09:49:19Z</time>
      </trkpt>
      <trkpt lat="45.81959" lon="4.78342">
        <ele>319.364</ele>
        <time>2015-06-14T09:49:24Z</time>
      </trkpt>
      <trkpt lat="45.81974" lon="4.7837">
        <ele>319.75</ele>
        <time>2015-06-14T09:49:41Z</time>
      </trkpt>
      <trkpt lat="45.81984" lon="4.784">
        <ele>321.825</ele>
        <time>2015-06-14T09:49:55Z</time>
      </trkpt>
      <trkpt lat="45.81981" lon="4.78408">
        <ele>321.759</ele>
        <time>2015-06-14T09:49:59Z</time>
      </trkpt>
      <trkpt lat="45.81959" lon="4.78405">
        <ele>323.087</ele>
        <time>2015-06-14T09:50:13Z</time>
      </trkpt>
      <trkpt lat="45.81925" lon="4.78396">
        <ele>320.591</ele>
        <time>2015-06-14T09:50:24Z</time>
      </trkpt>
      <trkpt lat="45.81907" lon="4.78388">
        <ele>319.782</ele>
        <time>2015-06-14T09:50:30Z</time>
      </trkpt>
      <trkpt lat="45.81845" lon="4.78351">
        <ele>311.248</ele>
        <time>2015-06-14T09:50:42Z</time>
      </trkpt>
      <trkpt lat="45.81802" lon="4.78329">
        <ele>305.424</ele>
        <time>2015-06-14T09:50:48Z</time>
      </trkpt>
      <trkpt lat="45.81766" lon="4.78325">
        <ele>299.601</ele>
        <time>2015-06-14T09:50:54Z</time>
      </trkpt>
      <trkpt lat="45.81766" lon="4.78316">
        <ele>297.425</ele>
        <time>2015-06-14T09:50:58Z</time>
      </trkpt>
      <trkpt lat="45.81775" lon="4.78313">
        <ele>295.896</ele>
        <time>2015-06-14T09:51:01Z</time>
      </trkpt>
      <trkpt lat="45.81792" lon="4.78304">
        <ele>296.5</ele>
        <time>2015-06-14T09:51:06Z</time>
      </trkpt>
      <trkpt lat="45.81794" lon="4.78295">
        <ele>295.478</ele>
        <time>2015-06-14T09:51:09Z</time>
      </trkpt>
      <trkpt lat="45.81759" lon="4.78284">
        <ele>297.54</ele>
        <time>2015-06-14T09:51:19Z</time>
      </trkpt>
      <trkpt lat="45.81742" lon="4.78286">
        <ele>296.981</ele>
        <time>2015-06-14T09:51:25Z</time>
      </trkpt>
      <trkpt lat="45.81734" lon="4.78289">
        <ele>293.63</ele>
        <time>2015-06-14T09:51:48Z</time>
      </trkpt>
      <trkpt lat="45.81695" lon="4.78295">
        <ele>293.025</ele>
        <time>2015-06-14T09:52:01Z</time>
      </trkpt>
      <trkpt lat="45.81684" lon="4.78296">
        <ele>293.287</ele>
        <time>2015-06-14T09:52:05Z</time>
      </trkpt>
      <trkpt lat="45.81655" lon="4.78311">
        <ele>293.144</ele>
        <time>2015-06-14T09:52:15Z</time>
      </trkpt>
      <trkpt lat="45.81625" lon="4.7833">
        <ele>291.74</ele>
        <time>2015-06-14T09:52:25Z</time>
      </trkpt>
      <trkpt lat="45.81622" lon="4.78332">
        <ele>291.434</ele>
        <time>2015-06-14T09:52:26Z</time>
      </trkpt>
      <trkpt lat="45.81608" lon="4.78335">
        <ele>290.834</ele>
        <time>2015-06-14T09:52:30Z</time>
      </trkpt>
      <trkpt lat="45.81557" lon="4.78335">
        <ele>289.212</ele>
        <time>2015-06-14T09:52:42Z</time>
      </trkpt>
      <trkpt lat="45.81509" lon="4.78328">
        <ele>289.272</ele>
        <time>2015-06-14T09:52:51Z</time>
      </trkpt>
      <trkpt lat="45.81448" lon="4.78326">
        <ele>287.552</ele>
        <time>2015-06-14T09:53:01Z</time>
      </trkpt>
      <trkpt lat="45.81407" lon="4.78324">
        <ele>287.667</ele>
        <time>2015-06-14T09:53:07Z</time>
      </trkpt>
      <trkpt lat="45.8135" lon="4.78319">
        <ele>289.736</ele>
        <time>2015-06-14T09:53:17Z</time>
      </trkpt>
      <trkpt lat="45.81298" lon="4.78316">
        <ele>291.686</ele>
        <time>2015-06-14T09:53:25Z</time>
      </trkpt>
      <trkpt lat="45.81285" lon="4.78313">
        <ele>290.34</ele>
        <time>2015-06-14T09:53:28Z</time>
      </trkpt>
      <trkpt lat="45.81247" lon="4.78259">
        <ele>284.615</ele>
        <time>2015-06-14T09:53:41Z</time>
      </trkpt>
      <trkpt lat="45.81238" lon="4.78237">
        <ele>284.774</ele>
        <time>2015-06-14T09:53:45Z</time>
      </trkpt>
      <trkpt lat="45.8121" lon="4.78218">
        <ele>283.313</ele>
        <time>2015-06-14T09:53:52Z</time>
      </trkpt>
      <trkpt lat="45.81178" lon="4.78221">
        <ele>278.006</ele>
        <time>2015-06-14T09:54:00Z</time>
      </trkpt>
      <trkpt lat="45.8117" lon="4.78226">
        <ele>274.081</ele>
        <time>2015-06-14T09:54:13Z</time>
      </trkpt>
      <trkpt lat="45.81168" lon="4.78228">
        <ele>273.65</ele>
        <time>2015-06-14T09:54:21Z</time>
      </trkpt>
      <trkpt lat="45.81161" lon="4.78229">
        <ele>273.633</ele>
        <time>2015-06-14T09:54:25Z</time>
      </trkpt>
      <trkpt lat="45.81122" lon="4.78232">
        <ele>270.913</ele>
        <time>2015-06-14T09:54:38Z</time>
      </trkpt>
      <trkpt lat="45.8111" lon="4.78231">
        <ele>270.067</ele>
        <time>2015-06-14T09:54:41Z</time>
      </trkpt>
      <trkpt lat="45.81065" lon="4.78223">
        <ele>266.431</ele>
        <time>2015-06-14T09:54:54Z</time>
      </trkpt>
      <trkpt lat="45.81014" lon="4.78223">
        <ele>264.117</ele>
        <time>2015-06-14T09:55:03Z</time>
      </trkpt>
      <trkpt lat="45.80998" lon="4.7822">
        <ele>262.861</ele>
        <time>2015-06-14T09:55:07Z</time>
      </trkpt>
      <trkpt lat="45.80962" lon="4.78224">
        <ele>259.468</ele>
        <time>2015-06-14T09:55:17Z</time>
      </trkpt>
      <trkpt lat="45.80947" lon="4.7823">
        <ele>258.859</ele>
        <time>2015-06-14T09:55:22Z</time>
      </trkpt>
      <trkpt lat="45.80933" lon="4.78244">
        <ele>255.924</ele>
        <time>2015-06-14T09:55:30Z</time>
      </trkpt>
      <trkpt lat="45.80912" lon="4.78291">
        <ele>259.329</ele>
        <time>2015-06-14T09:55:43Z</time>
      </trkpt>
      <trkpt lat="45.80893" lon="4.78347">
        <ele>260.208</ele>
        <time>2015-06-14T09:55:56Z</time>
      </trkpt>
      <trkpt lat="45.80862" lon="4.78353">
        <ele>266.043</ele>
        <time>2015-06-14T09:56:06Z</time>
      </trkpt>
      <trkpt lat="45.80834" lon="4.78353">
        <ele>270.045</ele>
        <time>2015-06-14T09:56:14Z</time>
      </trkpt>
      <trkpt lat="45.80788" lon="4.78362">
        <ele>275.669</ele>
        <time>2015-06-14T09:56:26Z</time>
      </trkpt>
      <trkpt lat="45.80781" lon="4.78362">
        <ele>276.173</ele>
        <time>2015-06-14T09:56:28Z</time>
      </trkpt>
      <trkpt lat="45.80743" lon="4.78367">
        <ele>276.003</ele>
        <time>2015-06-14T09:56:39Z</time>
      </trkpt>
      <trkpt lat="45.80727" lon="4.7837">
        <ele>275.47</ele>
        <time>2015-06-14T09:56:45Z</time>
      </trkpt>
      <trkpt lat="45.80696" lon="4.78375">
        <ele>275.032</ele>
        <time>2015-06-14T09:56:55Z</time>
      </trkpt>
      <trkpt lat="45.80686" lon="4.78376">
        <ele>274.624</ele>
        <time>2015-06-14T09:56:58Z</time>
      </trkpt>
      <trkpt lat="45.80669" lon="4.78375">
        <ele>273.867</ele>
        <time>2015-06-14T09:57:02Z</time>
      </trkpt>
      <trkpt lat="45.80617" lon="4.78416">
        <ele>269.97</ele>
        <time>2015-06-14T09:57:16Z</time>
      </trkpt>
      <trkpt lat="45.80599" lon="4.78441">
        <ele>267.634</ele>
        <time>2015-06-14T09:57:22Z</time>
      </trkpt>
      <trkpt lat="45.80592" lon="4.78453">
        <ele>266.694</ele>
        <time>2015-06-14T09:57:25Z</time>
      </trkpt>
      <trkpt lat="45.80589" lon="4.78464">
        <ele>265.69</ele>
        <time>2015-06-14T09:57:27Z</time>
      </trkpt>
      <trkpt lat="45.80577" lon="4.7852">
        <ele>265.375</ele>
        <time>2015-06-14T09:57:36Z</time>
      </trkpt>
      <trkpt lat="45.8056" lon="4.78582">
        <ele>267.415</ele>
        <time>2015-06-14T09:57:45Z</time>
      </trkpt>
      <trkpt lat="45.80549" lon="4.78601">
        <ele>269.254</ele>
        <time>2015-06-14T09:57:49Z</time>
      </trkpt>
      <trkpt lat="45.80543" lon="4.78612">
        <ele>267.143</ele>
        <time>2015-06-14T09:58:00Z</time>
      </trkpt>
      <trkpt lat="45.8054" lon="4.78619">
        <ele>268.289</ele>
        <time>2015-06-14T09:58:07Z</time>
      </trkpt>
      <trkpt lat="45.80521" lon="4.78636">
        <ele>266.839</ele>
        <time>2015-06-14T09:58:15Z</time>
      </trkpt>
      <trkpt lat="45.8051" lon="4.78645">
        <ele>266.284</ele>
        <time>2015-06-14T09:58:18Z</time>
      </trkpt>
      <trkpt lat="45.80468" lon="4.78659">
        <ele>265.954</ele>
        <time>2015-06-14T09:58:29Z</time>
      </trkpt>
      <trkpt lat="45.80445" lon="4.78678">
        <ele>265.011</ele>
        <time>2015-06-14T09:58:35Z</time>
      </trkpt>
      <trkpt lat="45.80394" lon="4.78748">
        <ele>261.428</ele>
        <time>2015-06-14T09:58:51Z</time>
      </trkpt>
      <trkpt lat="45.80386" lon="4.78762">
        <ele>260.488</ele>
        <time>2015-06-14T09:58:53Z</time>
      </trkpt>
      <trkpt lat="45.80346" lon="4.78888">
        <ele>255.318</ele>
        <time>2015-06-14T09:59:06Z</time>
      </trkpt>
      <trkpt lat="45.80342" lon="4.78905">
        <ele>255.174</ele>
        <time>2015-06-14T09:59:08Z</time>
      </trkpt>
      <trkpt lat="45.80328" lon="4.78911">
        <ele>255.898</ele>
        <time>2015-06-14T09:59:14Z</time>
      </trkpt>
      <trkpt lat="45.80327" lon="4.78908">
        <ele>256.895</ele>
        <time>2015-06-14T09:59:15Z</time>
      </trkpt>
      <trkpt lat="45.80297" lon="4.78852">
        <ele>262.498</ele>
        <time>2015-06-14T09:59:33Z</time>
      </trkpt>
      <trkpt lat="45.80245" lon="4.7885">
        <ele>267.655</ele>
        <time>2015-06-14T09:59:50Z</time>
      </trkpt>
      <trkpt lat="45.80189" lon="4.78851">
        <ele>269.137</ele>
        <time>2015-06-14T10:00:08Z</time>
      </trkpt>
      <trkpt lat="45.80183" lon="4.7885">
        <ele>270.019</ele>
        <time>2015-06-14T10:00:10Z</time>
      </trkpt>
      <trkpt lat="45.80179" lon="4.78865">
        <ele>269.53</ele>
        <time>2015-06-14T10:00:16Z</time>
      </trkpt>
      <trkpt lat="45.80182" lon="4.78874">
        <ele>269.565</ele>
        <time>2015-06-14T10:00:19Z</time>
      </trkpt>
      <trkpt lat="45.80198" lon="4.78931">
        <ele>277.217</ele>
        <time>2015-06-14T10:00:38Z</time>
      </trkpt>
      <trkpt lat="45.80199" lon="4.78934">
        <ele>277.759</ele>
        <time>2015-06-14T10:00:39Z</time>
      </trkpt>
      <trkpt lat="45.8021" lon="4.78991">
        <ele>275.951</ele>
        <time>2015-06-14T10:00:48Z</time>
      </trkpt>
      <trkpt lat="45.80215" lon="4.79049">
        <ele>271.244</ele>
        <time>2015-06-14T10:00:57Z</time>
      </trkpt>
      <trkpt lat="45.8021" lon="4.79099">
        <ele>261.033</ele>
        <time>2015-06-14T10:01:07Z</time>
      </trkpt>
      <trkpt lat="45.80188" lon="4.79145">
        <ele>251.303</ele>
        <time>2015-06-14T10:01:17Z</time>
      </trkpt>
      <trkpt lat="45.80185" lon="4.79151">
        <ele>250.097</ele>
        <time>2015-06-14T10:01:18Z</time>
      </trkpt>
      <trkpt lat="45.80182" lon="4.79184">
        <ele>244.984</ele>
        <time>2015-06-14T10:01:24Z</time>
      </trkpt>
      <trkpt lat="45.80188" lon="4.79207">
        <ele>242.083</ele>
        <time>2015-06-14T10:01:30Z</time>
      </trkpt>
      <trkpt lat="45.80219" lon="4.79266">
        <ele>235.509</ele>
        <time>2015-06-14T10:01:39Z</time>
      </trkpt>
      <trkpt lat="45.80217" lon="4.79341">
        <ele>229.336</ele>
        <time>2015-06-14T10:01:46Z</time>
      </trkpt>
      <trkpt lat="45.80203" lon="4.79416">
        <ele>222.542</ele>
        <time>2015-06-14T10:01:55Z</time>
      </trkpt>
      <trkpt lat="45.80183" lon="4.79485">
        <ele>216.871</ele>
        <time>2015-06-14T10:02:04Z</time>
      </trkpt>
      <trkpt lat="45.80167" lon="4.79571">
        <ele>208.032</ele>
        <time>2015-06-14T10:02:11Z</time>
      </trkpt>
      <trkpt lat="45.8016" lon="4.79662">
        <ele>209.336</ele>
        <time>2015-06-14T10:02:21Z</time>
      </trkpt>
      <trkpt lat="45.80137" lon="4.79731">
        <ele>208.851</ele>
        <time>2015-06-14T10:02:29Z</time>
      </trkpt>
      <trkpt lat="45.80129" lon="4.79748">
        <ele>209.719</ele>
        <time>2015-06-14T10:02:31Z</time>
      </trkpt>
      <trkpt lat="45.80099" lon="4.79769">
        <ele>208.99</ele>
        <time>2015-06-14T10:02:37Z</time>
      </trkpt>
      <trkpt lat="45.80056" lon="4.79782">
        <ele>209.055</ele>
        <time>2015-06-14T10:02:42Z</time>
      </trkpt>
      <trkpt lat="45.80027" lon="4.79792">
        <ele>207.599</ele>
        <time>2015-06-14T10:02:45Z</time>
      </trkpt>
      <trkpt lat="45.79962" lon="4.79802">
        <ele>202.129</ele>
        <time>2015-06-14T10:02:54Z</time>
      </trkpt>
      <trkpt lat="45.79957" lon="4.79803">
        <ele>201.821</ele>
        <time>2015-06-14T10:02:55Z</time>
      </trkpt>
      <trkpt lat="45.79889" lon="4.79838">
        <ele>198.877</ele>
        <time>2015-06-14T10:03:03Z</time>
      </trkpt>
      <trkpt lat="45.79855" lon="4.79836">
        <ele>198.562</ele>
        <time>2015-06-14T10:03:07Z</time>
      </trkpt>
      <trkpt lat="45.79802" lon="4.79841">
        <ele>200.698</ele>
        <time>2015-06-14T10:03:15Z</time>
      </trkpt>
      <trkpt lat="45.7978" lon="4.79846">
        <ele>201.402</ele>
        <time>2015-06-14T10:03:18Z</time>
      </trkpt>
      <trkpt lat="45.7977" lon="4.79846">
        <ele>201.545</ele>
        <time>2015-06-14T10:03:20Z</time>
      </trkpt>
      <trkpt lat="45.79747" lon="4.79846">
        <ele>200.918</ele>
        <time>2015-06-14T10:03:24Z</time>
      </trkpt>
      <trkpt lat="45.79632" lon="4.79916">
        <ele>199.341</ele>
        <time>2015-06-14T10:03:41Z</time>
      </trkpt>
      <trkpt lat="45.7961" lon="4.79921">
        <ele>198.107</ele>
        <time>2015-06-14T10:03:45Z</time>
      </trkpt>
      <trkpt lat="45.79569" lon="4.79917">
        <ele>198.537</ele>
        <time>2015-06-14T10:03:52Z</time>
      </trkpt>
      <trkpt lat="45.7951" lon="4.79915">
        <ele>200.966</ele>
        <time>2015-06-14T10:04:01Z</time>
      </trkpt>
      <trkpt lat="45.7949" lon="4.7992">
        <ele>201.794</ele>
        <time>2015-06-14T10:04:04Z</time>
      </trkpt>
      <trkpt lat="45.79441" lon="4.79946">
        <ele>198.621</ele>
        <time>2015-06-14T10:04:11Z</time>
      </trkpt>
      <trkpt lat="45.7941" lon="4.79946">
        <ele>196.16</ele>
        <time>2015-06-14T10:04:15Z</time>
      </trkpt>
      <trkpt lat="45.79376" lon="4.79943">
        <ele>193.254</ele>
        <time>2015-06-14T10:04:19Z</time>
      </trkpt>
      <trkpt lat="45.79348" lon="4.79951">
        <ele>190.666</ele>
        <time>2015-06-14T10:04:23Z</time>
      </trkpt>
      <trkpt lat="45.79308" lon="4.79979">
        <ele>188.233</ele>
        <time>2015-06-14T10:04:29Z</time>
      </trkpt>
      <trkpt lat="45.79276" lon="4.79994">
        <ele>185.477</ele>
        <time>2015-06-14T10:04:33Z</time>
      </trkpt>
      <trkpt lat="45.79263" lon="4.80008">
        <ele>183.201</ele>
        <time>2015-06-14T10:04:36Z</time>
      </trkpt>
      <trkpt lat="45.79251" lon="4.80041">
        <ele>181.964</ele>
        <time>2015-06-14T10:04:40Z</time>
      </trkpt>
      <trkpt lat="45.79248" lon="4.80134">
        <ele>179.531</ele>
        <time>2015-06-14T10:04:49Z</time>
      </trkpt>
      <trkpt lat="45.79247" lon="4.80155">
        <ele>177.43</ele>
        <time>2015-06-14T10:04:51Z</time>
      </trkpt>
      <trkpt lat="45.79249" lon="4.80198">
        <ele>177.872</ele>
        <time>2015-06-14T10:04:55Z</time>
      </trkpt>
      <trkpt lat="45.79219" lon="4.80256">
        <ele>176.48</ele>
        <time>2015-06-14T10:05:02Z</time>
      </trkpt>
      <trkpt lat="45.79178" lon="4.80273">
        <ele>174.638</ele>
        <time>2015-06-14T10:05:06Z</time>
      </trkpt>
      <trkpt lat="45.79126" lon="4.80318">
        <ele>171.106</ele>
        <time>2015-06-14T10:05:12Z</time>
      </trkpt>
      <trkpt lat="45.79104" lon="4.80365">
        <ele>170.472</ele>
        <time>2015-06-14T10:05:16Z</time>
      </trkpt>
      <trkpt lat="45.79078" lon="4.804">
        <ele>169.67</ele>
        <time>2015-06-14T10:05:20Z</time>
      </trkpt>
      <trkpt lat="45.79033" lon="4.80447">
        <ele>168.332</ele>
        <time>2015-06-14T10:05:30Z</time>
      </trkpt>
      <trkpt lat="45.79003" lon="4.80499">
        <ele>167.437</ele>
        <time>2015-06-14T10:05:40Z</time>
      </trkpt>
      <trkpt lat="45.79008" lon="4.80531">
        <ele>166.299</ele>
        <time>2015-06-14T10:05:42Z</time>
      </trkpt>
      <trkpt lat="45.78967" lon="4.80624">
        <ele>158.797</ele>
        <time>2015-06-14T10:05:56Z</time>
      </trkpt>
      <trkpt lat="45.78929" lon="4.80663">
        <ele>152.249</ele>
        <time>2015-06-14T10:06:05Z</time>
      </trkpt>
      <trkpt lat="45.78895" lon="4.80706">
        <ele>151.69</ele>
        <time>2015-06-14T10:06:12Z</time>
      </trkpt>
      <trkpt lat="45.78892" lon="4.80729">
        <ele>154.711</ele>
        <time>2015-06-14T10:06:16Z</time>
      </trkpt>
      <trkpt lat="45.78891" lon="4.80735">
        <ele>157.415</ele>
        <time>2015-06-14T10:06:31Z</time>
      </trkpt>
      <trkpt lat="45.78891" lon="4.80735">
        <ele>157.49</ele>
        <time>2015-06-14T10:06:34Z</time>
      </trkpt>
      <trkpt lat="45.7889" lon="4.80759">
        <ele>162.987</ele>
        <time>2015-06-14T10:06:43Z</time>
      </trkpt>
      <trkpt lat="45.7889" lon="4.80761">
        <ele>164.97</ele>
        <time>2015-06-14T10:06:50Z</time>
      </trkpt>
      <trkpt lat="45.78882" lon="4.80766">
        <ele>166.749</ele>
        <time>2015-06-14T10:06:54Z</time>
      </trkpt>
      <trkpt lat="45.78872" lon="4.80772">
        <ele>167.73</ele>
        <time>2015-06-14T10:06:57Z</time>
      </trkpt>
      <trkpt lat="45.78838" lon="4.80799">
        <ele>169.068</ele>
        <time>2015-06-14T10:07:05Z</time>
      </trkpt>
      <trkpt lat="45.78809" lon="4.80845">
        <ele>169.482</ele>
        <time>2015-06-14T10:07:13Z</time>
      </trkpt>
      <trkpt lat="45.78768" lon="4.80861">
        <ele>168.418</ele>
        <time>2015-06-14T10:07:20Z</time>
      </trkpt>
      <trkpt lat="45.78748" lon="4.80855">
        <ele>168.626</ele>
        <time>2015-06-14T10:07:23Z</time>
      </trkpt>
      <trkpt lat="45.78622" lon="4.80802">
        <ele>169.284</ele>
        <time>2015-06-14T10:07:42Z</time>
      </trkpt>
      <trkpt lat="45.78542" lon="4.80762">
        <ele>169.874</ele>
        <time>2015-06-14T10:07:56Z</time>
      </trkpt>
      <trkpt lat="45.78514" lon="4.80772">
        <ele>170.614</ele>
        <time>2015-06-14T10:08:01Z</time>
      </trkpt>
      <trkpt lat="45.78487" lon="4.80805">
        <ele>167.706</ele>
        <time>2015-06-14T10:08:08Z</time>
      </trkpt>
      <trkpt lat="45.78457" lon="4.80809">
        <ele>170.272</ele>
        <time>2015-06-14T10:08:18Z</time>
      </trkpt>
      <trkpt lat="45.78453" lon="4.80812">
        <ele>170.183</ele>
        <time>2015-06-14T10:08:21Z</time>
      </trkpt>
      <trkpt lat="45.78451" lon="4.80812">
        <ele>170.271</ele>
        <time>2015-06-14T10:08:23Z</time>
      </trkpt>
      <trkpt lat="45.7843" lon="4.80815">
        <ele>170.328</ele>
        <time>2015-06-14T10:08:37Z</time>
      </trkpt>
      <trkpt lat="45.78379" lon="4.80791">
        <ele>170.491</ele>
        <time>2015-06-14T10:08:50Z</time>
      </trkpt>
      <trkpt lat="45.78316" lon="4.80758">
        <ele>171.381</ele>
        <time>2015-06-14T10:09:07Z</time>
      </trkpt>
      <trkpt lat="45.78298" lon="4.80746">
        <ele>171.786</ele>
        <time>2015-06-14T10:09:12Z</time>
      </trkpt>
      <trkpt lat="45.78257" lon="4.80729">
        <ele>173.078</ele>
        <time>2015-06-14T10:09:21Z</time>
      </trkpt>
      <trkpt lat="45.78248" lon="4.80726">
        <ele>172.739</ele>
        <time>2015-06-14T10:09:23Z</time>
      </trkpt>
      <trkpt lat="45.78222" lon="4.8071">
        <ele>173.023</ele>
        <time>2015-06-14T10:09:29Z</time>
      </trkpt>
      <trkpt lat="45.78205" lon="4.80699">
        <ele>173.226</ele>
        <time>2015-06-14T10:09:33Z</time>
      </trkpt>
      <trkpt lat="45.78169" lon="4.80671">
        <ele>174.429</ele>
        <time>2015-06-14T10:09:41Z</time>
      </trkpt>
      <trkpt lat="45.78149" lon="4.8068">
        <ele>173.387</ele>
        <time>2015-06-14T10:09:46Z</time>
      </trkpt>
      <trkpt lat="45.78129" lon="4.80708">
        <ele>169.42</ele>
        <time>2015-06-14T10:09:52Z</time>
      </trkpt>
      <trkpt lat="45.7811" lon="4.80751">
        <ele>168.021</ele>
        <time>2015-06-14T10:10:00Z</time>
      </trkpt>
      <trkpt lat="45.78081" lon="4.80808">
        <ele>169.637</ele>
        <time>2015-06-14T10:10:12Z</time>
      </trkpt>
      <trkpt lat="45.78076" lon="4.80826">
        <ele>169.48</ele>
        <time>2015-06-14T10:10:28Z</time>
      </trkpt>
      <trkpt lat="45.78047" lon="4.80892">
        <ele>170.382</ele>
        <time>2015-06-14T10:10:43Z</time>
      </trkpt>
      <trkpt lat="45.78033" lon="4.80889">
        <ele>169.692</ele>
        <time>2015-06-14T10:10:48Z</time>
      </trkpt>
      <trkpt lat="45.77993" lon="4.80871">
        <ele>168.595</ele>
        <time>2015-06-14T10:10:57Z</time>
      </trkpt>
      <trkpt lat="45.77957" lon="4.80849">
        <ele>168.715</ele>
        <time>2015-06-14T10:11:04Z</time>
      </trkpt>
      <trkpt lat="45.77936" lon="4.8084">
        <ele>168.833</ele>
        <time>2015-06-14T10:11:08Z</time>
      </trkpt>
      <trkpt lat="45.77925" lon="4.80836">
        <ele>169.366</ele>
        <time>2015-06-14T10:11:10Z</time>
      </trkpt>
      <trkpt lat="45.77884" lon="4.8081">
        <ele>171.99</ele>
        <time>2015-06-14T10:11:18Z</time>
      </trkpt>
      <trkpt lat="45.77861" lon="4.80788">
        <ele>172.459</ele>
        <time>2015-06-14T10:11:23Z</time>
      </trkpt>
      <trkpt lat="45.77849" lon="4.80787">
        <ele>173.59</ele>
        <time>2015-06-14T10:11:26Z</time>
      </trkpt>
      <trkpt lat="45.77791" lon="4.80783">
        <ele>179.419</ele>
        <time>2015-06-14T10:11:37Z</time>
      </trkpt>
      <trkpt lat="45.77783" lon="4.80781">
        <ele>180.518</ele>
        <time>2015-06-14T10:11:39Z</time>
      </trkpt>
      <trkpt lat="45.77747" lon="4.80779">
        <ele>185.468</ele>
        <time>2015-06-14T10:11:48Z</time>
      </trkpt>
      <trkpt lat="45.77733" lon="4.80767">
        <ele>184.927</ele>
        <time>2015-06-14T10:11:50Z</time>
      </trkpt>
      <trkpt lat="45.77711" lon="4.80743">
        <ele>181.375</ele>
        <time>2015-06-14T10:11:54Z</time>
      </trkpt>
      <trkpt lat="45.77676" lon="4.80751">
        <ele>177.278</ele>
        <time>2015-06-14T10:12:00Z</time>
      </trkpt>
      <trkpt lat="45.77663" lon="4.80755">
        <ele>176.861</ele>
        <time>2015-06-14T10:12:02Z</time>
      </trkpt>
      <trkpt lat="45.77644" lon="4.80761">
        <ele>175.928</ele>
        <time>2015-06-14T10:12:05Z</time>
      </trkpt>
      <trkpt lat="45.77615" lon="4.80778">
        <ele>174.661</ele>
        <time>2015-06-14T10:12:10Z</time>
      </trkpt>
      <trkpt lat="45.77507" lon="4.80827">
        <ele>170.501</ele>
        <time>2015-06-14T10:12:26Z</time>
      </trkpt>
      <trkpt lat="45.77499" lon="4.80832">
        <ele>170.337</ele>
        <time>2015-06-14T10:12:27Z</time>
      </trkpt>
      <trkpt lat="45.77465" lon="4.8084">
        <ele>169.089</ele>
        <time>2015-06-14T10:12:31Z</time>
      </trkpt>
      <trkpt lat="45.77415" lon="4.80893">
        <ele>170.895</ele>
        <time>2015-06-14T10:12:43Z</time>
      </trkpt>
      <trkpt lat="45.7738" lon="4.80912">
        <ele>174.679</ele>
        <time>2015-06-14T10:12:55Z</time>
      </trkpt>
      <trkpt lat="45.77373" lon="4.80916">
        <ele>173.153</ele>
        <time>2015-06-14T10:12:57Z</time>
      </trkpt>
      <trkpt lat="45.77339" lon="4.80965">
        <ele>168.256</ele>
        <time>2015-06-14T10:13:11Z</time>
      </trkpt>
      <trkpt lat="45.77341" lon="4.80978">
        <ele>167.17</ele>
        <time>2015-06-14T10:13:16Z</time>
      </trkpt>
      <trkpt lat="45.77312" lon="4.81018">
        <ele>162.104</ele>
        <time>2015-06-14T10:13:28Z</time>
      </trkpt>
      <trkpt lat="45.7729" lon="4.81051">
        <ele>155.958</ele>
        <time>2015-06-14T10:13:38Z</time>
      </trkpt>
      <trkpt lat="45.77243" lon="4.81091">
        <ele>152.491</ele>
        <time>2015-06-14T10:13:43Z</time>
      </trkpt>
      <trkpt lat="45.77178" lon="4.8114">
        <ele>150.529</ele>
        <time>2015-06-14T10:13:48Z</time>
      </trkpt>
      <trkpt lat="45.77138" lon="4.81146">
        <ele>148.416</ele>
        <time>2015-06-14T10:13:52Z</time>
      </trkpt>
      <trkpt lat="45.7708" lon="4.81173">
        <ele>143.053</ele>
        <time>2015-06-14T10:14:02Z</time>
      </trkpt>
      <trkpt lat="45.77049" lon="4.8118">
        <ele>140.393</ele>
        <time>2015-06-14T10:14:07Z</time>
      </trkpt>
      <trkpt lat="45.77007" lon="4.81206">
        <ele>133.016</ele>
        <time>2015-06-14T10:14:19Z</time>
      </trkpt>
      <trkpt lat="45.77008" lon="4.81266">
        <ele>144.594</ele>
        <time>2015-06-14T10:14:28Z</time>
      </trkpt>
      <trkpt lat="45.77017" lon="4.81383">
        <ele>164.44</ele>
        <time>2015-06-14T10:14:43Z</time>
      </trkpt>
      <trkpt lat="45.76998" lon="4.8143">
        <ele>165.946</ele>
        <time>2015-06-14T10:14:50Z</time>
      </trkpt>
      <trkpt lat="45.76917" lon="4.81483">
        <ele>166.867</ele>
        <time>2015-06-14T10:15:04Z</time>
      </trkpt>
      <trkpt lat="45.76872" lon="4.81511">
        <ele>167.973</ele>
        <time>2015-06-14T10:15:12Z</time>
      </trkpt>
      <trkpt lat="45.76845" lon="4.8154">
        <ele>168.42</ele>
        <time>2015-06-14T10:15:18Z</time>
      </trkpt>
      <trkpt lat="45.76846" lon="4.81558">
        <ele>165.466</ele>
        <time>2015-06-14T10:15:22Z</time>
      </trkpt>
      <trkpt lat="45.76865" lon="4.81575">
        <ele>164.092</ele>
        <time>2015-06-14T10:15:29Z</time>
      </trkpt>
      <trkpt lat="45.76869" lon="4.81601">
        <ele>163.497</ele>
        <time>2015-06-14T10:15:39Z</time>
      </trkpt>
      <trkpt lat="45.76878" lon="4.81617">
        <ele>163.847</ele>
        <time>2015-06-14T10:15:43Z</time>
      </trkpt>
      <trkpt lat="45.76894" lon="4.81611">
        <ele>165.447</ele>
        <time>2015-06-14T10:15:49Z</time>
      </trkpt>
      <trkpt lat="45.76925" lon="4.8156">
        <ele>171.739</ele>
        <time>2015-06-14T10:16:01Z</time>
      </trkpt>
      <trkpt lat="45.76932" lon="4.81569">
        <ele>178.132</ele>
        <time>2015-06-14T10:16:06Z</time>
      </trkpt>
      <trkpt lat="45.76887" lon="4.81652">
        <ele>186.406</ele>
        <time>2015-06-14T10:16:22Z</time>
      </trkpt>
      <trkpt lat="45.76885" lon="4.81657">
        <ele>186.307</ele>
        <time>2015-06-14T10:16:23Z</time>
      </trkpt>
      <trkpt lat="45.76871" lon="4.81713">
        <ele>188.241</ele>
        <time>2015-06-14T10:16:33Z</time>
      </trkpt>
      <trkpt lat="45.76884" lon="4.81712">
        <ele>188.04</ele>
        <time>2015-06-14T10:16:39Z</time>
      </trkpt>
      <trkpt lat="45.76887" lon="4.817">
        <ele>188.703</ele>
        <time>2015-06-14T10:16:41Z</time>
      </trkpt>
      <trkpt lat="45.76895" lon="4.8168">
        <ele>190.595</ele>
        <time>2015-06-14T10:16:45Z</time>
      </trkpt>
      <trkpt lat="45.76905" lon="4.81665">
        <ele>192.372</ele>
        <time>2015-06-14T10:16:48Z</time>
      </trkpt>
      <trkpt lat="45.76935" lon="4.81617">
        <ele>196.224</ele>
        <time>2015-06-14T10:16:58Z</time>
      </trkpt>
      <trkpt lat="45.76961" lon="4.8159">
        <ele>197.263</ele>
        <time>2015-06-14T10:17:05Z</time>
      </trkpt>
      <trkpt lat="45.76977" lon="4.81579">
        <ele>201.536</ele>
        <time>2015-06-14T10:17:09Z</time>
      </trkpt>
      <trkpt lat="45.76984" lon="4.81572">
        <ele>203.195</ele>
        <time>2015-06-14T10:17:11Z</time>
      </trkpt>
      <trkpt lat="45.77002" lon="4.81579">
        <ele>207.37</ele>
        <time>2015-06-14T10:17:16Z</time>
      </trkpt>
      <trkpt lat="45.77009" lon="4.81598">
        <ele>208.372</ele>
        <time>2015-06-14T10:17:20Z</time>
      </trkpt>
      <trkpt lat="45.76984" lon="4.81629">
        <ele>210.229</ele>
        <time>2015-06-14T10:17:28Z</time>
      </trkpt>
      <trkpt lat="45.76968" lon="4.81643">
        <ele>210.358</ele>
        <time>2015-06-14T10:17:32Z</time>
      </trkpt>
      <trkpt lat="45.76952" lon="4.81657">
        <ele>208.597</ele>
        <time>2015-06-14T10:17:36Z</time>
      </trkpt>
      <trkpt lat="45.7692" lon="4.81701">
        <ele>212.985</ele>
        <time>2015-06-14T10:17:49Z</time>
      </trkpt>
      <trkpt lat="45.76912" lon="4.81744">
        <ele>213.417</ele>
        <time>2015-06-14T10:18:05Z</time>
      </trkpt>
      <trkpt lat="45.76899" lon="4.81805">
        <ele>217.711</ele>
        <time>2015-06-14T10:18:21Z</time>
      </trkpt>
      <trkpt lat="45.76889" lon="4.81868">
        <ele>218.641</ele>
        <time>2015-06-14T10:18:35Z</time>
      </trkpt>
      <trkpt lat="45.76888" lon="4.81923">
        <ele>212.262</ele>
        <time>2015-06-14T10:18:45Z</time>
      </trkpt>
      <trkpt lat="45.76896" lon="4.81988">
        <ele>209.313</ele>
        <time>2015-06-14T10:18:55Z</time>
      </trkpt>
      <trkpt lat="45.76901" lon="4.82017">
        <ele>206.965</ele>
        <time>2015-06-14T10:18:59Z</time>
      </trkpt>
      <trkpt lat="45.76918" lon="4.82119">
        <ele>206.105</ele>
        <time>2015-06-14T10:19:12Z</time>
      </trkpt>
      <trkpt lat="45.76931" lon="4.82223">
        <ele>205.132</ele>
        <time>2015-06-14T10:19:26Z</time>
      </trkpt>
      <trkpt lat="45.76931" lon="4.82229">
        <ele>205.056</ele>
        <time>2015-06-14T10:19:27Z</time>
      </trkpt>
      <trkpt lat="45.76938" lon="4.82304">
        <ele>213.044</ele>
        <time>2015-06-14T10:19:37Z</time>
      </trkpt>
      <trkpt lat="45.76941" lon="4.82337">
        <ele>214.371</ele>
        <time>2015-06-14T10:19:42Z</time>
      </trkpt>
      <trkpt lat="45.76951" lon="4.82396">
        <ele>209.535</ele>
        <time>2015-06-14T10:19:49Z</time>
      </trkpt>
      <trkpt lat="45.76953" lon="4.82432">
        <ele>208.28</ele>
        <time>2015-06-14T10:19:53Z</time>
      </trkpt>
      <trkpt lat="45.76966" lon="4.82461">
        <ele>207.953</ele>
        <time>2015-06-14T10:19:58Z</time>
      </trkpt>
      <trkpt lat="45.76977" lon="4.82467">
        <ele>211.886</ele>
        <time>2015-06-14T10:20:05Z</time>
      </trkpt>
      <trkpt lat="45.76993" lon="4.825">
        <ele>210.92</ele>
        <time>2015-06-14T10:20:18Z</time>
      </trkpt>
      <trkpt lat="45.76989" lon="4.82517">
        <ele>209.098</ele>
        <time>2015-06-14T10:20:29Z</time>
      </trkpt>
      <trkpt lat="45.76989" lon="4.82518">
        <ele>208.097</ele>
        <time>2015-06-14T10:20:57Z</time>
      </trkpt>
    </trkseg>
  </trk>
</gpx>